<?xml version="1.0" encoding="UTF-8" standalone="no" ?>
<gpx xmlns="http://www.topografix.com/GPX/1/1" xmlns:xsi="http://www.w3.org/2001/XMLSchema-instance" xsi:schemaLocation="http://www.topografix.com/GPX/1/1 http://www.topografix.com/GPX/1/1/gpx.xsd" version="1.1" creator="VisuGPX - https://www.visugpx.com">
  <metadata>
    <name>La croix de Provence / La Ste Victoire</name>
    <desc><![CDATA[Randonnée # 19, saison 2025 / 2026 des Pousse-cailloux
Départ de la randonnée de Vauvenargues dans le sens horaire,un passage à proximité du château de Picasso, de superbes vues tout au long de la journée, une montée assez sportive, un cheminement type montagne russe pour arriver à la croix de Provence et au prieuré, un plateau lunaire à traverser et ce jour-là.....pas de vent, un vrai plaisir. Le secteur bétonné lors de la descente était assez pénible.]]></desc>
  </metadata>
  <wpt lat="43.55445" lon="5.59758">
    <ele>479</ele>
    <name><![CDATA[Point de passage 1]]></name>
    <type><![CDATA[GENERIC]]></type>
  </wpt>
  <wpt lat="43.55453" lon="5.59761">
    <ele>474</ele>
    <name><![CDATA[Point de passage 2]]></name>
    <type><![CDATA[GENERIC]]></type>
  </wpt>
  <trk>
    <name><![CDATA[Randonnée du 20/03/2026 à 09:07]]></name>
    <trkseg>
      <trkpt lat="43.55445" lon="5.59758">
        <ele>479</ele>
        <time>2026-03-20T08:07:30.000Z</time>
      </trkpt>
      <trkpt lat="43.55448" lon="5.59763">
        <ele>479</ele>
        <time>2026-03-20T08:07:32.000Z</time>
      </trkpt>
      <trkpt lat="43.55457" lon="5.59763">
        <ele>479</ele>
        <time>2026-03-20T08:07:42.000Z</time>
      </trkpt>
      <trkpt lat="43.55465" lon="5.59767">
        <ele>479</ele>
        <time>2026-03-20T08:07:58.000Z</time>
      </trkpt>
      <trkpt lat="43.55474" lon="5.59769">
        <ele>479</ele>
        <time>2026-03-20T08:08:07.000Z</time>
      </trkpt>
      <trkpt lat="43.55483" lon="5.59769">
        <ele>480</ele>
        <time>2026-03-20T08:08:19.000Z</time>
      </trkpt>
      <trkpt lat="43.55492" lon="5.59769">
        <ele>480</ele>
        <time>2026-03-20T08:08:29.000Z</time>
      </trkpt>
      <trkpt lat="43.555" lon="5.59769">
        <ele>480</ele>
        <time>2026-03-20T08:08:49.000Z</time>
      </trkpt>
      <trkpt lat="43.55503" lon="5.59781">
        <ele>479</ele>
        <time>2026-03-20T08:09:35.000Z</time>
      </trkpt>
      <trkpt lat="43.55504" lon="5.59793">
        <ele>478</ele>
        <time>2026-03-20T08:09:43.000Z</time>
      </trkpt>
      <trkpt lat="43.55507" lon="5.59805">
        <ele>477</ele>
        <time>2026-03-20T08:09:51.000Z</time>
      </trkpt>
      <trkpt lat="43.55511" lon="5.59819">
        <ele>477</ele>
        <time>2026-03-20T08:10:01.000Z</time>
      </trkpt>
      <trkpt lat="43.55512" lon="5.59832">
        <ele>476</ele>
        <time>2026-03-20T08:10:09.000Z</time>
      </trkpt>
      <trkpt lat="43.5551" lon="5.59844">
        <ele>475</ele>
        <time>2026-03-20T08:10:17.000Z</time>
      </trkpt>
      <trkpt lat="43.55512" lon="5.59856">
        <ele>475</ele>
        <time>2026-03-20T08:10:27.000Z</time>
      </trkpt>
      <trkpt lat="43.55518" lon="5.59868">
        <ele>474</ele>
        <time>2026-03-20T08:10:36.000Z</time>
      </trkpt>
      <trkpt lat="43.55521" lon="5.5988">
        <ele>474</ele>
        <time>2026-03-20T08:10:45.000Z</time>
      </trkpt>
      <trkpt lat="43.55524" lon="5.59894">
        <ele>474</ele>
        <time>2026-03-20T08:10:54.000Z</time>
      </trkpt>
      <trkpt lat="43.55525" lon="5.59906">
        <ele>474</ele>
        <time>2026-03-20T08:11:05.000Z</time>
      </trkpt>
      <trkpt lat="43.55527" lon="5.59919">
        <ele>474</ele>
        <time>2026-03-20T08:11:15.000Z</time>
      </trkpt>
      <trkpt lat="43.5553" lon="5.5993">
        <ele>475</ele>
        <time>2026-03-20T08:11:24.000Z</time>
      </trkpt>
      <trkpt lat="43.55532" lon="5.59943">
        <ele>475</ele>
        <time>2026-03-20T08:11:35.000Z</time>
      </trkpt>
      <trkpt lat="43.55534" lon="5.59955">
        <ele>475</ele>
        <time>2026-03-20T08:11:45.000Z</time>
      </trkpt>
      <trkpt lat="43.55533" lon="5.59969">
        <ele>476</ele>
        <time>2026-03-20T08:11:53.000Z</time>
      </trkpt>
      <trkpt lat="43.55534" lon="5.59982">
        <ele>476</ele>
        <time>2026-03-20T08:12:03.000Z</time>
      </trkpt>
      <trkpt lat="43.55534" lon="5.59996">
        <ele>477</ele>
        <time>2026-03-20T08:12:12.000Z</time>
      </trkpt>
      <trkpt lat="43.55534" lon="5.6001">
        <ele>478</ele>
        <time>2026-03-20T08:12:21.000Z</time>
      </trkpt>
      <trkpt lat="43.55537" lon="5.60022">
        <ele>479</ele>
        <time>2026-03-20T08:12:29.000Z</time>
      </trkpt>
      <trkpt lat="43.55539" lon="5.60035">
        <ele>480</ele>
        <time>2026-03-20T08:12:39.000Z</time>
      </trkpt>
      <trkpt lat="43.55541" lon="5.60048">
        <ele>481</ele>
        <time>2026-03-20T08:12:47.000Z</time>
      </trkpt>
      <trkpt lat="43.55543" lon="5.60062">
        <ele>481</ele>
        <time>2026-03-20T08:12:54.000Z</time>
      </trkpt>
      <trkpt lat="43.55543" lon="5.60074">
        <ele>481</ele>
        <time>2026-03-20T08:13:03.000Z</time>
      </trkpt>
      <trkpt lat="43.55538" lon="5.60083">
        <ele>480</ele>
        <time>2026-03-20T08:13:14.000Z</time>
      </trkpt>
      <trkpt lat="43.55535" lon="5.60096">
        <ele>479</ele>
        <time>2026-03-20T08:13:23.000Z</time>
      </trkpt>
      <trkpt lat="43.55531" lon="5.60109">
        <ele>478</ele>
        <time>2026-03-20T08:13:34.000Z</time>
      </trkpt>
      <trkpt lat="43.55528" lon="5.60121">
        <ele>477</ele>
        <time>2026-03-20T08:13:55.000Z</time>
      </trkpt>
      <trkpt lat="43.55526" lon="5.60134">
        <ele>476</ele>
        <time>2026-03-20T08:14:04.000Z</time>
      </trkpt>
      <trkpt lat="43.55527" lon="5.60147">
        <ele>475</ele>
        <time>2026-03-20T08:14:19.000Z</time>
      </trkpt>
      <trkpt lat="43.55529" lon="5.6016">
        <ele>474</ele>
        <time>2026-03-20T08:14:28.000Z</time>
      </trkpt>
      <trkpt lat="43.55531" lon="5.60173">
        <ele>474</ele>
        <time>2026-03-20T08:14:39.000Z</time>
      </trkpt>
      <trkpt lat="43.5553" lon="5.60187">
        <ele>474</ele>
        <time>2026-03-20T08:14:49.000Z</time>
      </trkpt>
      <trkpt lat="43.55529" lon="5.60199">
        <ele>474</ele>
        <time>2026-03-20T08:15:01.000Z</time>
      </trkpt>
      <trkpt lat="43.55529" lon="5.60212">
        <ele>474</ele>
        <time>2026-03-20T08:15:13.000Z</time>
      </trkpt>
      <trkpt lat="43.55529" lon="5.60225">
        <ele>474</ele>
        <time>2026-03-20T08:15:23.000Z</time>
      </trkpt>
      <trkpt lat="43.55531" lon="5.60238">
        <ele>473</ele>
        <time>2026-03-20T08:15:45.000Z</time>
      </trkpt>
      <trkpt lat="43.55529" lon="5.60249">
        <ele>473</ele>
        <time>2026-03-20T08:16:01.000Z</time>
      </trkpt>
      <trkpt lat="43.55532" lon="5.60261">
        <ele>472</ele>
        <time>2026-03-20T08:16:07.000Z</time>
      </trkpt>
      <trkpt lat="43.55533" lon="5.60274">
        <ele>472</ele>
        <time>2026-03-20T08:16:24.000Z</time>
      </trkpt>
      <trkpt lat="43.55533" lon="5.60287">
        <ele>471</ele>
        <time>2026-03-20T08:16:35.000Z</time>
      </trkpt>
      <trkpt lat="43.55533" lon="5.60301">
        <ele>471</ele>
        <time>2026-03-20T08:16:55.000Z</time>
      </trkpt>
      <trkpt lat="43.55527" lon="5.60316">
        <ele>470</ele>
        <time>2026-03-20T08:17:04.000Z</time>
      </trkpt>
      <trkpt lat="43.55522" lon="5.60328">
        <ele>470</ele>
        <time>2026-03-20T08:17:17.000Z</time>
      </trkpt>
      <trkpt lat="43.55515" lon="5.60335">
        <ele>472</ele>
        <time>2026-03-20T08:17:37.000Z</time>
      </trkpt>
      <trkpt lat="43.55512" lon="5.60346">
        <ele>473</ele>
        <time>2026-03-20T08:17:47.000Z</time>
      </trkpt>
      <trkpt lat="43.55507" lon="5.60357">
        <ele>473</ele>
        <time>2026-03-20T08:18:03.000Z</time>
      </trkpt>
      <trkpt lat="43.55502" lon="5.60369">
        <ele>474</ele>
        <time>2026-03-20T08:18:11.000Z</time>
      </trkpt>
      <trkpt lat="43.55496" lon="5.60378">
        <ele>474</ele>
        <time>2026-03-20T08:18:21.000Z</time>
      </trkpt>
      <trkpt lat="43.55495" lon="5.6039">
        <ele>473</ele>
        <time>2026-03-20T08:18:29.000Z</time>
      </trkpt>
      <trkpt lat="43.55498" lon="5.60401">
        <ele>472</ele>
        <time>2026-03-20T08:18:37.000Z</time>
      </trkpt>
      <trkpt lat="43.555" lon="5.60415">
        <ele>472</ele>
        <time>2026-03-20T08:18:46.000Z</time>
      </trkpt>
      <trkpt lat="43.55501" lon="5.60429">
        <ele>471</ele>
        <time>2026-03-20T08:18:55.000Z</time>
      </trkpt>
      <trkpt lat="43.55502" lon="5.60442">
        <ele>470</ele>
        <time>2026-03-20T08:19:03.000Z</time>
      </trkpt>
      <trkpt lat="43.55502" lon="5.60456">
        <ele>470</ele>
        <time>2026-03-20T08:19:21.000Z</time>
      </trkpt>
      <trkpt lat="43.55505" lon="5.60469">
        <ele>469</ele>
        <time>2026-03-20T08:19:28.000Z</time>
      </trkpt>
      <trkpt lat="43.55509" lon="5.60483">
        <ele>468</ele>
        <time>2026-03-20T08:19:40.000Z</time>
      </trkpt>
      <trkpt lat="43.55511" lon="5.60495">
        <ele>467</ele>
        <time>2026-03-20T08:19:49.000Z</time>
      </trkpt>
      <trkpt lat="43.55509" lon="5.60508">
        <ele>466</ele>
        <time>2026-03-20T08:19:59.000Z</time>
      </trkpt>
      <trkpt lat="43.55507" lon="5.60522">
        <ele>465</ele>
        <time>2026-03-20T08:20:07.000Z</time>
      </trkpt>
      <trkpt lat="43.55509" lon="5.60537">
        <ele>464</ele>
        <time>2026-03-20T08:20:19.000Z</time>
      </trkpt>
      <trkpt lat="43.55508" lon="5.6055">
        <ele>463</ele>
        <time>2026-03-20T08:20:25.000Z</time>
      </trkpt>
      <trkpt lat="43.55508" lon="5.60562">
        <ele>462</ele>
        <time>2026-03-20T08:20:32.000Z</time>
      </trkpt>
      <trkpt lat="43.55508" lon="5.60575">
        <ele>462</ele>
        <time>2026-03-20T08:20:41.000Z</time>
      </trkpt>
      <trkpt lat="43.55507" lon="5.60588">
        <ele>461</ele>
        <time>2026-03-20T08:20:51.000Z</time>
      </trkpt>
      <trkpt lat="43.55504" lon="5.60599">
        <ele>460</ele>
        <time>2026-03-20T08:20:59.000Z</time>
      </trkpt>
      <trkpt lat="43.55496" lon="5.60608">
        <ele>459</ele>
        <time>2026-03-20T08:21:11.000Z</time>
      </trkpt>
      <trkpt lat="43.55488" lon="5.60612">
        <ele>459</ele>
        <time>2026-03-20T08:21:19.000Z</time>
      </trkpt>
      <trkpt lat="43.55479" lon="5.60613">
        <ele>458</ele>
        <time>2026-03-20T08:21:26.000Z</time>
      </trkpt>
      <trkpt lat="43.55469" lon="5.60614">
        <ele>458</ele>
        <time>2026-03-20T08:21:51.000Z</time>
      </trkpt>
      <trkpt lat="43.5546" lon="5.60618">
        <ele>457</ele>
        <time>2026-03-20T08:22:11.000Z</time>
      </trkpt>
      <trkpt lat="43.5545" lon="5.60623">
        <ele>456</ele>
        <time>2026-03-20T08:22:18.000Z</time>
      </trkpt>
      <trkpt lat="43.5544" lon="5.60627">
        <ele>455</ele>
        <time>2026-03-20T08:22:27.000Z</time>
      </trkpt>
      <trkpt lat="43.55432" lon="5.60632">
        <ele>454</ele>
        <time>2026-03-20T08:22:35.000Z</time>
      </trkpt>
      <trkpt lat="43.55425" lon="5.60639">
        <ele>453</ele>
        <time>2026-03-20T08:22:57.000Z</time>
      </trkpt>
      <trkpt lat="43.55418" lon="5.60633">
        <ele>452</ele>
        <time>2026-03-20T08:23:17.000Z</time>
      </trkpt>
      <trkpt lat="43.5541" lon="5.60624">
        <ele>452</ele>
        <time>2026-03-20T08:23:26.000Z</time>
      </trkpt>
      <trkpt lat="43.55404" lon="5.60615">
        <ele>452</ele>
        <time>2026-03-20T08:23:35.000Z</time>
      </trkpt>
      <trkpt lat="43.55396" lon="5.60607">
        <ele>452</ele>
        <time>2026-03-20T08:23:47.000Z</time>
      </trkpt>
      <trkpt lat="43.55387" lon="5.60598">
        <ele>453</ele>
        <time>2026-03-20T08:24:35.000Z</time>
      </trkpt>
      <trkpt lat="43.55381" lon="5.60588">
        <ele>454</ele>
        <time>2026-03-20T08:24:43.000Z</time>
      </trkpt>
      <trkpt lat="43.55372" lon="5.60585">
        <ele>455</ele>
        <time>2026-03-20T08:24:49.000Z</time>
      </trkpt>
      <trkpt lat="43.55363" lon="5.60586">
        <ele>455</ele>
        <time>2026-03-20T08:24:57.000Z</time>
      </trkpt>
      <trkpt lat="43.55354" lon="5.60588">
        <ele>456</ele>
        <time>2026-03-20T08:25:06.000Z</time>
      </trkpt>
      <trkpt lat="43.55345" lon="5.60591">
        <ele>455</ele>
        <time>2026-03-20T08:25:14.000Z</time>
      </trkpt>
      <trkpt lat="43.55336" lon="5.60592">
        <ele>455</ele>
        <time>2026-03-20T08:25:24.000Z</time>
      </trkpt>
      <trkpt lat="43.55328" lon="5.60589">
        <ele>456</ele>
        <time>2026-03-20T08:25:37.000Z</time>
      </trkpt>
      <trkpt lat="43.55319" lon="5.60586">
        <ele>456</ele>
        <time>2026-03-20T08:25:47.000Z</time>
      </trkpt>
      <trkpt lat="43.55311" lon="5.60592">
        <ele>455</ele>
        <time>2026-03-20T08:25:59.000Z</time>
      </trkpt>
      <trkpt lat="43.55308" lon="5.60603">
        <ele>456</ele>
        <time>2026-03-20T08:26:09.000Z</time>
      </trkpt>
      <trkpt lat="43.553" lon="5.60612">
        <ele>456</ele>
        <time>2026-03-20T08:26:19.000Z</time>
      </trkpt>
      <trkpt lat="43.55293" lon="5.6062">
        <ele>456</ele>
        <time>2026-03-20T08:26:38.000Z</time>
      </trkpt>
      <trkpt lat="43.55284" lon="5.60626">
        <ele>458</ele>
        <time>2026-03-20T08:26:48.000Z</time>
      </trkpt>
      <trkpt lat="43.55275" lon="5.60629">
        <ele>459</ele>
        <time>2026-03-20T08:26:57.000Z</time>
      </trkpt>
      <trkpt lat="43.55267" lon="5.60632">
        <ele>460</ele>
        <time>2026-03-20T08:27:13.000Z</time>
      </trkpt>
      <trkpt lat="43.5526" lon="5.60638">
        <ele>461</ele>
        <time>2026-03-20T08:27:35.000Z</time>
      </trkpt>
      <trkpt lat="43.55253" lon="5.60648">
        <ele>462</ele>
        <time>2026-03-20T08:27:47.000Z</time>
      </trkpt>
      <trkpt lat="43.55247" lon="5.60657">
        <ele>462</ele>
        <time>2026-03-20T08:27:58.000Z</time>
      </trkpt>
      <trkpt lat="43.55238" lon="5.60664">
        <ele>463</ele>
        <time>2026-03-20T08:28:16.000Z</time>
      </trkpt>
      <trkpt lat="43.55229" lon="5.60671">
        <ele>464</ele>
        <time>2026-03-20T08:28:26.000Z</time>
      </trkpt>
      <trkpt lat="43.55222" lon="5.60678">
        <ele>465</ele>
        <time>2026-03-20T08:28:33.000Z</time>
      </trkpt>
      <trkpt lat="43.55216" lon="5.60688">
        <ele>465</ele>
        <time>2026-03-20T08:28:42.000Z</time>
      </trkpt>
      <trkpt lat="43.55211" lon="5.607">
        <ele>465</ele>
        <time>2026-03-20T08:29:03.000Z</time>
      </trkpt>
      <trkpt lat="43.55207" lon="5.60715">
        <ele>466</ele>
        <time>2026-03-20T08:29:13.000Z</time>
      </trkpt>
      <trkpt lat="43.55206" lon="5.6073">
        <ele>467</ele>
        <time>2026-03-20T08:29:19.000Z</time>
      </trkpt>
      <trkpt lat="43.55204" lon="5.60743">
        <ele>469</ele>
        <time>2026-03-20T08:29:29.000Z</time>
      </trkpt>
      <trkpt lat="43.55197" lon="5.60753">
        <ele>471</ele>
        <time>2026-03-20T08:29:42.000Z</time>
      </trkpt>
      <trkpt lat="43.55193" lon="5.60764">
        <ele>472</ele>
        <time>2026-03-20T08:29:56.000Z</time>
      </trkpt>
      <trkpt lat="43.55193" lon="5.60777">
        <ele>473</ele>
        <time>2026-03-20T08:30:17.000Z</time>
      </trkpt>
      <trkpt lat="43.55195" lon="5.60793">
        <ele>474</ele>
        <time>2026-03-20T08:30:23.000Z</time>
      </trkpt>
      <trkpt lat="43.55195" lon="5.60805">
        <ele>475</ele>
        <time>2026-03-20T08:30:31.000Z</time>
      </trkpt>
      <trkpt lat="43.55194" lon="5.60818">
        <ele>476</ele>
        <time>2026-03-20T08:30:42.000Z</time>
      </trkpt>
      <trkpt lat="43.55193" lon="5.60831">
        <ele>478</ele>
        <time>2026-03-20T08:30:53.000Z</time>
      </trkpt>
      <trkpt lat="43.55193" lon="5.60843">
        <ele>480</ele>
        <time>2026-03-20T08:31:09.000Z</time>
      </trkpt>
      <trkpt lat="43.55194" lon="5.60855">
        <ele>481</ele>
        <time>2026-03-20T08:31:21.000Z</time>
      </trkpt>
      <trkpt lat="43.55188" lon="5.60866">
        <ele>482</ele>
        <time>2026-03-20T08:31:51.000Z</time>
      </trkpt>
      <trkpt lat="43.55181" lon="5.60874">
        <ele>484</ele>
        <time>2026-03-20T08:31:59.000Z</time>
      </trkpt>
      <trkpt lat="43.55179" lon="5.60887">
        <ele>486</ele>
        <time>2026-03-20T08:32:13.000Z</time>
      </trkpt>
      <trkpt lat="43.55178" lon="5.60898">
        <ele>488</ele>
        <time>2026-03-20T08:32:50.000Z</time>
      </trkpt>
      <trkpt lat="43.55171" lon="5.60905">
        <ele>489</ele>
        <time>2026-03-20T08:33:03.000Z</time>
      </trkpt>
      <trkpt lat="43.55164" lon="5.60913">
        <ele>490</ele>
        <time>2026-03-20T08:33:17.000Z</time>
      </trkpt>
      <trkpt lat="43.55159" lon="5.60924">
        <ele>491</ele>
        <time>2026-03-20T08:33:29.000Z</time>
      </trkpt>
      <trkpt lat="43.55156" lon="5.60936">
        <ele>491</ele>
        <time>2026-03-20T08:33:41.000Z</time>
      </trkpt>
      <trkpt lat="43.55152" lon="5.60948">
        <ele>491</ele>
        <time>2026-03-20T08:33:55.000Z</time>
      </trkpt>
      <trkpt lat="43.55147" lon="5.60957">
        <ele>491</ele>
        <time>2026-03-20T08:34:15.000Z</time>
      </trkpt>
      <trkpt lat="43.55139" lon="5.60962">
        <ele>491</ele>
        <time>2026-03-20T08:34:31.000Z</time>
      </trkpt>
      <trkpt lat="43.5513" lon="5.60966">
        <ele>490</ele>
        <time>2026-03-20T08:34:45.000Z</time>
      </trkpt>
      <trkpt lat="43.5512" lon="5.60969">
        <ele>490</ele>
        <time>2026-03-20T08:34:57.000Z</time>
      </trkpt>
      <trkpt lat="43.5511" lon="5.60972">
        <ele>490</ele>
        <time>2026-03-20T08:35:07.000Z</time>
      </trkpt>
      <trkpt lat="43.55101" lon="5.60973">
        <ele>489</ele>
        <time>2026-03-20T08:35:15.000Z</time>
      </trkpt>
      <trkpt lat="43.55091" lon="5.60972">
        <ele>489</ele>
        <time>2026-03-20T08:35:29.000Z</time>
      </trkpt>
      <trkpt lat="43.55083" lon="5.60978">
        <ele>489</ele>
        <time>2026-03-20T08:36:00.000Z</time>
      </trkpt>
      <trkpt lat="43.55074" lon="5.60981">
        <ele>489</ele>
        <time>2026-03-20T08:36:06.000Z</time>
      </trkpt>
      <trkpt lat="43.55065" lon="5.6098">
        <ele>489</ele>
        <time>2026-03-20T08:36:29.000Z</time>
      </trkpt>
      <trkpt lat="43.55057" lon="5.60983">
        <ele>490</ele>
        <time>2026-03-20T08:36:47.000Z</time>
      </trkpt>
      <trkpt lat="43.55053" lon="5.60993">
        <ele>491</ele>
        <time>2026-03-20T08:36:56.000Z</time>
      </trkpt>
      <trkpt lat="43.55046" lon="5.60999">
        <ele>493</ele>
        <time>2026-03-20T08:38:07.000Z</time>
      </trkpt>
      <trkpt lat="43.55037" lon="5.61004">
        <ele>494</ele>
        <time>2026-03-20T08:38:19.000Z</time>
      </trkpt>
      <trkpt lat="43.55031" lon="5.61014">
        <ele>496</ele>
        <time>2026-03-20T08:38:33.000Z</time>
      </trkpt>
      <trkpt lat="43.55023" lon="5.61022">
        <ele>498</ele>
        <time>2026-03-20T08:38:45.000Z</time>
      </trkpt>
      <trkpt lat="43.55013" lon="5.61032">
        <ele>501</ele>
        <time>2026-03-20T08:39:17.000Z</time>
      </trkpt>
      <trkpt lat="43.55006" lon="5.61041">
        <ele>504</ele>
        <time>2026-03-20T08:39:27.000Z</time>
      </trkpt>
      <trkpt lat="43.54997" lon="5.61042">
        <ele>508</ele>
        <time>2026-03-20T08:39:57.000Z</time>
      </trkpt>
      <trkpt lat="43.54987" lon="5.61041">
        <ele>511</ele>
        <time>2026-03-20T08:40:17.000Z</time>
      </trkpt>
      <trkpt lat="43.54979" lon="5.61035">
        <ele>513</ele>
        <time>2026-03-20T08:40:42.000Z</time>
      </trkpt>
      <trkpt lat="43.5497" lon="5.61028">
        <ele>514</ele>
        <time>2026-03-20T08:40:59.000Z</time>
      </trkpt>
      <trkpt lat="43.54961" lon="5.61028">
        <ele>516</ele>
        <time>2026-03-20T08:41:09.000Z</time>
      </trkpt>
      <trkpt lat="43.54952" lon="5.6103">
        <ele>517</ele>
        <time>2026-03-20T08:41:21.000Z</time>
      </trkpt>
      <trkpt lat="43.54943" lon="5.61034">
        <ele>519</ele>
        <time>2026-03-20T08:41:42.000Z</time>
      </trkpt>
      <trkpt lat="43.54935" lon="5.61033">
        <ele>521</ele>
        <time>2026-03-20T08:42:01.000Z</time>
      </trkpt>
      <trkpt lat="43.54926" lon="5.61032">
        <ele>524</ele>
        <time>2026-03-20T08:42:14.000Z</time>
      </trkpt>
      <trkpt lat="43.54917" lon="5.61034">
        <ele>526</ele>
        <time>2026-03-20T08:42:37.000Z</time>
      </trkpt>
      <trkpt lat="43.54909" lon="5.61041">
        <ele>528</ele>
        <time>2026-03-20T08:42:47.000Z</time>
      </trkpt>
      <trkpt lat="43.549" lon="5.61045">
        <ele>530</ele>
        <time>2026-03-20T08:42:59.000Z</time>
      </trkpt>
      <trkpt lat="43.5489" lon="5.61045">
        <ele>532</ele>
        <time>2026-03-20T08:43:11.000Z</time>
      </trkpt>
      <trkpt lat="43.54882" lon="5.61048">
        <ele>534</ele>
        <time>2026-03-20T08:43:24.000Z</time>
      </trkpt>
      <trkpt lat="43.54873" lon="5.61054">
        <ele>536</ele>
        <time>2026-03-20T08:43:35.000Z</time>
      </trkpt>
      <trkpt lat="43.54864" lon="5.61059">
        <ele>538</ele>
        <time>2026-03-20T08:43:47.000Z</time>
      </trkpt>
      <trkpt lat="43.54855" lon="5.61065">
        <ele>539</ele>
        <time>2026-03-20T08:43:59.000Z</time>
      </trkpt>
      <trkpt lat="43.54847" lon="5.6107">
        <ele>540</ele>
        <time>2026-03-20T08:44:09.000Z</time>
      </trkpt>
      <trkpt lat="43.54839" lon="5.61076">
        <ele>540</ele>
        <time>2026-03-20T08:44:23.000Z</time>
      </trkpt>
      <trkpt lat="43.5483" lon="5.61081">
        <ele>541</ele>
        <time>2026-03-20T08:49:05.000Z</time>
      </trkpt>
      <trkpt lat="43.54823" lon="5.61088">
        <ele>541</ele>
        <time>2026-03-20T08:49:20.000Z</time>
      </trkpt>
      <trkpt lat="43.54818" lon="5.61097">
        <ele>541</ele>
        <time>2026-03-20T08:49:35.000Z</time>
      </trkpt>
      <trkpt lat="43.54817" lon="5.6111">
        <ele>542</ele>
        <time>2026-03-20T08:49:47.000Z</time>
      </trkpt>
      <trkpt lat="43.54814" lon="5.61122">
        <ele>542</ele>
        <time>2026-03-20T08:50:13.000Z</time>
      </trkpt>
      <trkpt lat="43.54812" lon="5.61134">
        <ele>542</ele>
        <time>2026-03-20T08:50:27.000Z</time>
      </trkpt>
      <trkpt lat="43.54809" lon="5.61145">
        <ele>542</ele>
        <time>2026-03-20T08:50:41.000Z</time>
      </trkpt>
      <trkpt lat="43.54805" lon="5.61156">
        <ele>541</ele>
        <time>2026-03-20T08:50:51.000Z</time>
      </trkpt>
      <trkpt lat="43.54802" lon="5.61168">
        <ele>540</ele>
        <time>2026-03-20T08:51:01.000Z</time>
      </trkpt>
      <trkpt lat="43.54799" lon="5.61179">
        <ele>539</ele>
        <time>2026-03-20T08:51:15.000Z</time>
      </trkpt>
      <trkpt lat="43.54795" lon="5.61191">
        <ele>538</ele>
        <time>2026-03-20T08:51:28.000Z</time>
      </trkpt>
      <trkpt lat="43.5479" lon="5.61202">
        <ele>537</ele>
        <time>2026-03-20T08:51:42.000Z</time>
      </trkpt>
      <trkpt lat="43.54785" lon="5.61212">
        <ele>536</ele>
        <time>2026-03-20T08:51:54.000Z</time>
      </trkpt>
      <trkpt lat="43.54778" lon="5.61221">
        <ele>535</ele>
        <time>2026-03-20T08:52:09.000Z</time>
      </trkpt>
      <trkpt lat="43.54772" lon="5.61233">
        <ele>534</ele>
        <time>2026-03-20T08:52:23.000Z</time>
      </trkpt>
      <trkpt lat="43.54765" lon="5.61243">
        <ele>534</ele>
        <time>2026-03-20T08:52:37.000Z</time>
      </trkpt>
      <trkpt lat="43.5476" lon="5.61254">
        <ele>533</ele>
        <time>2026-03-20T08:52:46.000Z</time>
      </trkpt>
      <trkpt lat="43.54758" lon="5.61264">
        <ele>531</ele>
        <time>2026-03-20T08:52:57.000Z</time>
      </trkpt>
      <trkpt lat="43.54757" lon="5.61255">
        <ele>530</ele>
        <time>2026-03-20T08:53:23.000Z</time>
      </trkpt>
      <trkpt lat="43.54756" lon="5.61242">
        <ele>528</ele>
        <time>2026-03-20T08:53:35.000Z</time>
      </trkpt>
      <trkpt lat="43.54755" lon="5.6123">
        <ele>527</ele>
        <time>2026-03-20T08:53:48.000Z</time>
      </trkpt>
      <trkpt lat="43.54748" lon="5.61228">
        <ele>526</ele>
        <time>2026-03-20T08:54:07.000Z</time>
      </trkpt>
      <trkpt lat="43.54742" lon="5.61237">
        <ele>525</ele>
        <time>2026-03-20T08:54:16.000Z</time>
      </trkpt>
      <trkpt lat="43.54737" lon="5.61248">
        <ele>523</ele>
        <time>2026-03-20T08:54:31.000Z</time>
      </trkpt>
      <trkpt lat="43.54733" lon="5.6126">
        <ele>522</ele>
        <time>2026-03-20T08:54:43.000Z</time>
      </trkpt>
      <trkpt lat="43.54732" lon="5.61273">
        <ele>521</ele>
        <time>2026-03-20T08:54:55.000Z</time>
      </trkpt>
      <trkpt lat="43.54732" lon="5.61286">
        <ele>519</ele>
        <time>2026-03-20T08:55:08.000Z</time>
      </trkpt>
      <trkpt lat="43.54731" lon="5.61298">
        <ele>518</ele>
        <time>2026-03-20T08:55:22.000Z</time>
      </trkpt>
      <trkpt lat="43.5473" lon="5.61311">
        <ele>517</ele>
        <time>2026-03-20T08:55:33.000Z</time>
      </trkpt>
      <trkpt lat="43.54728" lon="5.61322">
        <ele>515</ele>
        <time>2026-03-20T08:55:45.000Z</time>
      </trkpt>
      <trkpt lat="43.54723" lon="5.61333">
        <ele>514</ele>
        <time>2026-03-20T08:55:56.000Z</time>
      </trkpt>
      <trkpt lat="43.54716" lon="5.61341">
        <ele>514</ele>
        <time>2026-03-20T08:56:13.000Z</time>
      </trkpt>
      <trkpt lat="43.54707" lon="5.61341">
        <ele>513</ele>
        <time>2026-03-20T08:56:23.000Z</time>
      </trkpt>
      <trkpt lat="43.54699" lon="5.61345">
        <ele>513</ele>
        <time>2026-03-20T08:56:51.000Z</time>
      </trkpt>
      <trkpt lat="43.54692" lon="5.61353">
        <ele>513</ele>
        <time>2026-03-20T08:57:09.000Z</time>
      </trkpt>
      <trkpt lat="43.54686" lon="5.61362">
        <ele>513</ele>
        <time>2026-03-20T08:57:18.000Z</time>
      </trkpt>
      <trkpt lat="43.54681" lon="5.61372">
        <ele>514</ele>
        <time>2026-03-20T08:57:35.000Z</time>
      </trkpt>
      <trkpt lat="43.54673" lon="5.61377">
        <ele>516</ele>
        <time>2026-03-20T08:57:49.000Z</time>
      </trkpt>
      <trkpt lat="43.54664" lon="5.6138">
        <ele>517</ele>
        <time>2026-03-20T08:58:01.000Z</time>
      </trkpt>
      <trkpt lat="43.54655" lon="5.61374">
        <ele>518</ele>
        <time>2026-03-20T08:58:59.000Z</time>
      </trkpt>
      <trkpt lat="43.54647" lon="5.61369">
        <ele>520</ele>
        <time>2026-03-20T08:59:09.000Z</time>
      </trkpt>
      <trkpt lat="43.54637" lon="5.61369">
        <ele>521</ele>
        <time>2026-03-20T08:59:21.000Z</time>
      </trkpt>
      <trkpt lat="43.54628" lon="5.61372">
        <ele>523</ele>
        <time>2026-03-20T08:59:37.000Z</time>
      </trkpt>
      <trkpt lat="43.54619" lon="5.61375">
        <ele>524</ele>
        <time>2026-03-20T08:59:46.000Z</time>
      </trkpt>
      <trkpt lat="43.5461" lon="5.61374">
        <ele>525</ele>
        <time>2026-03-20T08:59:53.000Z</time>
      </trkpt>
      <trkpt lat="43.54601" lon="5.61375">
        <ele>526</ele>
        <time>2026-03-20T09:00:13.000Z</time>
      </trkpt>
      <trkpt lat="43.54592" lon="5.61373">
        <ele>527</ele>
        <time>2026-03-20T09:00:26.000Z</time>
      </trkpt>
      <trkpt lat="43.54583" lon="5.6137">
        <ele>528</ele>
        <time>2026-03-20T09:00:37.000Z</time>
      </trkpt>
      <trkpt lat="43.54573" lon="5.61371">
        <ele>529</ele>
        <time>2026-03-20T09:00:48.000Z</time>
      </trkpt>
      <trkpt lat="43.54563" lon="5.61372">
        <ele>530</ele>
        <time>2026-03-20T09:00:59.000Z</time>
      </trkpt>
      <trkpt lat="43.54554" lon="5.61374">
        <ele>532</ele>
        <time>2026-03-20T09:01:08.000Z</time>
      </trkpt>
      <trkpt lat="43.54545" lon="5.61376">
        <ele>533</ele>
        <time>2026-03-20T09:01:16.000Z</time>
      </trkpt>
      <trkpt lat="43.54536" lon="5.6138">
        <ele>535</ele>
        <time>2026-03-20T09:01:31.000Z</time>
      </trkpt>
      <trkpt lat="43.54529" lon="5.61386">
        <ele>537</ele>
        <time>2026-03-20T09:01:38.000Z</time>
      </trkpt>
      <trkpt lat="43.54521" lon="5.61394">
        <ele>538</ele>
        <time>2026-03-20T09:01:51.000Z</time>
      </trkpt>
      <trkpt lat="43.54513" lon="5.61403">
        <ele>539</ele>
        <time>2026-03-20T09:02:03.000Z</time>
      </trkpt>
      <trkpt lat="43.54505" lon="5.61411">
        <ele>541</ele>
        <time>2026-03-20T09:02:11.000Z</time>
      </trkpt>
      <trkpt lat="43.54498" lon="5.61417">
        <ele>542</ele>
        <time>2026-03-20T09:02:25.000Z</time>
      </trkpt>
      <trkpt lat="43.54489" lon="5.6142">
        <ele>544</ele>
        <time>2026-03-20T09:02:39.000Z</time>
      </trkpt>
      <trkpt lat="43.5448" lon="5.61422">
        <ele>546</ele>
        <time>2026-03-20T09:02:46.000Z</time>
      </trkpt>
      <trkpt lat="43.54471" lon="5.61424">
        <ele>547</ele>
        <time>2026-03-20T09:02:57.000Z</time>
      </trkpt>
      <trkpt lat="43.54465" lon="5.61433">
        <ele>548</ele>
        <time>2026-03-20T09:03:09.000Z</time>
      </trkpt>
      <trkpt lat="43.54463" lon="5.61447">
        <ele>549</ele>
        <time>2026-03-20T09:03:23.000Z</time>
      </trkpt>
      <trkpt lat="43.54465" lon="5.6146">
        <ele>549</ele>
        <time>2026-03-20T09:03:31.000Z</time>
      </trkpt>
      <trkpt lat="43.54463" lon="5.61472">
        <ele>549</ele>
        <time>2026-03-20T09:03:40.000Z</time>
      </trkpt>
      <trkpt lat="43.5446" lon="5.61484">
        <ele>550</ele>
        <time>2026-03-20T09:03:51.000Z</time>
      </trkpt>
      <trkpt lat="43.5446" lon="5.61497">
        <ele>551</ele>
        <time>2026-03-20T09:04:07.000Z</time>
      </trkpt>
      <trkpt lat="43.54458" lon="5.61509">
        <ele>553</ele>
        <time>2026-03-20T09:04:15.000Z</time>
      </trkpt>
      <trkpt lat="43.54455" lon="5.61521">
        <ele>555</ele>
        <time>2026-03-20T09:04:33.000Z</time>
      </trkpt>
      <trkpt lat="43.54451" lon="5.61533">
        <ele>557</ele>
        <time>2026-03-20T09:04:43.000Z</time>
      </trkpt>
      <trkpt lat="43.54451" lon="5.61547">
        <ele>559</ele>
        <time>2026-03-20T09:04:51.000Z</time>
      </trkpt>
      <trkpt lat="43.54451" lon="5.61561">
        <ele>561</ele>
        <time>2026-03-20T09:05:01.000Z</time>
      </trkpt>
      <trkpt lat="43.54449" lon="5.61573">
        <ele>563</ele>
        <time>2026-03-20T09:05:13.000Z</time>
      </trkpt>
      <trkpt lat="43.54442" lon="5.61581">
        <ele>565</ele>
        <time>2026-03-20T09:05:39.000Z</time>
      </trkpt>
      <trkpt lat="43.54434" lon="5.61588">
        <ele>566</ele>
        <time>2026-03-20T09:05:52.000Z</time>
      </trkpt>
      <trkpt lat="43.54425" lon="5.61594">
        <ele>569</ele>
        <time>2026-03-20T09:06:19.000Z</time>
      </trkpt>
      <trkpt lat="43.54417" lon="5.61603">
        <ele>572</ele>
        <time>2026-03-20T09:06:35.000Z</time>
      </trkpt>
      <trkpt lat="43.54415" lon="5.61614">
        <ele>575</ele>
        <time>2026-03-20T09:06:49.000Z</time>
      </trkpt>
      <trkpt lat="43.54418" lon="5.61623">
        <ele>579</ele>
        <time>2026-03-20T09:08:37.000Z</time>
      </trkpt>
      <trkpt lat="43.54411" lon="5.61627">
        <ele>581</ele>
        <time>2026-03-20T09:09:53.000Z</time>
      </trkpt>
      <trkpt lat="43.54404" lon="5.61633">
        <ele>584</ele>
        <time>2026-03-20T09:10:05.000Z</time>
      </trkpt>
      <trkpt lat="43.54399" lon="5.61643">
        <ele>586</ele>
        <time>2026-03-20T09:10:19.000Z</time>
      </trkpt>
      <trkpt lat="43.54396" lon="5.61655">
        <ele>588</ele>
        <time>2026-03-20T09:10:33.000Z</time>
      </trkpt>
      <trkpt lat="43.54396" lon="5.61667">
        <ele>589</ele>
        <time>2026-03-20T09:10:44.000Z</time>
      </trkpt>
      <trkpt lat="43.54399" lon="5.61683">
        <ele>590</ele>
        <time>2026-03-20T09:10:55.000Z</time>
      </trkpt>
      <trkpt lat="43.54402" lon="5.61696">
        <ele>589</ele>
        <time>2026-03-20T09:11:11.000Z</time>
      </trkpt>
      <trkpt lat="43.54407" lon="5.61707">
        <ele>589</ele>
        <time>2026-03-20T09:11:21.000Z</time>
      </trkpt>
      <trkpt lat="43.5441" lon="5.61719">
        <ele>589</ele>
        <time>2026-03-20T09:11:27.000Z</time>
      </trkpt>
      <trkpt lat="43.54409" lon="5.61732">
        <ele>589</ele>
        <time>2026-03-20T09:11:37.000Z</time>
      </trkpt>
      <trkpt lat="43.54407" lon="5.61744">
        <ele>589</ele>
        <time>2026-03-20T09:11:50.000Z</time>
      </trkpt>
      <trkpt lat="43.54408" lon="5.61756">
        <ele>589</ele>
        <time>2026-03-20T09:11:59.000Z</time>
      </trkpt>
      <trkpt lat="43.54411" lon="5.61768">
        <ele>588</ele>
        <time>2026-03-20T09:12:09.000Z</time>
      </trkpt>
      <trkpt lat="43.54415" lon="5.6178">
        <ele>587</ele>
        <time>2026-03-20T09:12:20.000Z</time>
      </trkpt>
      <trkpt lat="43.54414" lon="5.61793">
        <ele>585</ele>
        <time>2026-03-20T09:12:29.000Z</time>
      </trkpt>
      <trkpt lat="43.54411" lon="5.61805">
        <ele>584</ele>
        <time>2026-03-20T09:12:47.000Z</time>
      </trkpt>
      <trkpt lat="43.54411" lon="5.61817">
        <ele>583</ele>
        <time>2026-03-20T09:13:05.000Z</time>
      </trkpt>
      <trkpt lat="43.54416" lon="5.61827">
        <ele>582</ele>
        <time>2026-03-20T09:13:21.000Z</time>
      </trkpt>
      <trkpt lat="43.54417" lon="5.61839">
        <ele>580</ele>
        <time>2026-03-20T09:13:38.000Z</time>
      </trkpt>
      <trkpt lat="43.54416" lon="5.61852">
        <ele>578</ele>
        <time>2026-03-20T09:14:19.000Z</time>
      </trkpt>
      <trkpt lat="43.54417" lon="5.61864">
        <ele>576</ele>
        <time>2026-03-20T09:14:31.000Z</time>
      </trkpt>
      <trkpt lat="43.54425" lon="5.6187">
        <ele>575</ele>
        <time>2026-03-20T09:14:54.000Z</time>
      </trkpt>
      <trkpt lat="43.54418" lon="5.61872">
        <ele>574</ele>
        <time>2026-03-20T09:16:45.000Z</time>
      </trkpt>
      <trkpt lat="43.54412" lon="5.61881">
        <ele>573</ele>
        <time>2026-03-20T09:16:56.000Z</time>
      </trkpt>
      <trkpt lat="43.54411" lon="5.61893">
        <ele>573</ele>
        <time>2026-03-20T09:17:13.000Z</time>
      </trkpt>
      <trkpt lat="43.54409" lon="5.61903">
        <ele>574</ele>
        <time>2026-03-20T09:17:33.000Z</time>
      </trkpt>
      <trkpt lat="43.54416" lon="5.61911">
        <ele>575</ele>
        <time>2026-03-20T09:18:11.000Z</time>
      </trkpt>
      <trkpt lat="43.54419" lon="5.61921">
        <ele>577</ele>
        <time>2026-03-20T09:18:23.000Z</time>
      </trkpt>
      <trkpt lat="43.54414" lon="5.6193">
        <ele>580</ele>
        <time>2026-03-20T09:18:47.000Z</time>
      </trkpt>
      <trkpt lat="43.5441" lon="5.61941">
        <ele>582</ele>
        <time>2026-03-20T09:19:09.000Z</time>
      </trkpt>
      <trkpt lat="43.54412" lon="5.61954">
        <ele>584</ele>
        <time>2026-03-20T09:19:20.000Z</time>
      </trkpt>
      <trkpt lat="43.54416" lon="5.61964">
        <ele>586</ele>
        <time>2026-03-20T09:19:31.000Z</time>
      </trkpt>
      <trkpt lat="43.54416" lon="5.61976">
        <ele>587</ele>
        <time>2026-03-20T09:19:51.000Z</time>
      </trkpt>
      <trkpt lat="43.54417" lon="5.61988">
        <ele>588</ele>
        <time>2026-03-20T09:20:08.000Z</time>
      </trkpt>
      <trkpt lat="43.5442" lon="5.62">
        <ele>589</ele>
        <time>2026-03-20T09:20:19.000Z</time>
      </trkpt>
      <trkpt lat="43.54424" lon="5.62013">
        <ele>589</ele>
        <time>2026-03-20T09:20:31.000Z</time>
      </trkpt>
      <trkpt lat="43.54424" lon="5.62025">
        <ele>591</ele>
        <time>2026-03-20T09:20:45.000Z</time>
      </trkpt>
      <trkpt lat="43.5442" lon="5.62037">
        <ele>592</ele>
        <time>2026-03-20T09:21:13.000Z</time>
      </trkpt>
      <trkpt lat="43.54418" lon="5.62049">
        <ele>594</ele>
        <time>2026-03-20T09:21:24.000Z</time>
      </trkpt>
      <trkpt lat="43.54417" lon="5.62062">
        <ele>597</ele>
        <time>2026-03-20T09:21:40.000Z</time>
      </trkpt>
      <trkpt lat="43.54416" lon="5.62074">
        <ele>601</ele>
        <time>2026-03-20T09:22:07.000Z</time>
      </trkpt>
      <trkpt lat="43.54411" lon="5.62082">
        <ele>605</ele>
        <time>2026-03-20T09:22:23.000Z</time>
      </trkpt>
      <trkpt lat="43.54402" lon="5.62083">
        <ele>610</ele>
        <time>2026-03-20T09:22:47.000Z</time>
      </trkpt>
      <trkpt lat="43.54393" lon="5.62083">
        <ele>614</ele>
        <time>2026-03-20T09:23:55.000Z</time>
      </trkpt>
      <trkpt lat="43.54385" lon="5.6209">
        <ele>618</ele>
        <time>2026-03-20T09:24:29.000Z</time>
      </trkpt>
      <trkpt lat="43.54379" lon="5.62099">
        <ele>621</ele>
        <time>2026-03-20T09:24:51.000Z</time>
      </trkpt>
      <trkpt lat="43.54374" lon="5.62109">
        <ele>624</ele>
        <time>2026-03-20T09:25:15.000Z</time>
      </trkpt>
      <trkpt lat="43.5437" lon="5.6212">
        <ele>628</ele>
        <time>2026-03-20T09:25:33.000Z</time>
      </trkpt>
      <trkpt lat="43.54366" lon="5.62131">
        <ele>630</ele>
        <time>2026-03-20T09:26:27.000Z</time>
      </trkpt>
      <trkpt lat="43.54363" lon="5.62142">
        <ele>633</ele>
        <time>2026-03-20T09:26:41.000Z</time>
      </trkpt>
      <trkpt lat="43.54355" lon="5.62146">
        <ele>637</ele>
        <time>2026-03-20T09:27:15.000Z</time>
      </trkpt>
      <trkpt lat="43.54347" lon="5.62141">
        <ele>640</ele>
        <time>2026-03-20T09:27:39.000Z</time>
      </trkpt>
      <trkpt lat="43.54342" lon="5.62133">
        <ele>642</ele>
        <time>2026-03-20T09:28:39.000Z</time>
      </trkpt>
      <trkpt lat="43.54335" lon="5.62132">
        <ele>645</ele>
        <time>2026-03-20T09:29:08.000Z</time>
      </trkpt>
      <trkpt lat="43.54328" lon="5.62126">
        <ele>648</ele>
        <time>2026-03-20T09:29:45.000Z</time>
      </trkpt>
      <trkpt lat="43.54321" lon="5.62131">
        <ele>651</ele>
        <time>2026-03-20T09:30:05.000Z</time>
      </trkpt>
      <trkpt lat="43.54314" lon="5.62139">
        <ele>655</ele>
        <time>2026-03-20T09:30:17.000Z</time>
      </trkpt>
      <trkpt lat="43.54309" lon="5.62151">
        <ele>659</ele>
        <time>2026-03-20T09:31:01.000Z</time>
      </trkpt>
      <trkpt lat="43.54301" lon="5.62156">
        <ele>664</ele>
        <time>2026-03-20T09:31:15.000Z</time>
      </trkpt>
      <trkpt lat="43.54293" lon="5.62155">
        <ele>668</ele>
        <time>2026-03-20T09:32:01.000Z</time>
      </trkpt>
      <trkpt lat="43.54284" lon="5.62151">
        <ele>672</ele>
        <time>2026-03-20T09:32:59.000Z</time>
      </trkpt>
      <trkpt lat="43.54279" lon="5.62143">
        <ele>677</ele>
        <time>2026-03-20T09:33:25.000Z</time>
      </trkpt>
      <trkpt lat="43.54269" lon="5.6214">
        <ele>681</ele>
        <time>2026-03-20T09:34:59.000Z</time>
      </trkpt>
      <trkpt lat="43.54256" lon="5.62142">
        <ele>685</ele>
        <time>2026-03-20T09:35:53.000Z</time>
      </trkpt>
      <trkpt lat="43.54247" lon="5.62147">
        <ele>690</ele>
        <time>2026-03-20T09:37:51.000Z</time>
      </trkpt>
      <trkpt lat="43.54239" lon="5.62145">
        <ele>695</ele>
        <time>2026-03-20T09:40:21.000Z</time>
      </trkpt>
      <trkpt lat="43.54231" lon="5.62139">
        <ele>699</ele>
        <time>2026-03-20T09:40:39.000Z</time>
      </trkpt>
      <trkpt lat="43.54222" lon="5.62133">
        <ele>704</ele>
        <time>2026-03-20T09:41:26.000Z</time>
      </trkpt>
      <trkpt lat="43.5421" lon="5.62137">
        <ele>708</ele>
        <time>2026-03-20T09:42:47.000Z</time>
      </trkpt>
      <trkpt lat="43.54201" lon="5.62143">
        <ele>712</ele>
        <time>2026-03-20T09:43:55.000Z</time>
      </trkpt>
      <trkpt lat="43.54193" lon="5.62147">
        <ele>716</ele>
        <time>2026-03-20T09:44:20.000Z</time>
      </trkpt>
      <trkpt lat="43.54184" lon="5.62147">
        <ele>720</ele>
        <time>2026-03-20T09:46:13.000Z</time>
      </trkpt>
      <trkpt lat="43.54174" lon="5.62148">
        <ele>725</ele>
        <time>2026-03-20T09:46:32.000Z</time>
      </trkpt>
      <trkpt lat="43.54165" lon="5.62152">
        <ele>728</ele>
        <time>2026-03-20T09:47:03.000Z</time>
      </trkpt>
      <trkpt lat="43.54157" lon="5.62149">
        <ele>731</ele>
        <time>2026-03-20T09:47:25.000Z</time>
      </trkpt>
      <trkpt lat="43.5415" lon="5.62138">
        <ele>733</ele>
        <time>2026-03-20T09:48:44.000Z</time>
      </trkpt>
      <trkpt lat="43.54146" lon="5.62128">
        <ele>735</ele>
        <time>2026-03-20T09:48:55.000Z</time>
      </trkpt>
      <trkpt lat="43.54144" lon="5.62116">
        <ele>738</ele>
        <time>2026-03-20T09:49:11.000Z</time>
      </trkpt>
      <trkpt lat="43.5414" lon="5.62104">
        <ele>741</ele>
        <time>2026-03-20T09:49:25.000Z</time>
      </trkpt>
      <trkpt lat="43.54133" lon="5.62098">
        <ele>745</ele>
        <time>2026-03-20T09:49:45.000Z</time>
      </trkpt>
      <trkpt lat="43.54125" lon="5.62099">
        <ele>749</ele>
        <time>2026-03-20T09:56:13.000Z</time>
      </trkpt>
      <trkpt lat="43.54121" lon="5.62109">
        <ele>753</ele>
        <time>2026-03-20T09:56:42.000Z</time>
      </trkpt>
      <trkpt lat="43.54116" lon="5.6212">
        <ele>757</ele>
        <time>2026-03-20T09:57:06.000Z</time>
      </trkpt>
      <trkpt lat="43.5411" lon="5.62129">
        <ele>761</ele>
        <time>2026-03-20T09:57:41.000Z</time>
      </trkpt>
      <trkpt lat="43.54102" lon="5.62132">
        <ele>765</ele>
        <time>2026-03-20T09:58:57.000Z</time>
      </trkpt>
      <trkpt lat="43.54095" lon="5.62125">
        <ele>768</ele>
        <time>2026-03-20T09:59:30.000Z</time>
      </trkpt>
      <trkpt lat="43.54087" lon="5.6212">
        <ele>771</ele>
        <time>2026-03-20T09:59:39.000Z</time>
      </trkpt>
      <trkpt lat="43.54079" lon="5.62124">
        <ele>774</ele>
        <time>2026-03-20T10:00:37.000Z</time>
      </trkpt>
      <trkpt lat="43.54076" lon="5.62133">
        <ele>777</ele>
        <time>2026-03-20T10:01:33.000Z</time>
      </trkpt>
      <trkpt lat="43.54069" lon="5.62137">
        <ele>779</ele>
        <time>2026-03-20T10:01:57.000Z</time>
      </trkpt>
      <trkpt lat="43.54065" lon="5.62147">
        <ele>782</ele>
        <time>2026-03-20T10:02:09.000Z</time>
      </trkpt>
      <trkpt lat="43.5406" lon="5.62156">
        <ele>786</ele>
        <time>2026-03-20T10:02:37.000Z</time>
      </trkpt>
      <trkpt lat="43.54057" lon="5.62167">
        <ele>789</ele>
        <time>2026-03-20T10:03:03.000Z</time>
      </trkpt>
      <trkpt lat="43.54051" lon="5.62176">
        <ele>793</ele>
        <time>2026-03-20T10:03:41.000Z</time>
      </trkpt>
      <trkpt lat="43.54044" lon="5.62183">
        <ele>796</ele>
        <time>2026-03-20T10:08:14.000Z</time>
      </trkpt>
      <trkpt lat="43.54036" lon="5.62188">
        <ele>799</ele>
        <time>2026-03-20T10:08:33.000Z</time>
      </trkpt>
      <trkpt lat="43.54027" lon="5.62192">
        <ele>803</ele>
        <time>2026-03-20T10:08:51.000Z</time>
      </trkpt>
      <trkpt lat="43.54018" lon="5.62192">
        <ele>806</ele>
        <time>2026-03-20T10:09:21.000Z</time>
      </trkpt>
      <trkpt lat="43.5401" lon="5.62191">
        <ele>809</ele>
        <time>2026-03-20T10:09:43.000Z</time>
      </trkpt>
      <trkpt lat="43.54005" lon="5.622">
        <ele>812</ele>
        <time>2026-03-20T10:10:11.000Z</time>
      </trkpt>
      <trkpt lat="43.53998" lon="5.62207">
        <ele>815</ele>
        <time>2026-03-20T10:10:51.000Z</time>
      </trkpt>
      <trkpt lat="43.53994" lon="5.62217">
        <ele>817</ele>
        <time>2026-03-20T10:11:07.000Z</time>
      </trkpt>
      <trkpt lat="43.53985" lon="5.62222">
        <ele>819</ele>
        <time>2026-03-20T10:11:52.000Z</time>
      </trkpt>
      <trkpt lat="43.53976" lon="5.62223">
        <ele>820</ele>
        <time>2026-03-20T10:12:13.000Z</time>
      </trkpt>
      <trkpt lat="43.53962" lon="5.62229">
        <ele>820</ele>
        <time>2026-03-20T10:13:39.000Z</time>
      </trkpt>
      <trkpt lat="43.53955" lon="5.6224">
        <ele>820</ele>
        <time>2026-03-20T10:14:01.000Z</time>
      </trkpt>
      <trkpt lat="43.53947" lon="5.62248">
        <ele>820</ele>
        <time>2026-03-20T10:14:21.000Z</time>
      </trkpt>
      <trkpt lat="43.53941" lon="5.62256">
        <ele>820</ele>
        <time>2026-03-20T10:14:33.000Z</time>
      </trkpt>
      <trkpt lat="43.53932" lon="5.62261">
        <ele>820</ele>
        <time>2026-03-20T10:14:47.000Z</time>
      </trkpt>
      <trkpt lat="43.53923" lon="5.62266">
        <ele>821</ele>
        <time>2026-03-20T10:14:59.000Z</time>
      </trkpt>
      <trkpt lat="43.53914" lon="5.62271">
        <ele>822</ele>
        <time>2026-03-20T10:15:09.000Z</time>
      </trkpt>
      <trkpt lat="43.53905" lon="5.62277">
        <ele>823</ele>
        <time>2026-03-20T10:15:19.000Z</time>
      </trkpt>
      <trkpt lat="43.53897" lon="5.62282">
        <ele>825</ele>
        <time>2026-03-20T10:15:31.000Z</time>
      </trkpt>
      <trkpt lat="43.53889" lon="5.62286">
        <ele>828</ele>
        <time>2026-03-20T10:15:55.000Z</time>
      </trkpt>
      <trkpt lat="43.53884" lon="5.62296">
        <ele>830</ele>
        <time>2026-03-20T10:16:09.000Z</time>
      </trkpt>
      <trkpt lat="43.53878" lon="5.62304">
        <ele>833</ele>
        <time>2026-03-20T10:16:35.000Z</time>
      </trkpt>
      <trkpt lat="43.5387" lon="5.6231">
        <ele>836</ele>
        <time>2026-03-20T10:17:07.000Z</time>
      </trkpt>
      <trkpt lat="43.53862" lon="5.62315">
        <ele>839</ele>
        <time>2026-03-20T10:17:45.000Z</time>
      </trkpt>
      <trkpt lat="43.53855" lon="5.62322">
        <ele>842</ele>
        <time>2026-03-20T10:18:05.000Z</time>
      </trkpt>
      <trkpt lat="43.53847" lon="5.62327">
        <ele>847</ele>
        <time>2026-03-20T10:18:43.000Z</time>
      </trkpt>
      <trkpt lat="43.53839" lon="5.62327">
        <ele>851</ele>
        <time>2026-03-20T10:19:21.000Z</time>
      </trkpt>
      <trkpt lat="43.53832" lon="5.62334">
        <ele>855</ele>
        <time>2026-03-20T10:19:57.000Z</time>
      </trkpt>
      <trkpt lat="43.53825" lon="5.62342">
        <ele>860</ele>
        <time>2026-03-20T10:20:37.000Z</time>
      </trkpt>
      <trkpt lat="43.53813" lon="5.6235">
        <ele>864</ele>
        <time>2026-03-20T10:22:01.000Z</time>
      </trkpt>
      <trkpt lat="43.53806" lon="5.62359">
        <ele>868</ele>
        <time>2026-03-20T10:22:19.000Z</time>
      </trkpt>
      <trkpt lat="43.53798" lon="5.62363">
        <ele>873</ele>
        <time>2026-03-20T10:22:49.000Z</time>
      </trkpt>
      <trkpt lat="43.53789" lon="5.62365">
        <ele>877</ele>
        <time>2026-03-20T10:23:33.000Z</time>
      </trkpt>
      <trkpt lat="43.53781" lon="5.62366">
        <ele>882</ele>
        <time>2026-03-20T10:23:53.000Z</time>
      </trkpt>
      <trkpt lat="43.53772" lon="5.62368">
        <ele>886</ele>
        <time>2026-03-20T10:24:35.000Z</time>
      </trkpt>
      <trkpt lat="43.53764" lon="5.62372">
        <ele>890</ele>
        <time>2026-03-20T10:25:43.000Z</time>
      </trkpt>
      <trkpt lat="43.53758" lon="5.6238">
        <ele>894</ele>
        <time>2026-03-20T10:26:25.000Z</time>
      </trkpt>
      <trkpt lat="43.53751" lon="5.62387">
        <ele>898</ele>
        <time>2026-03-20T10:27:19.000Z</time>
      </trkpt>
      <trkpt lat="43.53743" lon="5.62391">
        <ele>902</ele>
        <time>2026-03-20T10:27:47.000Z</time>
      </trkpt>
      <trkpt lat="43.53734" lon="5.6239">
        <ele>907</ele>
        <time>2026-03-20T10:29:20.000Z</time>
      </trkpt>
      <trkpt lat="43.53726" lon="5.62392">
        <ele>911</ele>
        <time>2026-03-20T10:29:39.000Z</time>
      </trkpt>
      <trkpt lat="43.53716" lon="5.62391">
        <ele>915</ele>
        <time>2026-03-20T10:30:25.000Z</time>
      </trkpt>
      <trkpt lat="43.53708" lon="5.6239">
        <ele>919</ele>
        <time>2026-03-20T10:31:03.000Z</time>
      </trkpt>
      <trkpt lat="43.537" lon="5.62384">
        <ele>924</ele>
        <time>2026-03-20T10:31:45.000Z</time>
      </trkpt>
      <trkpt lat="43.5369" lon="5.62385">
        <ele>928</ele>
        <time>2026-03-20T10:33:45.000Z</time>
      </trkpt>
      <trkpt lat="43.5368" lon="5.62384">
        <ele>933</ele>
        <time>2026-03-20T10:34:25.000Z</time>
      </trkpt>
      <trkpt lat="43.53671" lon="5.62382">
        <ele>937</ele>
        <time>2026-03-20T10:36:03.000Z</time>
      </trkpt>
      <trkpt lat="43.53662" lon="5.6238">
        <ele>942</ele>
        <time>2026-03-20T10:37:20.000Z</time>
      </trkpt>
      <trkpt lat="43.53655" lon="5.62385">
        <ele>946</ele>
        <time>2026-03-20T10:38:19.000Z</time>
      </trkpt>
      <trkpt lat="43.53648" lon="5.62392">
        <ele>950</ele>
        <time>2026-03-20T10:41:29.000Z</time>
      </trkpt>
      <trkpt lat="43.53639" lon="5.62395">
        <ele>955</ele>
        <time>2026-03-20T10:41:57.000Z</time>
      </trkpt>
      <trkpt lat="43.5363" lon="5.62397">
        <ele>959</ele>
        <time>2026-03-20T10:42:15.000Z</time>
      </trkpt>
      <trkpt lat="43.53622" lon="5.624">
        <ele>962</ele>
        <time>2026-03-20T10:42:57.000Z</time>
      </trkpt>
      <trkpt lat="43.53613" lon="5.62401">
        <ele>966</ele>
        <time>2026-03-20T10:43:11.000Z</time>
      </trkpt>
      <trkpt lat="43.53604" lon="5.62402">
        <ele>968</ele>
        <time>2026-03-20T10:43:55.000Z</time>
      </trkpt>
      <trkpt lat="43.53594" lon="5.62401">
        <ele>971</ele>
        <time>2026-03-20T10:44:27.000Z</time>
      </trkpt>
      <trkpt lat="43.53587" lon="5.62395">
        <ele>973</ele>
        <time>2026-03-20T10:44:39.000Z</time>
      </trkpt>
      <trkpt lat="43.53581" lon="5.62384">
        <ele>976</ele>
        <time>2026-03-20T10:44:51.000Z</time>
      </trkpt>
      <trkpt lat="43.53576" lon="5.62374">
        <ele>979</ele>
        <time>2026-03-20T10:45:01.000Z</time>
      </trkpt>
      <trkpt lat="43.5357" lon="5.62365">
        <ele>981</ele>
        <time>2026-03-20T10:45:13.000Z</time>
      </trkpt>
      <trkpt lat="43.53566" lon="5.62353">
        <ele>984</ele>
        <time>2026-03-20T10:50:05.000Z</time>
      </trkpt>
      <trkpt lat="43.53563" lon="5.62341">
        <ele>986</ele>
        <time>2026-03-20T10:50:21.000Z</time>
      </trkpt>
      <trkpt lat="43.53558" lon="5.6233">
        <ele>988</ele>
        <time>2026-03-20T10:51:07.000Z</time>
      </trkpt>
      <trkpt lat="43.53555" lon="5.62319">
        <ele>990</ele>
        <time>2026-03-20T10:51:33.000Z</time>
      </trkpt>
      <trkpt lat="43.53559" lon="5.62308">
        <ele>992</ele>
        <time>2026-03-20T10:53:09.000Z</time>
      </trkpt>
      <trkpt lat="43.53561" lon="5.62297">
        <ele>993</ele>
        <time>2026-03-20T10:53:18.000Z</time>
      </trkpt>
      <trkpt lat="43.5356" lon="5.62284">
        <ele>995</ele>
        <time>2026-03-20T10:53:29.000Z</time>
      </trkpt>
      <trkpt lat="43.53557" lon="5.62271">
        <ele>997</ele>
        <time>2026-03-20T10:53:40.000Z</time>
      </trkpt>
      <trkpt lat="43.53554" lon="5.62258">
        <ele>999</ele>
        <time>2026-03-20T10:54:51.000Z</time>
      </trkpt>
      <trkpt lat="43.53549" lon="5.62249">
        <ele>1002</ele>
        <time>2026-03-20T10:55:40.000Z</time>
      </trkpt>
      <trkpt lat="43.53543" lon="5.62238">
        <ele>1004</ele>
        <time>2026-03-20T10:55:59.000Z</time>
      </trkpt>
      <trkpt lat="43.53538" lon="5.62228">
        <ele>1006</ele>
        <time>2026-03-20T10:56:13.000Z</time>
      </trkpt>
      <trkpt lat="43.53536" lon="5.62215">
        <ele>1009</ele>
        <time>2026-03-20T10:56:29.000Z</time>
      </trkpt>
      <trkpt lat="43.53536" lon="5.62204">
        <ele>1011</ele>
        <time>2026-03-20T10:56:39.000Z</time>
      </trkpt>
      <trkpt lat="43.53529" lon="5.62195">
        <ele>1013</ele>
        <time>2026-03-20T10:57:09.000Z</time>
      </trkpt>
      <trkpt lat="43.5352" lon="5.62191">
        <ele>1016</ele>
        <time>2026-03-20T10:57:23.000Z</time>
      </trkpt>
      <trkpt lat="43.53513" lon="5.62184">
        <ele>1017</ele>
        <time>2026-03-20T10:58:09.000Z</time>
      </trkpt>
      <trkpt lat="43.53506" lon="5.62176">
        <ele>1019</ele>
        <time>2026-03-20T10:58:17.000Z</time>
      </trkpt>
      <trkpt lat="43.535" lon="5.62166">
        <ele>1021</ele>
        <time>2026-03-20T10:58:31.000Z</time>
      </trkpt>
      <trkpt lat="43.53493" lon="5.62158">
        <ele>1022</ele>
        <time>2026-03-20T10:58:45.000Z</time>
      </trkpt>
      <trkpt lat="43.53486" lon="5.62152">
        <ele>1024</ele>
        <time>2026-03-20T10:59:09.000Z</time>
      </trkpt>
      <trkpt lat="43.53481" lon="5.62142">
        <ele>1026</ele>
        <time>2026-03-20T10:59:19.000Z</time>
      </trkpt>
      <trkpt lat="43.53474" lon="5.62138">
        <ele>1028</ele>
        <time>2026-03-20T10:59:50.000Z</time>
      </trkpt>
      <trkpt lat="43.53468" lon="5.6213">
        <ele>1030</ele>
        <time>2026-03-20T11:00:05.000Z</time>
      </trkpt>
      <trkpt lat="43.53459" lon="5.62129">
        <ele>1032</ele>
        <time>2026-03-20T11:00:42.000Z</time>
      </trkpt>
      <trkpt lat="43.53451" lon="5.62124">
        <ele>1034</ele>
        <time>2026-03-20T11:01:03.000Z</time>
      </trkpt>
      <trkpt lat="43.53444" lon="5.62115">
        <ele>1035</ele>
        <time>2026-03-20T11:01:12.000Z</time>
      </trkpt>
      <trkpt lat="43.53438" lon="5.62105">
        <ele>1036</ele>
        <time>2026-03-20T11:01:21.000Z</time>
      </trkpt>
      <trkpt lat="43.53435" lon="5.62094">
        <ele>1038</ele>
        <time>2026-03-20T11:01:29.000Z</time>
      </trkpt>
      <trkpt lat="43.5343" lon="5.62082">
        <ele>1039</ele>
        <time>2026-03-20T11:01:41.000Z</time>
      </trkpt>
      <trkpt lat="43.53424" lon="5.62073">
        <ele>1040</ele>
        <time>2026-03-20T11:01:48.000Z</time>
      </trkpt>
      <trkpt lat="43.53418" lon="5.62066">
        <ele>1041</ele>
        <time>2026-03-20T11:01:59.000Z</time>
      </trkpt>
      <trkpt lat="43.53413" lon="5.62057">
        <ele>1042</ele>
        <time>2026-03-20T11:02:07.000Z</time>
      </trkpt>
      <trkpt lat="43.53407" lon="5.62048">
        <ele>1043</ele>
        <time>2026-03-20T11:02:17.000Z</time>
      </trkpt>
      <trkpt lat="43.53402" lon="5.62038">
        <ele>1044</ele>
        <time>2026-03-20T11:02:25.000Z</time>
      </trkpt>
      <trkpt lat="43.53397" lon="5.62027">
        <ele>1045</ele>
        <time>2026-03-20T11:02:35.000Z</time>
      </trkpt>
      <trkpt lat="43.53393" lon="5.62016">
        <ele>1046</ele>
        <time>2026-03-20T11:02:51.000Z</time>
      </trkpt>
      <trkpt lat="43.53394" lon="5.62004">
        <ele>1046</ele>
        <time>2026-03-20T11:03:33.000Z</time>
      </trkpt>
      <trkpt lat="43.53394" lon="5.61992">
        <ele>1046</ele>
        <time>2026-03-20T11:03:41.000Z</time>
      </trkpt>
      <trkpt lat="43.53392" lon="5.61979">
        <ele>1046</ele>
        <time>2026-03-20T11:03:50.000Z</time>
      </trkpt>
      <trkpt lat="43.53391" lon="5.61967">
        <ele>1046</ele>
        <time>2026-03-20T11:04:00.000Z</time>
      </trkpt>
      <trkpt lat="43.5339" lon="5.61955">
        <ele>1047</ele>
        <time>2026-03-20T11:04:10.000Z</time>
      </trkpt>
      <trkpt lat="43.53389" lon="5.61942">
        <ele>1048</ele>
        <time>2026-03-20T11:04:23.000Z</time>
      </trkpt>
      <trkpt lat="43.53389" lon="5.61929">
        <ele>1048</ele>
        <time>2026-03-20T11:04:35.000Z</time>
      </trkpt>
      <trkpt lat="43.53388" lon="5.61919">
        <ele>1049</ele>
        <time>2026-03-20T11:05:07.000Z</time>
      </trkpt>
      <trkpt lat="43.53386" lon="5.61928">
        <ele>1049</ele>
        <time>2026-03-20T11:38:29.000Z</time>
      </trkpt>
      <trkpt lat="43.53387" lon="5.61939">
        <ele>1049</ele>
        <time>2026-03-20T11:39:31.000Z</time>
      </trkpt>
      <trkpt lat="43.5339" lon="5.6193">
        <ele>1049</ele>
        <time>2026-03-20T11:40:23.000Z</time>
      </trkpt>
      <trkpt lat="43.5339" lon="5.61918">
        <ele>1049</ele>
        <time>2026-03-20T11:40:39.000Z</time>
      </trkpt>
      <trkpt lat="43.53389" lon="5.61906">
        <ele>1048</ele>
        <time>2026-03-20T11:49:09.000Z</time>
      </trkpt>
      <trkpt lat="43.53387" lon="5.61894">
        <ele>1048</ele>
        <time>2026-03-20T11:54:24.000Z</time>
      </trkpt>
      <trkpt lat="43.53386" lon="5.61882">
        <ele>1048</ele>
        <time>2026-03-20T11:55:27.000Z</time>
      </trkpt>
      <trkpt lat="43.5338" lon="5.61868">
        <ele>1049</ele>
        <time>2026-03-20T11:56:03.000Z</time>
      </trkpt>
      <trkpt lat="43.53378" lon="5.61856">
        <ele>1050</ele>
        <time>2026-03-20T11:56:16.000Z</time>
      </trkpt>
      <trkpt lat="43.53372" lon="5.61845">
        <ele>1051</ele>
        <time>2026-03-20T11:56:33.000Z</time>
      </trkpt>
      <trkpt lat="43.53365" lon="5.6184">
        <ele>1053</ele>
        <time>2026-03-20T11:56:49.000Z</time>
      </trkpt>
      <trkpt lat="43.53356" lon="5.61834">
        <ele>1054</ele>
        <time>2026-03-20T11:57:15.000Z</time>
      </trkpt>
      <trkpt lat="43.53348" lon="5.61831">
        <ele>1055</ele>
        <time>2026-03-20T11:57:25.000Z</time>
      </trkpt>
      <trkpt lat="43.53339" lon="5.61831">
        <ele>1056</ele>
        <time>2026-03-20T11:57:49.000Z</time>
      </trkpt>
      <trkpt lat="43.5333" lon="5.61832">
        <ele>1057</ele>
        <time>2026-03-20T11:57:58.000Z</time>
      </trkpt>
      <trkpt lat="43.5332" lon="5.61832">
        <ele>1058</ele>
        <time>2026-03-20T11:58:41.000Z</time>
      </trkpt>
      <trkpt lat="43.53312" lon="5.61838">
        <ele>1058</ele>
        <time>2026-03-20T11:59:02.000Z</time>
      </trkpt>
      <trkpt lat="43.533" lon="5.6184">
        <ele>1058</ele>
        <time>2026-03-20T11:59:23.000Z</time>
      </trkpt>
      <trkpt lat="43.53281" lon="5.6183">
        <ele>1058</ele>
        <time>2026-03-20T12:01:24.000Z</time>
      </trkpt>
      <trkpt lat="43.53293" lon="5.61826">
        <ele>1058</ele>
        <time>2026-03-20T12:01:26.000Z</time>
      </trkpt>
      <trkpt lat="43.53292" lon="5.61815">
        <ele>1058</ele>
        <time>2026-03-20T12:01:42.000Z</time>
      </trkpt>
      <trkpt lat="43.53289" lon="5.61804">
        <ele>1057</ele>
        <time>2026-03-20T12:01:54.000Z</time>
      </trkpt>
      <trkpt lat="43.53285" lon="5.61793">
        <ele>1058</ele>
        <time>2026-03-20T12:02:06.000Z</time>
      </trkpt>
      <trkpt lat="43.53278" lon="5.61787">
        <ele>1058</ele>
        <time>2026-03-20T12:02:16.000Z</time>
      </trkpt>
      <trkpt lat="43.53271" lon="5.61777">
        <ele>1058</ele>
        <time>2026-03-20T12:02:44.000Z</time>
      </trkpt>
      <trkpt lat="43.53262" lon="5.61772">
        <ele>1058</ele>
        <time>2026-03-20T12:02:59.000Z</time>
      </trkpt>
      <trkpt lat="43.53253" lon="5.61771">
        <ele>1058</ele>
        <time>2026-03-20T12:03:12.000Z</time>
      </trkpt>
      <trkpt lat="43.53244" lon="5.61772">
        <ele>1058</ele>
        <time>2026-03-20T12:03:22.000Z</time>
      </trkpt>
      <trkpt lat="43.53234" lon="5.6177">
        <ele>1058</ele>
        <time>2026-03-20T12:03:36.000Z</time>
      </trkpt>
      <trkpt lat="43.53224" lon="5.61768">
        <ele>1058</ele>
        <time>2026-03-20T12:03:58.000Z</time>
      </trkpt>
      <trkpt lat="43.53216" lon="5.61763">
        <ele>1058</ele>
        <time>2026-03-20T12:04:12.000Z</time>
      </trkpt>
      <trkpt lat="43.53217" lon="5.61752">
        <ele>1059</ele>
        <time>2026-03-20T12:04:32.000Z</time>
      </trkpt>
      <trkpt lat="43.53219" lon="5.6174">
        <ele>1059</ele>
        <time>2026-03-20T12:04:50.000Z</time>
      </trkpt>
      <trkpt lat="43.53217" lon="5.61727">
        <ele>1059</ele>
        <time>2026-03-20T12:05:04.000Z</time>
      </trkpt>
      <trkpt lat="43.53212" lon="5.61716">
        <ele>1059</ele>
        <time>2026-03-20T12:05:20.000Z</time>
      </trkpt>
      <trkpt lat="43.53207" lon="5.61706">
        <ele>1059</ele>
        <time>2026-03-20T12:05:32.000Z</time>
      </trkpt>
      <trkpt lat="43.53201" lon="5.61696">
        <ele>1060</ele>
        <time>2026-03-20T12:05:47.000Z</time>
      </trkpt>
      <trkpt lat="43.53194" lon="5.61688">
        <ele>1060</ele>
        <time>2026-03-20T12:05:57.000Z</time>
      </trkpt>
      <trkpt lat="43.53185" lon="5.61682">
        <ele>1061</ele>
        <time>2026-03-20T12:06:09.000Z</time>
      </trkpt>
      <trkpt lat="43.53179" lon="5.61675">
        <ele>1061</ele>
        <time>2026-03-20T12:06:19.000Z</time>
      </trkpt>
      <trkpt lat="43.53181" lon="5.61664">
        <ele>1061</ele>
        <time>2026-03-20T12:08:01.000Z</time>
      </trkpt>
      <trkpt lat="43.53184" lon="5.61652">
        <ele>1061</ele>
        <time>2026-03-20T12:08:15.000Z</time>
      </trkpt>
      <trkpt lat="43.53181" lon="5.6164">
        <ele>1060</ele>
        <time>2026-03-20T12:08:29.000Z</time>
      </trkpt>
      <trkpt lat="43.53177" lon="5.61629">
        <ele>1060</ele>
        <time>2026-03-20T12:08:41.000Z</time>
      </trkpt>
      <trkpt lat="43.53173" lon="5.61619">
        <ele>1059</ele>
        <time>2026-03-20T12:08:51.000Z</time>
      </trkpt>
      <trkpt lat="43.53169" lon="5.61608">
        <ele>1059</ele>
        <time>2026-03-20T12:09:04.000Z</time>
      </trkpt>
      <trkpt lat="43.53165" lon="5.61596">
        <ele>1059</ele>
        <time>2026-03-20T12:09:17.000Z</time>
      </trkpt>
      <trkpt lat="43.53166" lon="5.61584">
        <ele>1059</ele>
        <time>2026-03-20T12:09:47.000Z</time>
      </trkpt>
      <trkpt lat="43.5317" lon="5.61572">
        <ele>1059</ele>
        <time>2026-03-20T12:09:57.000Z</time>
      </trkpt>
      <trkpt lat="43.53173" lon="5.61561">
        <ele>1059</ele>
        <time>2026-03-20T12:10:21.000Z</time>
      </trkpt>
      <trkpt lat="43.53178" lon="5.61551">
        <ele>1059</ele>
        <time>2026-03-20T12:10:30.000Z</time>
      </trkpt>
      <trkpt lat="43.53181" lon="5.61539">
        <ele>1059</ele>
        <time>2026-03-20T12:10:45.000Z</time>
      </trkpt>
      <trkpt lat="43.53182" lon="5.61527">
        <ele>1059</ele>
        <time>2026-03-20T12:10:55.000Z</time>
      </trkpt>
      <trkpt lat="43.53181" lon="5.61515">
        <ele>1058</ele>
        <time>2026-03-20T12:11:07.000Z</time>
      </trkpt>
      <trkpt lat="43.5318" lon="5.61502">
        <ele>1058</ele>
        <time>2026-03-20T12:11:21.000Z</time>
      </trkpt>
      <trkpt lat="43.53175" lon="5.61491">
        <ele>1058</ele>
        <time>2026-03-20T12:11:32.000Z</time>
      </trkpt>
      <trkpt lat="43.53168" lon="5.61481">
        <ele>1058</ele>
        <time>2026-03-20T12:11:45.000Z</time>
      </trkpt>
      <trkpt lat="43.53163" lon="5.61471">
        <ele>1057</ele>
        <time>2026-03-20T12:12:31.000Z</time>
      </trkpt>
      <trkpt lat="43.5316" lon="5.6146">
        <ele>1057</ele>
        <time>2026-03-20T12:12:43.000Z</time>
      </trkpt>
      <trkpt lat="43.53157" lon="5.61447">
        <ele>1056</ele>
        <time>2026-03-20T12:12:55.000Z</time>
      </trkpt>
      <trkpt lat="43.53154" lon="5.61434">
        <ele>1056</ele>
        <time>2026-03-20T12:13:07.000Z</time>
      </trkpt>
      <trkpt lat="43.53151" lon="5.61422">
        <ele>1055</ele>
        <time>2026-03-20T12:13:19.000Z</time>
      </trkpt>
      <trkpt lat="43.53147" lon="5.61411">
        <ele>1054</ele>
        <time>2026-03-20T12:13:32.000Z</time>
      </trkpt>
      <trkpt lat="43.53142" lon="5.614">
        <ele>1053</ele>
        <time>2026-03-20T12:13:47.000Z</time>
      </trkpt>
      <trkpt lat="43.5314" lon="5.61389">
        <ele>1052</ele>
        <time>2026-03-20T12:14:09.000Z</time>
      </trkpt>
      <trkpt lat="43.53137" lon="5.61377">
        <ele>1051</ele>
        <time>2026-03-20T12:14:21.000Z</time>
      </trkpt>
      <trkpt lat="43.53136" lon="5.61364">
        <ele>1050</ele>
        <time>2026-03-20T12:14:43.000Z</time>
      </trkpt>
      <trkpt lat="43.53135" lon="5.61351">
        <ele>1049</ele>
        <time>2026-03-20T12:14:57.000Z</time>
      </trkpt>
      <trkpt lat="43.53134" lon="5.61338">
        <ele>1049</ele>
        <time>2026-03-20T12:15:09.000Z</time>
      </trkpt>
      <trkpt lat="43.53133" lon="5.61325">
        <ele>1049</ele>
        <time>2026-03-20T12:15:27.000Z</time>
      </trkpt>
      <trkpt lat="43.53132" lon="5.61313">
        <ele>1049</ele>
        <time>2026-03-20T12:15:39.000Z</time>
      </trkpt>
      <trkpt lat="43.53131" lon="5.61301">
        <ele>1050</ele>
        <time>2026-03-20T12:15:59.000Z</time>
      </trkpt>
      <trkpt lat="43.53126" lon="5.61291">
        <ele>1050</ele>
        <time>2026-03-20T12:16:24.000Z</time>
      </trkpt>
      <trkpt lat="43.5312" lon="5.61282">
        <ele>1050</ele>
        <time>2026-03-20T12:16:35.000Z</time>
      </trkpt>
      <trkpt lat="43.53116" lon="5.6127">
        <ele>1050</ele>
        <time>2026-03-20T12:16:59.000Z</time>
      </trkpt>
      <trkpt lat="43.53113" lon="5.61258">
        <ele>1051</ele>
        <time>2026-03-20T12:17:07.000Z</time>
      </trkpt>
      <trkpt lat="43.53111" lon="5.61246">
        <ele>1051</ele>
        <time>2026-03-20T12:17:18.000Z</time>
      </trkpt>
      <trkpt lat="43.53112" lon="5.61234">
        <ele>1051</ele>
        <time>2026-03-20T12:17:47.000Z</time>
      </trkpt>
      <trkpt lat="43.53118" lon="5.61225">
        <ele>1051</ele>
        <time>2026-03-20T12:18:11.000Z</time>
      </trkpt>
      <trkpt lat="43.53126" lon="5.61217">
        <ele>1051</ele>
        <time>2026-03-20T12:18:29.000Z</time>
      </trkpt>
      <trkpt lat="43.53132" lon="5.61207">
        <ele>1051</ele>
        <time>2026-03-20T12:19:13.000Z</time>
      </trkpt>
      <trkpt lat="43.53131" lon="5.61195">
        <ele>1052</ele>
        <time>2026-03-20T12:19:27.000Z</time>
      </trkpt>
      <trkpt lat="43.5313" lon="5.61182">
        <ele>1052</ele>
        <time>2026-03-20T12:19:41.000Z</time>
      </trkpt>
      <trkpt lat="43.53131" lon="5.61169">
        <ele>1053</ele>
        <time>2026-03-20T12:19:55.000Z</time>
      </trkpt>
      <trkpt lat="43.53136" lon="5.61161">
        <ele>1054</ele>
        <time>2026-03-20T12:20:05.000Z</time>
      </trkpt>
      <trkpt lat="43.53138" lon="5.61149">
        <ele>1055</ele>
        <time>2026-03-20T12:20:17.000Z</time>
      </trkpt>
      <trkpt lat="43.53138" lon="5.61137">
        <ele>1056</ele>
        <time>2026-03-20T12:20:32.000Z</time>
      </trkpt>
      <trkpt lat="43.53136" lon="5.61123">
        <ele>1056</ele>
        <time>2026-03-20T12:20:42.000Z</time>
      </trkpt>
      <trkpt lat="43.53134" lon="5.6111">
        <ele>1057</ele>
        <time>2026-03-20T12:20:55.000Z</time>
      </trkpt>
      <trkpt lat="43.53131" lon="5.61099">
        <ele>1057</ele>
        <time>2026-03-20T12:21:13.000Z</time>
      </trkpt>
      <trkpt lat="43.53132" lon="5.61086">
        <ele>1057</ele>
        <time>2026-03-20T12:21:35.000Z</time>
      </trkpt>
      <trkpt lat="43.53137" lon="5.61076">
        <ele>1058</ele>
        <time>2026-03-20T12:22:27.000Z</time>
      </trkpt>
      <trkpt lat="43.5314" lon="5.61063">
        <ele>1058</ele>
        <time>2026-03-20T12:22:41.000Z</time>
      </trkpt>
      <trkpt lat="43.53143" lon="5.61051">
        <ele>1058</ele>
        <time>2026-03-20T12:22:53.000Z</time>
      </trkpt>
      <trkpt lat="43.53146" lon="5.6104">
        <ele>1058</ele>
        <time>2026-03-20T12:23:03.000Z</time>
      </trkpt>
      <trkpt lat="43.53146" lon="5.61027">
        <ele>1058</ele>
        <time>2026-03-20T12:23:14.000Z</time>
      </trkpt>
      <trkpt lat="43.53145" lon="5.61013">
        <ele>1058</ele>
        <time>2026-03-20T12:23:31.000Z</time>
      </trkpt>
      <trkpt lat="43.53145" lon="5.60999">
        <ele>1057</ele>
        <time>2026-03-20T12:23:45.000Z</time>
      </trkpt>
      <trkpt lat="43.53144" lon="5.60987">
        <ele>1057</ele>
        <time>2026-03-20T12:24:07.000Z</time>
      </trkpt>
      <trkpt lat="43.5314" lon="5.60974">
        <ele>1056</ele>
        <time>2026-03-20T12:24:18.000Z</time>
      </trkpt>
      <trkpt lat="43.53137" lon="5.60962">
        <ele>1055</ele>
        <time>2026-03-20T12:24:32.000Z</time>
      </trkpt>
      <trkpt lat="43.53135" lon="5.60951">
        <ele>1054</ele>
        <time>2026-03-20T12:24:51.000Z</time>
      </trkpt>
      <trkpt lat="43.53132" lon="5.60939">
        <ele>1053</ele>
        <time>2026-03-20T12:25:05.000Z</time>
      </trkpt>
      <trkpt lat="43.5313" lon="5.60928">
        <ele>1053</ele>
        <time>2026-03-20T12:25:21.000Z</time>
      </trkpt>
      <trkpt lat="43.53127" lon="5.60915">
        <ele>1053</ele>
        <time>2026-03-20T12:25:33.000Z</time>
      </trkpt>
      <trkpt lat="43.53124" lon="5.60902">
        <ele>1052</ele>
        <time>2026-03-20T12:26:01.000Z</time>
      </trkpt>
      <trkpt lat="43.53123" lon="5.6089">
        <ele>1052</ele>
        <time>2026-03-20T12:26:15.000Z</time>
      </trkpt>
      <trkpt lat="43.53119" lon="5.60878">
        <ele>1052</ele>
        <time>2026-03-20T12:26:31.000Z</time>
      </trkpt>
      <trkpt lat="43.53113" lon="5.60868">
        <ele>1052</ele>
        <time>2026-03-20T12:26:46.000Z</time>
      </trkpt>
      <trkpt lat="43.53109" lon="5.60857">
        <ele>1051</ele>
        <time>2026-03-20T12:26:59.000Z</time>
      </trkpt>
      <trkpt lat="43.53104" lon="5.60847">
        <ele>1051</ele>
        <time>2026-03-20T12:27:09.000Z</time>
      </trkpt>
      <trkpt lat="43.53097" lon="5.6084">
        <ele>1051</ele>
        <time>2026-03-20T12:27:21.000Z</time>
      </trkpt>
      <trkpt lat="43.53088" lon="5.60835">
        <ele>1051</ele>
        <time>2026-03-20T12:27:35.000Z</time>
      </trkpt>
      <trkpt lat="43.53082" lon="5.60826">
        <ele>1050</ele>
        <time>2026-03-20T12:27:45.000Z</time>
      </trkpt>
      <trkpt lat="43.53076" lon="5.60817">
        <ele>1050</ele>
        <time>2026-03-20T12:27:57.000Z</time>
      </trkpt>
      <trkpt lat="43.53068" lon="5.60813">
        <ele>1049</ele>
        <time>2026-03-20T12:28:29.000Z</time>
      </trkpt>
      <trkpt lat="43.53062" lon="5.60804">
        <ele>1049</ele>
        <time>2026-03-20T12:28:41.000Z</time>
      </trkpt>
      <trkpt lat="43.53062" lon="5.60791">
        <ele>1049</ele>
        <time>2026-03-20T12:28:53.000Z</time>
      </trkpt>
      <trkpt lat="43.53061" lon="5.60779">
        <ele>1048</ele>
        <time>2026-03-20T12:29:07.000Z</time>
      </trkpt>
      <trkpt lat="43.53062" lon="5.60767">
        <ele>1048</ele>
        <time>2026-03-20T12:29:19.000Z</time>
      </trkpt>
      <trkpt lat="43.53065" lon="5.60756">
        <ele>1048</ele>
        <time>2026-03-20T12:33:43.000Z</time>
      </trkpt>
      <trkpt lat="43.53065" lon="5.60743">
        <ele>1047</ele>
        <time>2026-03-20T12:34:04.000Z</time>
      </trkpt>
      <trkpt lat="43.53065" lon="5.60731">
        <ele>1047</ele>
        <time>2026-03-20T12:34:17.000Z</time>
      </trkpt>
      <trkpt lat="43.53066" lon="5.60718">
        <ele>1046</ele>
        <time>2026-03-20T12:34:29.000Z</time>
      </trkpt>
      <trkpt lat="43.53067" lon="5.60706">
        <ele>1045</ele>
        <time>2026-03-20T12:34:41.000Z</time>
      </trkpt>
      <trkpt lat="43.53068" lon="5.60693">
        <ele>1045</ele>
        <time>2026-03-20T12:34:56.000Z</time>
      </trkpt>
      <trkpt lat="43.53068" lon="5.60681">
        <ele>1044</ele>
        <time>2026-03-20T12:35:11.000Z</time>
      </trkpt>
      <trkpt lat="43.53065" lon="5.60668">
        <ele>1044</ele>
        <time>2026-03-20T12:35:29.000Z</time>
      </trkpt>
      <trkpt lat="43.53062" lon="5.60657">
        <ele>1043</ele>
        <time>2026-03-20T12:35:39.000Z</time>
      </trkpt>
      <trkpt lat="43.53059" lon="5.60645">
        <ele>1043</ele>
        <time>2026-03-20T12:35:51.000Z</time>
      </trkpt>
      <trkpt lat="43.53057" lon="5.60633">
        <ele>1044</ele>
        <time>2026-03-20T12:36:05.000Z</time>
      </trkpt>
      <trkpt lat="43.53054" lon="5.60621">
        <ele>1044</ele>
        <time>2026-03-20T12:36:21.000Z</time>
      </trkpt>
      <trkpt lat="43.53051" lon="5.60609">
        <ele>1045</ele>
        <time>2026-03-20T12:36:35.000Z</time>
      </trkpt>
      <trkpt lat="43.53049" lon="5.60597">
        <ele>1045</ele>
        <time>2026-03-20T12:36:51.000Z</time>
      </trkpt>
      <trkpt lat="43.53047" lon="5.60584">
        <ele>1045</ele>
        <time>2026-03-20T12:37:05.000Z</time>
      </trkpt>
      <trkpt lat="43.53046" lon="5.60572">
        <ele>1046</ele>
        <time>2026-03-20T12:37:21.000Z</time>
      </trkpt>
      <trkpt lat="43.53043" lon="5.6056">
        <ele>1046</ele>
        <time>2026-03-20T12:37:33.000Z</time>
      </trkpt>
      <trkpt lat="43.53043" lon="5.60548">
        <ele>1047</ele>
        <time>2026-03-20T12:37:47.000Z</time>
      </trkpt>
      <trkpt lat="43.5304" lon="5.60535">
        <ele>1047</ele>
        <time>2026-03-20T12:38:00.000Z</time>
      </trkpt>
      <trkpt lat="43.53042" lon="5.60523">
        <ele>1048</ele>
        <time>2026-03-20T12:39:10.000Z</time>
      </trkpt>
      <trkpt lat="43.53043" lon="5.60511">
        <ele>1048</ele>
        <time>2026-03-20T12:39:23.000Z</time>
      </trkpt>
      <trkpt lat="43.53044" lon="5.60499">
        <ele>1048</ele>
        <time>2026-03-20T12:39:34.000Z</time>
      </trkpt>
      <trkpt lat="43.53043" lon="5.60487">
        <ele>1047</ele>
        <time>2026-03-20T12:39:45.000Z</time>
      </trkpt>
      <trkpt lat="43.5304" lon="5.60475">
        <ele>1047</ele>
        <time>2026-03-20T12:40:19.000Z</time>
      </trkpt>
      <trkpt lat="43.53039" lon="5.60463">
        <ele>1046</ele>
        <time>2026-03-20T12:40:30.000Z</time>
      </trkpt>
      <trkpt lat="43.53035" lon="5.60452">
        <ele>1045</ele>
        <time>2026-03-20T12:40:49.000Z</time>
      </trkpt>
      <trkpt lat="43.53035" lon="5.6044">
        <ele>1044</ele>
        <time>2026-03-20T12:41:02.000Z</time>
      </trkpt>
      <trkpt lat="43.53033" lon="5.60428">
        <ele>1044</ele>
        <time>2026-03-20T12:41:13.000Z</time>
      </trkpt>
      <trkpt lat="43.53033" lon="5.60416">
        <ele>1043</ele>
        <time>2026-03-20T12:41:27.000Z</time>
      </trkpt>
      <trkpt lat="43.53034" lon="5.60404">
        <ele>1043</ele>
        <time>2026-03-20T12:41:38.000Z</time>
      </trkpt>
      <trkpt lat="43.53033" lon="5.60392">
        <ele>1042</ele>
        <time>2026-03-20T12:41:52.000Z</time>
      </trkpt>
      <trkpt lat="43.5303" lon="5.60381">
        <ele>1041</ele>
        <time>2026-03-20T12:42:03.000Z</time>
      </trkpt>
      <trkpt lat="43.5303" lon="5.60369">
        <ele>1040</ele>
        <time>2026-03-20T12:42:14.000Z</time>
      </trkpt>
      <trkpt lat="43.5303" lon="5.60357">
        <ele>1040</ele>
        <time>2026-03-20T12:42:40.000Z</time>
      </trkpt>
      <trkpt lat="43.53029" lon="5.60345">
        <ele>1039</ele>
        <time>2026-03-20T12:42:50.000Z</time>
      </trkpt>
      <trkpt lat="43.53025" lon="5.60333">
        <ele>1039</ele>
        <time>2026-03-20T12:43:03.000Z</time>
      </trkpt>
      <trkpt lat="43.53023" lon="5.60321">
        <ele>1039</ele>
        <time>2026-03-20T12:43:15.000Z</time>
      </trkpt>
      <trkpt lat="43.53021" lon="5.60307">
        <ele>1039</ele>
        <time>2026-03-20T12:43:29.000Z</time>
      </trkpt>
      <trkpt lat="43.53017" lon="5.60294">
        <ele>1038</ele>
        <time>2026-03-20T12:43:39.000Z</time>
      </trkpt>
      <trkpt lat="43.53012" lon="5.60285">
        <ele>1037</ele>
        <time>2026-03-20T12:43:49.000Z</time>
      </trkpt>
      <trkpt lat="43.53011" lon="5.60273">
        <ele>1035</ele>
        <time>2026-03-20T12:44:03.000Z</time>
      </trkpt>
      <trkpt lat="43.53009" lon="5.6026">
        <ele>1033</ele>
        <time>2026-03-20T12:44:48.000Z</time>
      </trkpt>
      <trkpt lat="43.53008" lon="5.60247">
        <ele>1032</ele>
        <time>2026-03-20T12:45:08.000Z</time>
      </trkpt>
      <trkpt lat="43.5301" lon="5.60235">
        <ele>1031</ele>
        <time>2026-03-20T12:45:23.000Z</time>
      </trkpt>
      <trkpt lat="43.53011" lon="5.60222">
        <ele>1030</ele>
        <time>2026-03-20T12:45:41.000Z</time>
      </trkpt>
      <trkpt lat="43.53008" lon="5.60211">
        <ele>1029</ele>
        <time>2026-03-20T12:45:58.000Z</time>
      </trkpt>
      <trkpt lat="43.53003" lon="5.602">
        <ele>1029</ele>
        <time>2026-03-20T12:46:10.000Z</time>
      </trkpt>
      <trkpt lat="43.53" lon="5.60189">
        <ele>1028</ele>
        <time>2026-03-20T12:47:04.000Z</time>
      </trkpt>
      <trkpt lat="43.52998" lon="5.60176">
        <ele>1027</ele>
        <time>2026-03-20T12:47:16.000Z</time>
      </trkpt>
      <trkpt lat="43.52994" lon="5.60164">
        <ele>1026</ele>
        <time>2026-03-20T12:47:31.000Z</time>
      </trkpt>
      <trkpt lat="43.52989" lon="5.60153">
        <ele>1026</ele>
        <time>2026-03-20T12:47:47.000Z</time>
      </trkpt>
      <trkpt lat="43.52986" lon="5.60141">
        <ele>1025</ele>
        <time>2026-03-20T12:48:03.000Z</time>
      </trkpt>
      <trkpt lat="43.52983" lon="5.60129">
        <ele>1024</ele>
        <time>2026-03-20T12:48:21.000Z</time>
      </trkpt>
      <trkpt lat="43.5298" lon="5.60116">
        <ele>1023</ele>
        <time>2026-03-20T12:48:37.000Z</time>
      </trkpt>
      <trkpt lat="43.52977" lon="5.60104">
        <ele>1022</ele>
        <time>2026-03-20T12:48:49.000Z</time>
      </trkpt>
      <trkpt lat="43.52974" lon="5.60093">
        <ele>1022</ele>
        <time>2026-03-20T12:49:09.000Z</time>
      </trkpt>
      <trkpt lat="43.52969" lon="5.60081">
        <ele>1021</ele>
        <time>2026-03-20T12:49:19.000Z</time>
      </trkpt>
      <trkpt lat="43.52965" lon="5.6007">
        <ele>1021</ele>
        <time>2026-03-20T12:50:08.000Z</time>
      </trkpt>
      <trkpt lat="43.52963" lon="5.60058">
        <ele>1021</ele>
        <time>2026-03-20T12:50:19.000Z</time>
      </trkpt>
      <trkpt lat="43.52962" lon="5.60045">
        <ele>1021</ele>
        <time>2026-03-20T12:50:31.000Z</time>
      </trkpt>
      <trkpt lat="43.5296" lon="5.60033">
        <ele>1020</ele>
        <time>2026-03-20T12:51:03.000Z</time>
      </trkpt>
      <trkpt lat="43.52962" lon="5.6002">
        <ele>1020</ele>
        <time>2026-03-20T12:51:11.000Z</time>
      </trkpt>
      <trkpt lat="43.52966" lon="5.60009">
        <ele>1020</ele>
        <time>2026-03-20T12:51:31.000Z</time>
      </trkpt>
      <trkpt lat="43.52966" lon="5.59997">
        <ele>1021</ele>
        <time>2026-03-20T12:51:40.000Z</time>
      </trkpt>
      <trkpt lat="43.52965" lon="5.59984">
        <ele>1021</ele>
        <time>2026-03-20T12:52:11.000Z</time>
      </trkpt>
      <trkpt lat="43.52967" lon="5.59972">
        <ele>1021</ele>
        <time>2026-03-20T12:52:27.000Z</time>
      </trkpt>
      <trkpt lat="43.52973" lon="5.59962">
        <ele>1021</ele>
        <time>2026-03-20T12:53:01.000Z</time>
      </trkpt>
      <trkpt lat="43.5298" lon="5.59952">
        <ele>1021</ele>
        <time>2026-03-20T12:53:14.000Z</time>
      </trkpt>
      <trkpt lat="43.52984" lon="5.59941">
        <ele>1021</ele>
        <time>2026-03-20T12:53:31.000Z</time>
      </trkpt>
      <trkpt lat="43.52987" lon="5.5993">
        <ele>1022</ele>
        <time>2026-03-20T12:53:47.000Z</time>
      </trkpt>
      <trkpt lat="43.52986" lon="5.59917">
        <ele>1023</ele>
        <time>2026-03-20T12:54:03.000Z</time>
      </trkpt>
      <trkpt lat="43.52987" lon="5.59905">
        <ele>1023</ele>
        <time>2026-03-20T12:54:27.000Z</time>
      </trkpt>
      <trkpt lat="43.52991" lon="5.59893">
        <ele>1024</ele>
        <time>2026-03-20T12:54:49.000Z</time>
      </trkpt>
      <trkpt lat="43.52994" lon="5.59881">
        <ele>1024</ele>
        <time>2026-03-20T12:55:02.000Z</time>
      </trkpt>
      <trkpt lat="43.52997" lon="5.59869">
        <ele>1023</ele>
        <time>2026-03-20T12:55:19.000Z</time>
      </trkpt>
      <trkpt lat="43.53" lon="5.59858">
        <ele>1023</ele>
        <time>2026-03-20T12:55:53.000Z</time>
      </trkpt>
      <trkpt lat="43.53003" lon="5.59847">
        <ele>1023</ele>
        <time>2026-03-20T12:56:22.000Z</time>
      </trkpt>
      <trkpt lat="43.53002" lon="5.59835">
        <ele>1022</ele>
        <time>2026-03-20T12:56:45.000Z</time>
      </trkpt>
      <trkpt lat="43.53004" lon="5.59823">
        <ele>1022</ele>
        <time>2026-03-20T12:57:19.000Z</time>
      </trkpt>
      <trkpt lat="43.53009" lon="5.59813">
        <ele>1022</ele>
        <time>2026-03-20T12:57:43.000Z</time>
      </trkpt>
      <trkpt lat="43.53013" lon="5.59803">
        <ele>1022</ele>
        <time>2026-03-20T12:57:57.000Z</time>
      </trkpt>
      <trkpt lat="43.53013" lon="5.59791">
        <ele>1022</ele>
        <time>2026-03-20T12:58:12.000Z</time>
      </trkpt>
      <trkpt lat="43.53015" lon="5.59778">
        <ele>1023</ele>
        <time>2026-03-20T12:58:27.000Z</time>
      </trkpt>
      <trkpt lat="43.53015" lon="5.59765">
        <ele>1023</ele>
        <time>2026-03-20T12:58:59.000Z</time>
      </trkpt>
      <trkpt lat="43.53016" lon="5.59753">
        <ele>1024</ele>
        <time>2026-03-20T12:59:13.000Z</time>
      </trkpt>
      <trkpt lat="43.53016" lon="5.59741">
        <ele>1024</ele>
        <time>2026-03-20T12:59:33.000Z</time>
      </trkpt>
      <trkpt lat="43.53014" lon="5.59728">
        <ele>1024</ele>
        <time>2026-03-20T12:59:45.000Z</time>
      </trkpt>
      <trkpt lat="43.53013" lon="5.59716">
        <ele>1024</ele>
        <time>2026-03-20T13:00:07.000Z</time>
      </trkpt>
      <trkpt lat="43.53014" lon="5.59703">
        <ele>1024</ele>
        <time>2026-03-20T13:00:33.000Z</time>
      </trkpt>
      <trkpt lat="43.53015" lon="5.5969">
        <ele>1024</ele>
        <time>2026-03-20T13:00:47.000Z</time>
      </trkpt>
      <trkpt lat="43.53016" lon="5.59677">
        <ele>1023</ele>
        <time>2026-03-20T13:01:13.000Z</time>
      </trkpt>
      <trkpt lat="43.5302" lon="5.59666">
        <ele>1023</ele>
        <time>2026-03-20T13:01:31.000Z</time>
      </trkpt>
      <trkpt lat="43.53023" lon="5.59653">
        <ele>1023</ele>
        <time>2026-03-20T13:01:47.000Z</time>
      </trkpt>
      <trkpt lat="43.53023" lon="5.59641">
        <ele>1023</ele>
        <time>2026-03-20T13:01:59.000Z</time>
      </trkpt>
      <trkpt lat="43.53024" lon="5.59628">
        <ele>1023</ele>
        <time>2026-03-20T13:02:10.000Z</time>
      </trkpt>
      <trkpt lat="43.53024" lon="5.59616">
        <ele>1024</ele>
        <time>2026-03-20T13:02:25.000Z</time>
      </trkpt>
      <trkpt lat="43.53023" lon="5.59604">
        <ele>1024</ele>
        <time>2026-03-20T13:02:54.000Z</time>
      </trkpt>
      <trkpt lat="43.53021" lon="5.59592">
        <ele>1024</ele>
        <time>2026-03-20T13:03:04.000Z</time>
      </trkpt>
      <trkpt lat="43.53017" lon="5.59581">
        <ele>1024</ele>
        <time>2026-03-20T13:03:31.000Z</time>
      </trkpt>
      <trkpt lat="43.53017" lon="5.59568">
        <ele>1024</ele>
        <time>2026-03-20T13:03:44.000Z</time>
      </trkpt>
      <trkpt lat="43.5302" lon="5.59555">
        <ele>1023</ele>
        <time>2026-03-20T13:03:59.000Z</time>
      </trkpt>
      <trkpt lat="43.53019" lon="5.59542">
        <ele>1022</ele>
        <time>2026-03-20T13:04:42.000Z</time>
      </trkpt>
      <trkpt lat="43.53018" lon="5.5953">
        <ele>1022</ele>
        <time>2026-03-20T13:05:01.000Z</time>
      </trkpt>
      <trkpt lat="43.53017" lon="5.59517">
        <ele>1021</ele>
        <time>2026-03-20T13:05:17.000Z</time>
      </trkpt>
      <trkpt lat="43.53015" lon="5.59505">
        <ele>1021</ele>
        <time>2026-03-20T13:05:29.000Z</time>
      </trkpt>
      <trkpt lat="43.53016" lon="5.59493">
        <ele>1021</ele>
        <time>2026-03-20T13:05:43.000Z</time>
      </trkpt>
      <trkpt lat="43.53016" lon="5.59481">
        <ele>1021</ele>
        <time>2026-03-20T13:05:55.000Z</time>
      </trkpt>
      <trkpt lat="43.53019" lon="5.59468">
        <ele>1020</ele>
        <time>2026-03-20T13:06:05.000Z</time>
      </trkpt>
      <trkpt lat="43.53019" lon="5.59455">
        <ele>1020</ele>
        <time>2026-03-20T13:06:16.000Z</time>
      </trkpt>
      <trkpt lat="43.53021" lon="5.59442">
        <ele>1019</ele>
        <time>2026-03-20T13:06:29.000Z</time>
      </trkpt>
      <trkpt lat="43.53021" lon="5.59431">
        <ele>1018</ele>
        <time>2026-03-20T13:06:51.000Z</time>
      </trkpt>
      <trkpt lat="43.53024" lon="5.5942">
        <ele>1016</ele>
        <time>2026-03-20T13:07:21.000Z</time>
      </trkpt>
      <trkpt lat="43.53022" lon="5.59409">
        <ele>1015</ele>
        <time>2026-03-20T13:07:35.000Z</time>
      </trkpt>
      <trkpt lat="43.53019" lon="5.59397">
        <ele>1014</ele>
        <time>2026-03-20T13:07:55.000Z</time>
      </trkpt>
      <trkpt lat="43.53018" lon="5.59385">
        <ele>1012</ele>
        <time>2026-03-20T13:08:19.000Z</time>
      </trkpt>
      <trkpt lat="43.53015" lon="5.59373">
        <ele>1011</ele>
        <time>2026-03-20T13:08:56.000Z</time>
      </trkpt>
      <trkpt lat="43.53014" lon="5.59361">
        <ele>1010</ele>
        <time>2026-03-20T13:09:15.000Z</time>
      </trkpt>
      <trkpt lat="43.53011" lon="5.59349">
        <ele>1008</ele>
        <time>2026-03-20T13:09:41.000Z</time>
      </trkpt>
      <trkpt lat="43.53012" lon="5.59336">
        <ele>1007</ele>
        <time>2026-03-20T13:10:07.000Z</time>
      </trkpt>
      <trkpt lat="43.53016" lon="5.59325">
        <ele>1006</ele>
        <time>2026-03-20T13:10:19.000Z</time>
      </trkpt>
      <trkpt lat="43.53015" lon="5.59313">
        <ele>1006</ele>
        <time>2026-03-20T13:10:31.000Z</time>
      </trkpt>
      <trkpt lat="43.53014" lon="5.59301">
        <ele>1006</ele>
        <time>2026-03-20T13:10:45.000Z</time>
      </trkpt>
      <trkpt lat="43.53014" lon="5.59289">
        <ele>1007</ele>
        <time>2026-03-20T13:11:21.000Z</time>
      </trkpt>
      <trkpt lat="43.53013" lon="5.59277">
        <ele>1007</ele>
        <time>2026-03-20T13:11:30.000Z</time>
      </trkpt>
      <trkpt lat="43.5301" lon="5.59265">
        <ele>1008</ele>
        <time>2026-03-20T13:11:45.000Z</time>
      </trkpt>
      <trkpt lat="43.53013" lon="5.59255">
        <ele>1008</ele>
        <time>2026-03-20T13:12:09.000Z</time>
      </trkpt>
      <trkpt lat="43.53015" lon="5.59243">
        <ele>1008</ele>
        <time>2026-03-20T13:12:34.000Z</time>
      </trkpt>
      <trkpt lat="43.53018" lon="5.59233">
        <ele>1008</ele>
        <time>2026-03-20T13:12:47.000Z</time>
      </trkpt>
      <trkpt lat="43.53013" lon="5.59223">
        <ele>1007</ele>
        <time>2026-03-20T13:13:07.000Z</time>
      </trkpt>
      <trkpt lat="43.53009" lon="5.59212">
        <ele>1007</ele>
        <time>2026-03-20T13:13:35.000Z</time>
      </trkpt>
      <trkpt lat="43.53007" lon="5.592">
        <ele>1007</ele>
        <time>2026-03-20T13:13:49.000Z</time>
      </trkpt>
      <trkpt lat="43.53004" lon="5.59189">
        <ele>1006</ele>
        <time>2026-03-20T13:14:01.000Z</time>
      </trkpt>
      <trkpt lat="43.53002" lon="5.59177">
        <ele>1006</ele>
        <time>2026-03-20T13:14:17.000Z</time>
      </trkpt>
      <trkpt lat="43.52998" lon="5.59165">
        <ele>1006</ele>
        <time>2026-03-20T13:14:33.000Z</time>
      </trkpt>
      <trkpt lat="43.52992" lon="5.59156">
        <ele>1006</ele>
        <time>2026-03-20T13:14:47.000Z</time>
      </trkpt>
      <trkpt lat="43.52986" lon="5.59145">
        <ele>1006</ele>
        <time>2026-03-20T13:15:01.000Z</time>
      </trkpt>
      <trkpt lat="43.52981" lon="5.59134">
        <ele>1006</ele>
        <time>2026-03-20T13:15:19.000Z</time>
      </trkpt>
      <trkpt lat="43.5298" lon="5.59121">
        <ele>1006</ele>
        <time>2026-03-20T13:16:56.000Z</time>
      </trkpt>
      <trkpt lat="43.52981" lon="5.59108">
        <ele>1007</ele>
        <time>2026-03-20T13:17:09.000Z</time>
      </trkpt>
      <trkpt lat="43.52983" lon="5.59095">
        <ele>1008</ele>
        <time>2026-03-20T13:17:22.000Z</time>
      </trkpt>
      <trkpt lat="43.52981" lon="5.59084">
        <ele>1009</ele>
        <time>2026-03-20T13:17:32.000Z</time>
      </trkpt>
      <trkpt lat="43.52977" lon="5.59073">
        <ele>1009</ele>
        <time>2026-03-20T13:17:50.000Z</time>
      </trkpt>
      <trkpt lat="43.52976" lon="5.59061">
        <ele>1010</ele>
        <time>2026-03-20T13:18:07.000Z</time>
      </trkpt>
      <trkpt lat="43.52974" lon="5.59049">
        <ele>1010</ele>
        <time>2026-03-20T13:18:26.000Z</time>
      </trkpt>
      <trkpt lat="43.52976" lon="5.59036">
        <ele>1010</ele>
        <time>2026-03-20T13:18:49.000Z</time>
      </trkpt>
      <trkpt lat="43.52977" lon="5.59023">
        <ele>1010</ele>
        <time>2026-03-20T13:19:09.000Z</time>
      </trkpt>
      <trkpt lat="43.5298" lon="5.59012">
        <ele>1010</ele>
        <time>2026-03-20T13:19:20.000Z</time>
      </trkpt>
      <trkpt lat="43.52981" lon="5.58999">
        <ele>1010</ele>
        <time>2026-03-20T13:19:46.000Z</time>
      </trkpt>
      <trkpt lat="43.52982" lon="5.58986">
        <ele>1009</ele>
        <time>2026-03-20T13:19:57.000Z</time>
      </trkpt>
      <trkpt lat="43.52981" lon="5.58973">
        <ele>1009</ele>
        <time>2026-03-20T13:20:09.000Z</time>
      </trkpt>
      <trkpt lat="43.5298" lon="5.5896">
        <ele>1009</ele>
        <time>2026-03-20T13:20:21.000Z</time>
      </trkpt>
      <trkpt lat="43.52978" lon="5.58948">
        <ele>1009</ele>
        <time>2026-03-20T13:20:35.000Z</time>
      </trkpt>
      <trkpt lat="43.52978" lon="5.58935">
        <ele>1009</ele>
        <time>2026-03-20T13:20:49.000Z</time>
      </trkpt>
      <trkpt lat="43.52979" lon="5.58922">
        <ele>1009</ele>
        <time>2026-03-20T13:21:02.000Z</time>
      </trkpt>
      <trkpt lat="43.52979" lon="5.58909">
        <ele>1009</ele>
        <time>2026-03-20T13:21:19.000Z</time>
      </trkpt>
      <trkpt lat="43.5298" lon="5.58897">
        <ele>1008</ele>
        <time>2026-03-20T13:21:35.000Z</time>
      </trkpt>
      <trkpt lat="43.52984" lon="5.58886">
        <ele>1008</ele>
        <time>2026-03-20T13:21:51.000Z</time>
      </trkpt>
      <trkpt lat="43.52989" lon="5.58875">
        <ele>1008</ele>
        <time>2026-03-20T13:22:02.000Z</time>
      </trkpt>
      <trkpt lat="43.52993" lon="5.58864">
        <ele>1007</ele>
        <time>2026-03-20T13:22:17.000Z</time>
      </trkpt>
      <trkpt lat="43.52998" lon="5.58854">
        <ele>1006</ele>
        <time>2026-03-20T13:22:34.000Z</time>
      </trkpt>
      <trkpt lat="43.53001" lon="5.58842">
        <ele>1005</ele>
        <time>2026-03-20T13:22:49.000Z</time>
      </trkpt>
      <trkpt lat="43.53004" lon="5.5883">
        <ele>1004</ele>
        <time>2026-03-20T13:23:01.000Z</time>
      </trkpt>
      <trkpt lat="43.53009" lon="5.5882">
        <ele>1002</ele>
        <time>2026-03-20T13:23:17.000Z</time>
      </trkpt>
      <trkpt lat="43.53014" lon="5.5881">
        <ele>1001</ele>
        <time>2026-03-20T13:23:39.000Z</time>
      </trkpt>
      <trkpt lat="43.53019" lon="5.588">
        <ele>1000</ele>
        <time>2026-03-20T13:23:59.000Z</time>
      </trkpt>
      <trkpt lat="43.53023" lon="5.58789">
        <ele>998</ele>
        <time>2026-03-20T13:24:19.000Z</time>
      </trkpt>
      <trkpt lat="43.53026" lon="5.58777">
        <ele>997</ele>
        <time>2026-03-20T13:24:31.000Z</time>
      </trkpt>
      <trkpt lat="43.5303" lon="5.58766">
        <ele>996</ele>
        <time>2026-03-20T13:24:47.000Z</time>
      </trkpt>
      <trkpt lat="43.53032" lon="5.58755">
        <ele>995</ele>
        <time>2026-03-20T13:25:01.000Z</time>
      </trkpt>
      <trkpt lat="43.53035" lon="5.58744">
        <ele>995</ele>
        <time>2026-03-20T13:25:15.000Z</time>
      </trkpt>
      <trkpt lat="43.5304" lon="5.58734">
        <ele>995</ele>
        <time>2026-03-20T13:25:31.000Z</time>
      </trkpt>
      <trkpt lat="43.53045" lon="5.58722">
        <ele>995</ele>
        <time>2026-03-20T13:25:53.000Z</time>
      </trkpt>
      <trkpt lat="43.53051" lon="5.58712">
        <ele>995</ele>
        <time>2026-03-20T13:26:09.000Z</time>
      </trkpt>
      <trkpt lat="43.53054" lon="5.58699">
        <ele>995</ele>
        <time>2026-03-20T13:27:11.000Z</time>
      </trkpt>
      <trkpt lat="43.53056" lon="5.58686">
        <ele>994</ele>
        <time>2026-03-20T13:27:22.000Z</time>
      </trkpt>
      <trkpt lat="43.53057" lon="5.58674">
        <ele>993</ele>
        <time>2026-03-20T13:27:34.000Z</time>
      </trkpt>
      <trkpt lat="43.53062" lon="5.58663">
        <ele>991</ele>
        <time>2026-03-20T13:27:51.000Z</time>
      </trkpt>
      <trkpt lat="43.53065" lon="5.58651">
        <ele>989</ele>
        <time>2026-03-20T13:28:27.000Z</time>
      </trkpt>
      <trkpt lat="43.5307" lon="5.58641">
        <ele>987</ele>
        <time>2026-03-20T13:28:51.000Z</time>
      </trkpt>
      <trkpt lat="43.53078" lon="5.58634">
        <ele>985</ele>
        <time>2026-03-20T13:29:11.000Z</time>
      </trkpt>
      <trkpt lat="43.53084" lon="5.58626">
        <ele>983</ele>
        <time>2026-03-20T13:29:21.000Z</time>
      </trkpt>
      <trkpt lat="43.53085" lon="5.58615">
        <ele>981</ele>
        <time>2026-03-20T13:29:37.000Z</time>
      </trkpt>
      <trkpt lat="43.53085" lon="5.58603">
        <ele>980</ele>
        <time>2026-03-20T13:29:55.000Z</time>
      </trkpt>
      <trkpt lat="43.53079" lon="5.58597">
        <ele>978</ele>
        <time>2026-03-20T13:30:51.000Z</time>
      </trkpt>
      <trkpt lat="43.53078" lon="5.58586">
        <ele>977</ele>
        <time>2026-03-20T13:31:15.000Z</time>
      </trkpt>
      <trkpt lat="43.53073" lon="5.58575">
        <ele>976</ele>
        <time>2026-03-20T13:31:37.000Z</time>
      </trkpt>
      <trkpt lat="43.53068" lon="5.58565">
        <ele>975</ele>
        <time>2026-03-20T13:32:03.000Z</time>
      </trkpt>
      <trkpt lat="43.53061" lon="5.58557">
        <ele>975</ele>
        <time>2026-03-20T13:32:43.000Z</time>
      </trkpt>
      <trkpt lat="43.53056" lon="5.58546">
        <ele>975</ele>
        <time>2026-03-20T13:32:57.000Z</time>
      </trkpt>
      <trkpt lat="43.53052" lon="5.58535">
        <ele>976</ele>
        <time>2026-03-20T13:33:17.000Z</time>
      </trkpt>
      <trkpt lat="43.53047" lon="5.58525">
        <ele>976</ele>
        <time>2026-03-20T13:33:31.000Z</time>
      </trkpt>
      <trkpt lat="43.53043" lon="5.58514">
        <ele>977</ele>
        <time>2026-03-20T13:34:13.000Z</time>
      </trkpt>
      <trkpt lat="43.53042" lon="5.58503">
        <ele>977</ele>
        <time>2026-03-20T13:34:27.000Z</time>
      </trkpt>
      <trkpt lat="43.53046" lon="5.58492">
        <ele>977</ele>
        <time>2026-03-20T13:34:41.000Z</time>
      </trkpt>
      <trkpt lat="43.53051" lon="5.5848">
        <ele>977</ele>
        <time>2026-03-20T13:34:50.000Z</time>
      </trkpt>
      <trkpt lat="43.53055" lon="5.5847">
        <ele>977</ele>
        <time>2026-03-20T13:35:09.000Z</time>
      </trkpt>
      <trkpt lat="43.53059" lon="5.58459">
        <ele>977</ele>
        <time>2026-03-20T13:35:21.000Z</time>
      </trkpt>
      <trkpt lat="43.53062" lon="5.58447">
        <ele>977</ele>
        <time>2026-03-20T13:35:34.000Z</time>
      </trkpt>
      <trkpt lat="43.53063" lon="5.58435">
        <ele>977</ele>
        <time>2026-03-20T13:35:59.000Z</time>
      </trkpt>
      <trkpt lat="43.53063" lon="5.58422">
        <ele>977</ele>
        <time>2026-03-20T13:36:15.000Z</time>
      </trkpt>
      <trkpt lat="43.53063" lon="5.58409">
        <ele>976</ele>
        <time>2026-03-20T13:36:27.000Z</time>
      </trkpt>
      <trkpt lat="43.53064" lon="5.58396">
        <ele>976</ele>
        <time>2026-03-20T13:36:39.000Z</time>
      </trkpt>
      <trkpt lat="43.53069" lon="5.58386">
        <ele>975</ele>
        <time>2026-03-20T13:36:57.000Z</time>
      </trkpt>
      <trkpt lat="43.53074" lon="5.58376">
        <ele>975</ele>
        <time>2026-03-20T13:37:18.000Z</time>
      </trkpt>
      <trkpt lat="43.53075" lon="5.58363">
        <ele>974</ele>
        <time>2026-03-20T13:37:43.000Z</time>
      </trkpt>
      <trkpt lat="43.53078" lon="5.58351">
        <ele>973</ele>
        <time>2026-03-20T13:37:53.000Z</time>
      </trkpt>
      <trkpt lat="43.53083" lon="5.58339">
        <ele>972</ele>
        <time>2026-03-20T13:38:30.000Z</time>
      </trkpt>
      <trkpt lat="43.53085" lon="5.58327">
        <ele>971</ele>
        <time>2026-03-20T13:38:46.000Z</time>
      </trkpt>
      <trkpt lat="43.53085" lon="5.58314">
        <ele>970</ele>
        <time>2026-03-20T13:38:59.000Z</time>
      </trkpt>
      <trkpt lat="43.53084" lon="5.583">
        <ele>969</ele>
        <time>2026-03-20T13:39:15.000Z</time>
      </trkpt>
      <trkpt lat="43.53083" lon="5.58287">
        <ele>968</ele>
        <time>2026-03-20T13:39:29.000Z</time>
      </trkpt>
      <trkpt lat="43.53085" lon="5.58275">
        <ele>966</ele>
        <time>2026-03-20T13:39:40.000Z</time>
      </trkpt>
      <trkpt lat="43.53089" lon="5.58263">
        <ele>965</ele>
        <time>2026-03-20T13:40:01.000Z</time>
      </trkpt>
      <trkpt lat="43.53092" lon="5.58252">
        <ele>965</ele>
        <time>2026-03-20T13:40:29.000Z</time>
      </trkpt>
      <trkpt lat="43.53095" lon="5.5824">
        <ele>965</ele>
        <time>2026-03-20T13:43:25.000Z</time>
      </trkpt>
      <trkpt lat="43.53095" lon="5.58228">
        <ele>965</ele>
        <time>2026-03-20T13:43:36.000Z</time>
      </trkpt>
      <trkpt lat="43.53092" lon="5.58216">
        <ele>966</ele>
        <time>2026-03-20T13:43:49.000Z</time>
      </trkpt>
      <trkpt lat="43.53091" lon="5.58203">
        <ele>967</ele>
        <time>2026-03-20T13:44:03.000Z</time>
      </trkpt>
      <trkpt lat="43.53094" lon="5.58191">
        <ele>968</ele>
        <time>2026-03-20T13:44:55.000Z</time>
      </trkpt>
      <trkpt lat="43.53098" lon="5.5818">
        <ele>969</ele>
        <time>2026-03-20T13:45:11.000Z</time>
      </trkpt>
      <trkpt lat="43.53104" lon="5.58171">
        <ele>970</ele>
        <time>2026-03-20T13:45:27.000Z</time>
      </trkpt>
      <trkpt lat="43.53111" lon="5.58164">
        <ele>971</ele>
        <time>2026-03-20T13:50:37.000Z</time>
      </trkpt>
      <trkpt lat="43.53118" lon="5.58156">
        <ele>972</ele>
        <time>2026-03-20T13:50:59.000Z</time>
      </trkpt>
      <trkpt lat="43.53124" lon="5.58147">
        <ele>972</ele>
        <time>2026-03-20T13:51:29.000Z</time>
      </trkpt>
      <trkpt lat="43.53127" lon="5.58135">
        <ele>973</ele>
        <time>2026-03-20T13:52:03.000Z</time>
      </trkpt>
      <trkpt lat="43.53126" lon="5.58121">
        <ele>973</ele>
        <time>2026-03-20T13:52:59.000Z</time>
      </trkpt>
      <trkpt lat="43.53127" lon="5.58106">
        <ele>973</ele>
        <time>2026-03-20T13:54:09.000Z</time>
      </trkpt>
      <trkpt lat="43.53128" lon="5.58092">
        <ele>974</ele>
        <time>2026-03-20T13:55:07.000Z</time>
      </trkpt>
      <trkpt lat="43.53124" lon="5.5808">
        <ele>975</ele>
        <time>2026-03-20T13:55:23.000Z</time>
      </trkpt>
      <trkpt lat="43.53121" lon="5.58069">
        <ele>977</ele>
        <time>2026-03-20T13:56:07.000Z</time>
      </trkpt>
      <trkpt lat="43.53117" lon="5.58057">
        <ele>980</ele>
        <time>2026-03-20T13:56:17.000Z</time>
      </trkpt>
      <trkpt lat="43.53111" lon="5.58047">
        <ele>982</ele>
        <time>2026-03-20T13:56:53.000Z</time>
      </trkpt>
      <trkpt lat="43.53106" lon="5.58037">
        <ele>984</ele>
        <time>2026-03-20T13:58:31.000Z</time>
      </trkpt>
      <trkpt lat="43.53103" lon="5.58025">
        <ele>986</ele>
        <time>2026-03-20T13:58:37.000Z</time>
      </trkpt>
      <trkpt lat="43.53101" lon="5.58011">
        <ele>987</ele>
        <time>2026-03-20T13:59:33.000Z</time>
      </trkpt>
      <trkpt lat="43.53096" lon="5.58002">
        <ele>987</ele>
        <time>2026-03-20T13:59:51.000Z</time>
      </trkpt>
      <trkpt lat="43.53091" lon="5.58005">
        <ele>986</ele>
        <time>2026-03-20T14:01:19.000Z</time>
      </trkpt>
      <trkpt lat="43.53097" lon="5.58006">
        <ele>985</ele>
        <time>2026-03-20T14:10:11.000Z</time>
      </trkpt>
      <trkpt lat="43.53101" lon="5.58013">
        <ele>984</ele>
        <time>2026-03-20T14:11:09.000Z</time>
      </trkpt>
      <trkpt lat="43.53104" lon="5.58005">
        <ele>983</ele>
        <time>2026-03-20T14:13:31.000Z</time>
      </trkpt>
      <trkpt lat="43.53108" lon="5.57993">
        <ele>981</ele>
        <time>2026-03-20T14:13:57.000Z</time>
      </trkpt>
      <trkpt lat="43.53113" lon="5.57981">
        <ele>980</ele>
        <time>2026-03-20T14:14:23.000Z</time>
      </trkpt>
      <trkpt lat="43.53119" lon="5.57972">
        <ele>978</ele>
        <time>2026-03-20T14:14:59.000Z</time>
      </trkpt>
      <trkpt lat="43.53124" lon="5.57963">
        <ele>975</ele>
        <time>2026-03-20T14:15:15.000Z</time>
      </trkpt>
      <trkpt lat="43.53127" lon="5.57951">
        <ele>973</ele>
        <time>2026-03-20T14:15:31.000Z</time>
      </trkpt>
      <trkpt lat="43.53131" lon="5.57937">
        <ele>970</ele>
        <time>2026-03-20T14:16:47.000Z</time>
      </trkpt>
      <trkpt lat="43.53135" lon="5.57925">
        <ele>967</ele>
        <time>2026-03-20T14:17:33.000Z</time>
      </trkpt>
      <trkpt lat="43.5314" lon="5.57915">
        <ele>964</ele>
        <time>2026-03-20T14:18:27.000Z</time>
      </trkpt>
      <trkpt lat="43.53145" lon="5.57904">
        <ele>961</ele>
        <time>2026-03-20T14:18:41.000Z</time>
      </trkpt>
      <trkpt lat="43.53146" lon="5.57891">
        <ele>958</ele>
        <time>2026-03-20T14:19:07.000Z</time>
      </trkpt>
      <trkpt lat="43.53147" lon="5.5788">
        <ele>954</ele>
        <time>2026-03-20T14:19:41.000Z</time>
      </trkpt>
      <trkpt lat="43.53154" lon="5.57885">
        <ele>951</ele>
        <time>2026-03-20T14:21:49.000Z</time>
      </trkpt>
      <trkpt lat="43.53162" lon="5.57881">
        <ele>949</ele>
        <time>2026-03-20T14:23:05.000Z</time>
      </trkpt>
      <trkpt lat="43.53169" lon="5.57876">
        <ele>946</ele>
        <time>2026-03-20T14:23:43.000Z</time>
      </trkpt>
      <trkpt lat="43.53171" lon="5.57865">
        <ele>944</ele>
        <time>2026-03-20T14:24:23.000Z</time>
      </trkpt>
      <trkpt lat="43.5317" lon="5.57854">
        <ele>943</ele>
        <time>2026-03-20T14:24:43.000Z</time>
      </trkpt>
      <trkpt lat="43.53163" lon="5.57849">
        <ele>943</ele>
        <time>2026-03-20T14:24:57.000Z</time>
      </trkpt>
      <trkpt lat="43.5316" lon="5.57841">
        <ele>943</ele>
        <time>2026-03-20T14:25:13.000Z</time>
      </trkpt>
      <trkpt lat="43.5316" lon="5.57847">
        <ele>944</ele>
        <time>2026-03-20T14:25:55.000Z</time>
      </trkpt>
      <trkpt lat="43.53157" lon="5.57842">
        <ele>944</ele>
        <time>2026-03-20T14:26:31.000Z</time>
      </trkpt>
      <trkpt lat="43.53156" lon="5.5785">
        <ele>943</ele>
        <time>2026-03-20T14:27:07.000Z</time>
      </trkpt>
      <trkpt lat="43.53163" lon="5.57855">
        <ele>941</ele>
        <time>2026-03-20T14:27:19.000Z</time>
      </trkpt>
      <trkpt lat="43.5317" lon="5.57863">
        <ele>940</ele>
        <time>2026-03-20T14:27:31.000Z</time>
      </trkpt>
      <trkpt lat="43.53177" lon="5.57861">
        <ele>939</ele>
        <time>2026-03-20T14:27:44.000Z</time>
      </trkpt>
      <trkpt lat="43.53182" lon="5.57853">
        <ele>939</ele>
        <time>2026-03-20T14:28:05.000Z</time>
      </trkpt>
      <trkpt lat="43.53186" lon="5.57859">
        <ele>939</ele>
        <time>2026-03-20T14:29:53.000Z</time>
      </trkpt>
      <trkpt lat="43.53179" lon="5.57861">
        <ele>939</ele>
        <time>2026-03-20T14:30:07.000Z</time>
      </trkpt>
      <trkpt lat="43.53171" lon="5.57862">
        <ele>940</ele>
        <time>2026-03-20T14:30:29.000Z</time>
      </trkpt>
      <trkpt lat="43.53167" lon="5.57852">
        <ele>940</ele>
        <time>2026-03-20T14:30:54.000Z</time>
      </trkpt>
      <trkpt lat="43.53165" lon="5.57839">
        <ele>940</ele>
        <time>2026-03-20T14:31:07.000Z</time>
      </trkpt>
      <trkpt lat="43.53157" lon="5.57833">
        <ele>940</ele>
        <time>2026-03-20T14:31:25.000Z</time>
      </trkpt>
      <trkpt lat="43.53149" lon="5.57838">
        <ele>940</ele>
        <time>2026-03-20T14:31:33.000Z</time>
      </trkpt>
      <trkpt lat="43.53143" lon="5.57846">
        <ele>940</ele>
        <time>2026-03-20T14:31:41.000Z</time>
      </trkpt>
      <trkpt lat="43.53147" lon="5.57853">
        <ele>940</ele>
        <time>2026-03-20T14:32:11.000Z</time>
      </trkpt>
      <trkpt lat="43.53156" lon="5.5785">
        <ele>940</ele>
        <time>2026-03-20T14:32:23.000Z</time>
      </trkpt>
      <trkpt lat="43.53164" lon="5.5784">
        <ele>941</ele>
        <time>2026-03-20T14:32:41.000Z</time>
      </trkpt>
      <trkpt lat="43.53168" lon="5.57829">
        <ele>941</ele>
        <time>2026-03-20T14:32:47.000Z</time>
      </trkpt>
      <trkpt lat="43.53172" lon="5.57819">
        <ele>941</ele>
        <time>2026-03-20T14:32:57.000Z</time>
      </trkpt>
      <trkpt lat="43.53171" lon="5.57806">
        <ele>941</ele>
        <time>2026-03-20T14:33:15.000Z</time>
      </trkpt>
      <trkpt lat="43.5317" lon="5.57794">
        <ele>940</ele>
        <time>2026-03-20T14:33:27.000Z</time>
      </trkpt>
      <trkpt lat="43.53169" lon="5.57779">
        <ele>940</ele>
        <time>2026-03-20T14:33:35.000Z</time>
      </trkpt>
      <trkpt lat="43.53168" lon="5.57767">
        <ele>939</ele>
        <time>2026-03-20T14:33:40.000Z</time>
      </trkpt>
      <trkpt lat="43.5317" lon="5.57785">
        <ele>939</ele>
        <time>2026-03-20T14:33:43.000Z</time>
      </trkpt>
      <trkpt lat="43.53175" lon="5.57797">
        <ele>939</ele>
        <time>2026-03-20T14:33:51.000Z</time>
      </trkpt>
      <trkpt lat="43.53177" lon="5.57809">
        <ele>940</ele>
        <time>2026-03-20T14:33:57.000Z</time>
      </trkpt>
      <trkpt lat="43.53175" lon="5.57823">
        <ele>941</ele>
        <time>2026-03-20T14:33:59.000Z</time>
      </trkpt>
      <trkpt lat="43.53169" lon="5.57834">
        <ele>942</ele>
        <time>2026-03-20T14:34:15.000Z</time>
      </trkpt>
      <trkpt lat="43.53163" lon="5.57832">
        <ele>944</ele>
        <time>2026-03-20T14:34:19.000Z</time>
      </trkpt>
      <trkpt lat="43.53174" lon="5.57806">
        <ele>943</ele>
        <time>2026-03-20T14:35:45.000Z</time>
      </trkpt>
      <trkpt lat="43.53166" lon="5.578">
        <ele>943</ele>
        <time>2026-03-20T14:35:51.000Z</time>
      </trkpt>
      <trkpt lat="43.53169" lon="5.57807">
        <ele>943</ele>
        <time>2026-03-20T14:36:33.000Z</time>
      </trkpt>
      <trkpt lat="43.53178" lon="5.57807">
        <ele>942</ele>
        <time>2026-03-20T14:36:45.000Z</time>
      </trkpt>
      <trkpt lat="43.53185" lon="5.578">
        <ele>940</ele>
        <time>2026-03-20T14:37:07.000Z</time>
      </trkpt>
      <trkpt lat="43.53188" lon="5.57788">
        <ele>939</ele>
        <time>2026-03-20T14:37:19.000Z</time>
      </trkpt>
      <trkpt lat="43.53187" lon="5.57776">
        <ele>937</ele>
        <time>2026-03-20T14:37:31.000Z</time>
      </trkpt>
      <trkpt lat="43.53186" lon="5.57764">
        <ele>936</ele>
        <time>2026-03-20T14:37:45.000Z</time>
      </trkpt>
      <trkpt lat="43.53186" lon="5.57751">
        <ele>934</ele>
        <time>2026-03-20T14:37:59.000Z</time>
      </trkpt>
      <trkpt lat="43.53185" lon="5.57736">
        <ele>933</ele>
        <time>2026-03-20T14:38:18.000Z</time>
      </trkpt>
      <trkpt lat="43.53187" lon="5.57724">
        <ele>931</ele>
        <time>2026-03-20T14:38:31.000Z</time>
      </trkpt>
      <trkpt lat="43.53191" lon="5.57713">
        <ele>929</ele>
        <time>2026-03-20T14:38:44.000Z</time>
      </trkpt>
      <trkpt lat="43.53195" lon="5.577">
        <ele>928</ele>
        <time>2026-03-20T14:38:59.000Z</time>
      </trkpt>
      <trkpt lat="43.53198" lon="5.57688">
        <ele>926</ele>
        <time>2026-03-20T14:39:09.000Z</time>
      </trkpt>
      <trkpt lat="43.532" lon="5.57675">
        <ele>925</ele>
        <time>2026-03-20T14:39:25.000Z</time>
      </trkpt>
      <trkpt lat="43.53204" lon="5.57662">
        <ele>924</ele>
        <time>2026-03-20T14:39:51.000Z</time>
      </trkpt>
      <trkpt lat="43.53208" lon="5.57651">
        <ele>922</ele>
        <time>2026-03-20T14:40:15.000Z</time>
      </trkpt>
      <trkpt lat="43.53211" lon="5.5764">
        <ele>920</ele>
        <time>2026-03-20T14:40:35.000Z</time>
      </trkpt>
      <trkpt lat="43.53215" lon="5.57629">
        <ele>919</ele>
        <time>2026-03-20T14:40:49.000Z</time>
      </trkpt>
      <trkpt lat="43.53216" lon="5.57617">
        <ele>918</ele>
        <time>2026-03-20T14:41:01.000Z</time>
      </trkpt>
      <trkpt lat="43.53221" lon="5.5761">
        <ele>917</ele>
        <time>2026-03-20T14:41:55.000Z</time>
      </trkpt>
      <trkpt lat="43.53225" lon="5.57619">
        <ele>916</ele>
        <time>2026-03-20T14:42:11.000Z</time>
      </trkpt>
      <trkpt lat="43.53225" lon="5.57633">
        <ele>915</ele>
        <time>2026-03-20T14:42:20.000Z</time>
      </trkpt>
      <trkpt lat="43.53228" lon="5.57646">
        <ele>914</ele>
        <time>2026-03-20T14:42:34.000Z</time>
      </trkpt>
      <trkpt lat="43.53229" lon="5.57659">
        <ele>914</ele>
        <time>2026-03-20T14:42:47.000Z</time>
      </trkpt>
      <trkpt lat="43.5323" lon="5.57672">
        <ele>914</ele>
        <time>2026-03-20T14:42:59.000Z</time>
      </trkpt>
      <trkpt lat="43.53231" lon="5.57685">
        <ele>913</ele>
        <time>2026-03-20T14:43:16.000Z</time>
      </trkpt>
      <trkpt lat="43.53231" lon="5.57698">
        <ele>913</ele>
        <time>2026-03-20T14:43:29.000Z</time>
      </trkpt>
      <trkpt lat="43.5323" lon="5.57711">
        <ele>913</ele>
        <time>2026-03-20T14:43:41.000Z</time>
      </trkpt>
      <trkpt lat="43.53229" lon="5.57724">
        <ele>912</ele>
        <time>2026-03-20T14:43:53.000Z</time>
      </trkpt>
      <trkpt lat="43.5323" lon="5.57736">
        <ele>911</ele>
        <time>2026-03-20T14:44:07.000Z</time>
      </trkpt>
      <trkpt lat="43.53233" lon="5.57748">
        <ele>910</ele>
        <time>2026-03-20T14:44:16.000Z</time>
      </trkpt>
      <trkpt lat="43.53237" lon="5.57759">
        <ele>909</ele>
        <time>2026-03-20T14:44:31.000Z</time>
      </trkpt>
      <trkpt lat="43.53241" lon="5.5777">
        <ele>907</ele>
        <time>2026-03-20T14:44:45.000Z</time>
      </trkpt>
      <trkpt lat="43.53244" lon="5.57782">
        <ele>906</ele>
        <time>2026-03-20T14:44:59.000Z</time>
      </trkpt>
      <trkpt lat="43.53246" lon="5.57794">
        <ele>904</ele>
        <time>2026-03-20T14:45:15.000Z</time>
      </trkpt>
      <trkpt lat="43.53247" lon="5.57806">
        <ele>902</ele>
        <time>2026-03-20T14:45:27.000Z</time>
      </trkpt>
      <trkpt lat="43.53248" lon="5.57816">
        <ele>900</ele>
        <time>2026-03-20T14:45:55.000Z</time>
      </trkpt>
      <trkpt lat="43.53253" lon="5.57808">
        <ele>898</ele>
        <time>2026-03-20T14:46:12.000Z</time>
      </trkpt>
      <trkpt lat="43.53257" lon="5.57797">
        <ele>897</ele>
        <time>2026-03-20T14:46:27.000Z</time>
      </trkpt>
      <trkpt lat="43.53261" lon="5.57785">
        <ele>895</ele>
        <time>2026-03-20T14:46:43.000Z</time>
      </trkpt>
      <trkpt lat="43.53264" lon="5.57773">
        <ele>894</ele>
        <time>2026-03-20T14:46:58.000Z</time>
      </trkpt>
      <trkpt lat="43.53267" lon="5.57761">
        <ele>893</ele>
        <time>2026-03-20T14:47:13.000Z</time>
      </trkpt>
      <trkpt lat="43.53269" lon="5.57753">
        <ele>891</ele>
        <time>2026-03-20T14:47:26.000Z</time>
      </trkpt>
      <trkpt lat="43.53271" lon="5.57762">
        <ele>889</ele>
        <time>2026-03-20T14:47:51.000Z</time>
      </trkpt>
      <trkpt lat="43.53272" lon="5.57776">
        <ele>887</ele>
        <time>2026-03-20T14:48:05.000Z</time>
      </trkpt>
      <trkpt lat="43.53274" lon="5.57786">
        <ele>885</ele>
        <time>2026-03-20T14:48:21.000Z</time>
      </trkpt>
      <trkpt lat="43.5328" lon="5.5778">
        <ele>884</ele>
        <time>2026-03-20T14:48:57.000Z</time>
      </trkpt>
      <trkpt lat="43.53283" lon="5.57768">
        <ele>882</ele>
        <time>2026-03-20T14:49:13.000Z</time>
      </trkpt>
      <trkpt lat="43.53288" lon="5.57758">
        <ele>881</ele>
        <time>2026-03-20T14:49:27.000Z</time>
      </trkpt>
      <trkpt lat="43.53292" lon="5.57747">
        <ele>880</ele>
        <time>2026-03-20T14:49:43.000Z</time>
      </trkpt>
      <trkpt lat="43.53296" lon="5.57735">
        <ele>879</ele>
        <time>2026-03-20T14:49:58.000Z</time>
      </trkpt>
      <trkpt lat="43.533" lon="5.57726">
        <ele>878</ele>
        <time>2026-03-20T14:50:17.000Z</time>
      </trkpt>
      <trkpt lat="43.53304" lon="5.57735">
        <ele>877</ele>
        <time>2026-03-20T14:50:58.000Z</time>
      </trkpt>
      <trkpt lat="43.53306" lon="5.57749">
        <ele>876</ele>
        <time>2026-03-20T14:51:10.000Z</time>
      </trkpt>
      <trkpt lat="43.53305" lon="5.57761">
        <ele>875</ele>
        <time>2026-03-20T14:51:21.000Z</time>
      </trkpt>
      <trkpt lat="43.53305" lon="5.57774">
        <ele>873</ele>
        <time>2026-03-20T14:51:33.000Z</time>
      </trkpt>
      <trkpt lat="43.53307" lon="5.57786">
        <ele>872</ele>
        <time>2026-03-20T14:51:47.000Z</time>
      </trkpt>
      <trkpt lat="43.53315" lon="5.57785">
        <ele>870</ele>
        <time>2026-03-20T14:52:03.000Z</time>
      </trkpt>
      <trkpt lat="43.5332" lon="5.57776">
        <ele>869</ele>
        <time>2026-03-20T14:52:18.000Z</time>
      </trkpt>
      <trkpt lat="43.53323" lon="5.57768">
        <ele>867</ele>
        <time>2026-03-20T14:52:32.000Z</time>
      </trkpt>
      <trkpt lat="43.53322" lon="5.57777">
        <ele>866</ele>
        <time>2026-03-20T14:52:54.000Z</time>
      </trkpt>
      <trkpt lat="43.53322" lon="5.57788">
        <ele>865</ele>
        <time>2026-03-20T14:53:07.000Z</time>
      </trkpt>
      <trkpt lat="43.53328" lon="5.57788">
        <ele>864</ele>
        <time>2026-03-20T14:53:29.000Z</time>
      </trkpt>
      <trkpt lat="43.53328" lon="5.57798">
        <ele>863</ele>
        <time>2026-03-20T14:53:51.000Z</time>
      </trkpt>
      <trkpt lat="43.53328" lon="5.57811">
        <ele>861</ele>
        <time>2026-03-20T14:54:07.000Z</time>
      </trkpt>
      <trkpt lat="43.53326" lon="5.57824">
        <ele>859</ele>
        <time>2026-03-20T14:54:21.000Z</time>
      </trkpt>
      <trkpt lat="43.53322" lon="5.57836">
        <ele>857</ele>
        <time>2026-03-20T14:54:32.000Z</time>
      </trkpt>
      <trkpt lat="43.53318" lon="5.57847">
        <ele>855</ele>
        <time>2026-03-20T14:54:43.000Z</time>
      </trkpt>
      <trkpt lat="43.53317" lon="5.57859">
        <ele>853</ele>
        <time>2026-03-20T14:54:53.000Z</time>
      </trkpt>
      <trkpt lat="43.53314" lon="5.57869">
        <ele>851</ele>
        <time>2026-03-20T14:55:07.000Z</time>
      </trkpt>
      <trkpt lat="43.53321" lon="5.57872">
        <ele>850</ele>
        <time>2026-03-20T14:55:35.000Z</time>
      </trkpt>
      <trkpt lat="43.53329" lon="5.57866">
        <ele>848</ele>
        <time>2026-03-20T14:55:53.000Z</time>
      </trkpt>
      <trkpt lat="43.53335" lon="5.57857">
        <ele>846</ele>
        <time>2026-03-20T14:56:07.000Z</time>
      </trkpt>
      <trkpt lat="43.53342" lon="5.57847">
        <ele>844</ele>
        <time>2026-03-20T14:56:23.000Z</time>
      </trkpt>
      <trkpt lat="43.53349" lon="5.57838">
        <ele>842</ele>
        <time>2026-03-20T14:56:39.000Z</time>
      </trkpt>
      <trkpt lat="43.53355" lon="5.57827">
        <ele>840</ele>
        <time>2026-03-20T14:56:55.000Z</time>
      </trkpt>
      <trkpt lat="43.53361" lon="5.57818">
        <ele>839</ele>
        <time>2026-03-20T14:57:07.000Z</time>
      </trkpt>
      <trkpt lat="43.53366" lon="5.57808">
        <ele>838</ele>
        <time>2026-03-20T14:57:17.000Z</time>
      </trkpt>
      <trkpt lat="43.53367" lon="5.57799">
        <ele>838</ele>
        <time>2026-03-20T14:57:36.000Z</time>
      </trkpt>
      <trkpt lat="43.53367" lon="5.5781">
        <ele>838</ele>
        <time>2026-03-20T14:57:59.000Z</time>
      </trkpt>
      <trkpt lat="43.53365" lon="5.57823">
        <ele>838</ele>
        <time>2026-03-20T14:58:08.000Z</time>
      </trkpt>
      <trkpt lat="43.53364" lon="5.57837">
        <ele>837</ele>
        <time>2026-03-20T14:58:19.000Z</time>
      </trkpt>
      <trkpt lat="43.53362" lon="5.5785">
        <ele>836</ele>
        <time>2026-03-20T14:58:29.000Z</time>
      </trkpt>
      <trkpt lat="43.5336" lon="5.57863">
        <ele>834</ele>
        <time>2026-03-20T14:58:41.000Z</time>
      </trkpt>
      <trkpt lat="43.53357" lon="5.57876">
        <ele>832</ele>
        <time>2026-03-20T14:58:53.000Z</time>
      </trkpt>
      <trkpt lat="43.53353" lon="5.57887">
        <ele>831</ele>
        <time>2026-03-20T14:59:07.000Z</time>
      </trkpt>
      <trkpt lat="43.53348" lon="5.57899">
        <ele>829</ele>
        <time>2026-03-20T14:59:17.000Z</time>
      </trkpt>
      <trkpt lat="43.53344" lon="5.57912">
        <ele>828</ele>
        <time>2026-03-20T14:59:35.000Z</time>
      </trkpt>
      <trkpt lat="43.53344" lon="5.57924">
        <ele>827</ele>
        <time>2026-03-20T14:59:45.000Z</time>
      </trkpt>
      <trkpt lat="43.53344" lon="5.57935">
        <ele>826</ele>
        <time>2026-03-20T14:59:59.000Z</time>
      </trkpt>
      <trkpt lat="43.53352" lon="5.57936">
        <ele>825</ele>
        <time>2026-03-20T15:00:11.000Z</time>
      </trkpt>
      <trkpt lat="43.53362" lon="5.57937">
        <ele>824</ele>
        <time>2026-03-20T15:00:25.000Z</time>
      </trkpt>
      <trkpt lat="43.53371" lon="5.57938">
        <ele>822</ele>
        <time>2026-03-20T15:00:35.000Z</time>
      </trkpt>
      <trkpt lat="43.5338" lon="5.57939">
        <ele>820</ele>
        <time>2026-03-20T15:00:47.000Z</time>
      </trkpt>
      <trkpt lat="43.53389" lon="5.5794">
        <ele>818</ele>
        <time>2026-03-20T15:00:58.000Z</time>
      </trkpt>
      <trkpt lat="43.53398" lon="5.5794">
        <ele>815</ele>
        <time>2026-03-20T15:01:13.000Z</time>
      </trkpt>
      <trkpt lat="43.53407" lon="5.57941">
        <ele>813</ele>
        <time>2026-03-20T15:01:23.000Z</time>
      </trkpt>
      <trkpt lat="43.53416" lon="5.57942">
        <ele>811</ele>
        <time>2026-03-20T15:01:33.000Z</time>
      </trkpt>
      <trkpt lat="43.53425" lon="5.57941">
        <ele>809</ele>
        <time>2026-03-20T15:01:45.000Z</time>
      </trkpt>
      <trkpt lat="43.53434" lon="5.57941">
        <ele>807</ele>
        <time>2026-03-20T15:01:59.000Z</time>
      </trkpt>
      <trkpt lat="43.53443" lon="5.5794">
        <ele>806</ele>
        <time>2026-03-20T15:02:11.000Z</time>
      </trkpt>
      <trkpt lat="43.53452" lon="5.5794">
        <ele>805</ele>
        <time>2026-03-20T15:02:27.000Z</time>
      </trkpt>
      <trkpt lat="43.53462" lon="5.57944">
        <ele>804</ele>
        <time>2026-03-20T15:02:36.000Z</time>
      </trkpt>
      <trkpt lat="43.53472" lon="5.57946">
        <ele>803</ele>
        <time>2026-03-20T15:02:49.000Z</time>
      </trkpt>
      <trkpt lat="43.53482" lon="5.57948">
        <ele>802</ele>
        <time>2026-03-20T15:03:07.000Z</time>
      </trkpt>
      <trkpt lat="43.53492" lon="5.5795">
        <ele>800</ele>
        <time>2026-03-20T15:03:18.000Z</time>
      </trkpt>
      <trkpt lat="43.53501" lon="5.57952">
        <ele>799</ele>
        <time>2026-03-20T15:03:31.000Z</time>
      </trkpt>
      <trkpt lat="43.5351" lon="5.57953">
        <ele>797</ele>
        <time>2026-03-20T15:03:41.000Z</time>
      </trkpt>
      <trkpt lat="43.5352" lon="5.57952">
        <ele>795</ele>
        <time>2026-03-20T15:03:48.000Z</time>
      </trkpt>
      <trkpt lat="43.53528" lon="5.57947">
        <ele>793</ele>
        <time>2026-03-20T15:04:03.000Z</time>
      </trkpt>
      <trkpt lat="43.53535" lon="5.5794">
        <ele>791</ele>
        <time>2026-03-20T15:04:31.000Z</time>
      </trkpt>
      <trkpt lat="43.53542" lon="5.57933">
        <ele>789</ele>
        <time>2026-03-20T15:04:39.000Z</time>
      </trkpt>
      <trkpt lat="43.5355" lon="5.5793">
        <ele>787</ele>
        <time>2026-03-20T15:04:50.000Z</time>
      </trkpt>
      <trkpt lat="43.5356" lon="5.57932">
        <ele>784</ele>
        <time>2026-03-20T15:05:03.000Z</time>
      </trkpt>
      <trkpt lat="43.5357" lon="5.57932">
        <ele>782</ele>
        <time>2026-03-20T15:05:25.000Z</time>
      </trkpt>
      <trkpt lat="43.53579" lon="5.57933">
        <ele>781</ele>
        <time>2026-03-20T15:05:37.000Z</time>
      </trkpt>
      <trkpt lat="43.53587" lon="5.57927">
        <ele>779</ele>
        <time>2026-03-20T15:06:06.000Z</time>
      </trkpt>
      <trkpt lat="43.53597" lon="5.57928">
        <ele>778</ele>
        <time>2026-03-20T15:06:21.000Z</time>
      </trkpt>
      <trkpt lat="43.53605" lon="5.57925">
        <ele>776</ele>
        <time>2026-03-20T15:08:23.000Z</time>
      </trkpt>
      <trkpt lat="43.53612" lon="5.57919">
        <ele>774</ele>
        <time>2026-03-20T15:14:19.000Z</time>
      </trkpt>
      <trkpt lat="43.53618" lon="5.57926">
        <ele>772</ele>
        <time>2026-03-20T15:14:37.000Z</time>
      </trkpt>
      <trkpt lat="43.53622" lon="5.57936">
        <ele>770</ele>
        <time>2026-03-20T15:14:49.000Z</time>
      </trkpt>
      <trkpt lat="43.53628" lon="5.57946">
        <ele>769</ele>
        <time>2026-03-20T15:14:59.000Z</time>
      </trkpt>
      <trkpt lat="43.53636" lon="5.57949">
        <ele>767</ele>
        <time>2026-03-20T15:15:11.000Z</time>
      </trkpt>
      <trkpt lat="43.53644" lon="5.57945">
        <ele>766</ele>
        <time>2026-03-20T15:15:21.000Z</time>
      </trkpt>
      <trkpt lat="43.53651" lon="5.57936">
        <ele>764</ele>
        <time>2026-03-20T15:15:31.000Z</time>
      </trkpt>
      <trkpt lat="43.53658" lon="5.57927">
        <ele>762</ele>
        <time>2026-03-20T15:15:45.000Z</time>
      </trkpt>
      <trkpt lat="43.53665" lon="5.57921">
        <ele>759</ele>
        <time>2026-03-20T15:15:57.000Z</time>
      </trkpt>
      <trkpt lat="43.53671" lon="5.57912">
        <ele>757</ele>
        <time>2026-03-20T15:16:11.000Z</time>
      </trkpt>
      <trkpt lat="43.53678" lon="5.57905">
        <ele>755</ele>
        <time>2026-03-20T15:16:25.000Z</time>
      </trkpt>
      <trkpt lat="43.53686" lon="5.57899">
        <ele>752</ele>
        <time>2026-03-20T15:16:43.000Z</time>
      </trkpt>
      <trkpt lat="43.53695" lon="5.57894">
        <ele>750</ele>
        <time>2026-03-20T15:16:57.000Z</time>
      </trkpt>
      <trkpt lat="43.53704" lon="5.5789">
        <ele>747</ele>
        <time>2026-03-20T15:17:13.000Z</time>
      </trkpt>
      <trkpt lat="43.53713" lon="5.57886">
        <ele>745</ele>
        <time>2026-03-20T15:17:21.000Z</time>
      </trkpt>
      <trkpt lat="43.53721" lon="5.57881">
        <ele>743</ele>
        <time>2026-03-20T15:17:33.000Z</time>
      </trkpt>
      <trkpt lat="43.53729" lon="5.57873">
        <ele>742</ele>
        <time>2026-03-20T15:17:47.000Z</time>
      </trkpt>
      <trkpt lat="43.53738" lon="5.57866">
        <ele>740</ele>
        <time>2026-03-20T15:17:59.000Z</time>
      </trkpt>
      <trkpt lat="43.53746" lon="5.57859">
        <ele>739</ele>
        <time>2026-03-20T15:18:09.000Z</time>
      </trkpt>
      <trkpt lat="43.53752" lon="5.5785">
        <ele>738</ele>
        <time>2026-03-20T15:18:17.000Z</time>
      </trkpt>
      <trkpt lat="43.53758" lon="5.5784">
        <ele>737</ele>
        <time>2026-03-20T15:18:25.000Z</time>
      </trkpt>
      <trkpt lat="43.53764" lon="5.5783">
        <ele>736</ele>
        <time>2026-03-20T15:18:34.000Z</time>
      </trkpt>
      <trkpt lat="43.5377" lon="5.57821">
        <ele>736</ele>
        <time>2026-03-20T15:18:45.000Z</time>
      </trkpt>
      <trkpt lat="43.53778" lon="5.57813">
        <ele>735</ele>
        <time>2026-03-20T15:18:55.000Z</time>
      </trkpt>
      <trkpt lat="43.53786" lon="5.57806">
        <ele>735</ele>
        <time>2026-03-20T15:19:07.000Z</time>
      </trkpt>
      <trkpt lat="43.53795" lon="5.578">
        <ele>734</ele>
        <time>2026-03-20T15:19:17.000Z</time>
      </trkpt>
      <trkpt lat="43.53803" lon="5.57795">
        <ele>733</ele>
        <time>2026-03-20T15:19:29.000Z</time>
      </trkpt>
      <trkpt lat="43.53813" lon="5.57793">
        <ele>731</ele>
        <time>2026-03-20T15:19:41.000Z</time>
      </trkpt>
      <trkpt lat="43.53822" lon="5.5779">
        <ele>730</ele>
        <time>2026-03-20T15:19:51.000Z</time>
      </trkpt>
      <trkpt lat="43.5383" lon="5.57785">
        <ele>728</ele>
        <time>2026-03-20T15:20:01.000Z</time>
      </trkpt>
      <trkpt lat="43.53838" lon="5.57781">
        <ele>726</ele>
        <time>2026-03-20T15:20:11.000Z</time>
      </trkpt>
      <trkpt lat="43.53847" lon="5.57777">
        <ele>724</ele>
        <time>2026-03-20T15:20:23.000Z</time>
      </trkpt>
      <trkpt lat="43.53856" lon="5.57772">
        <ele>722</ele>
        <time>2026-03-20T15:20:33.000Z</time>
      </trkpt>
      <trkpt lat="43.53864" lon="5.57765">
        <ele>720</ele>
        <time>2026-03-20T15:20:45.000Z</time>
      </trkpt>
      <trkpt lat="43.53873" lon="5.57762">
        <ele>718</ele>
        <time>2026-03-20T15:20:55.000Z</time>
      </trkpt>
      <trkpt lat="43.53883" lon="5.57759">
        <ele>716</ele>
        <time>2026-03-20T15:21:11.000Z</time>
      </trkpt>
      <trkpt lat="43.53892" lon="5.57757">
        <ele>713</ele>
        <time>2026-03-20T15:21:22.000Z</time>
      </trkpt>
      <trkpt lat="43.539" lon="5.57752">
        <ele>711</ele>
        <time>2026-03-20T15:21:33.000Z</time>
      </trkpt>
      <trkpt lat="43.5391" lon="5.57749">
        <ele>708</ele>
        <time>2026-03-20T15:21:42.000Z</time>
      </trkpt>
      <trkpt lat="43.53919" lon="5.57745">
        <ele>706</ele>
        <time>2026-03-20T15:21:55.000Z</time>
      </trkpt>
      <trkpt lat="43.53927" lon="5.57743">
        <ele>703</ele>
        <time>2026-03-20T15:22:09.000Z</time>
      </trkpt>
      <trkpt lat="43.53936" lon="5.57742">
        <ele>701</ele>
        <time>2026-03-20T15:22:23.000Z</time>
      </trkpt>
      <trkpt lat="43.53946" lon="5.57741">
        <ele>699</ele>
        <time>2026-03-20T15:22:33.000Z</time>
      </trkpt>
      <trkpt lat="43.53954" lon="5.57742">
        <ele>697</ele>
        <time>2026-03-20T15:22:43.000Z</time>
      </trkpt>
      <trkpt lat="43.53963" lon="5.57737">
        <ele>695</ele>
        <time>2026-03-20T15:22:53.000Z</time>
      </trkpt>
      <trkpt lat="43.53972" lon="5.57731">
        <ele>694</ele>
        <time>2026-03-20T15:23:04.000Z</time>
      </trkpt>
      <trkpt lat="43.53981" lon="5.57726">
        <ele>692</ele>
        <time>2026-03-20T15:23:19.000Z</time>
      </trkpt>
      <trkpt lat="43.5399" lon="5.57722">
        <ele>691</ele>
        <time>2026-03-20T15:23:26.000Z</time>
      </trkpt>
      <trkpt lat="43.54" lon="5.57718">
        <ele>690</ele>
        <time>2026-03-20T15:23:39.000Z</time>
      </trkpt>
      <trkpt lat="43.54009" lon="5.57717">
        <ele>689</ele>
        <time>2026-03-20T15:23:49.000Z</time>
      </trkpt>
      <trkpt lat="43.54018" lon="5.57715">
        <ele>689</ele>
        <time>2026-03-20T15:23:57.000Z</time>
      </trkpt>
      <trkpt lat="43.54028" lon="5.57715">
        <ele>688</ele>
        <time>2026-03-20T15:24:09.000Z</time>
      </trkpt>
      <trkpt lat="43.54039" lon="5.57714">
        <ele>687</ele>
        <time>2026-03-20T15:24:19.000Z</time>
      </trkpt>
      <trkpt lat="43.54048" lon="5.57716">
        <ele>686</ele>
        <time>2026-03-20T15:24:27.000Z</time>
      </trkpt>
      <trkpt lat="43.54057" lon="5.57713">
        <ele>685</ele>
        <time>2026-03-20T15:24:37.000Z</time>
      </trkpt>
      <trkpt lat="43.54067" lon="5.57711">
        <ele>684</ele>
        <time>2026-03-20T15:24:51.000Z</time>
      </trkpt>
      <trkpt lat="43.54076" lon="5.57711">
        <ele>682</ele>
        <time>2026-03-20T15:25:01.000Z</time>
      </trkpt>
      <trkpt lat="43.54085" lon="5.57709">
        <ele>679</ele>
        <time>2026-03-20T15:25:08.000Z</time>
      </trkpt>
      <trkpt lat="43.54094" lon="5.57706">
        <ele>677</ele>
        <time>2026-03-20T15:25:19.000Z</time>
      </trkpt>
      <trkpt lat="43.54103" lon="5.57703">
        <ele>674</ele>
        <time>2026-03-20T15:25:29.000Z</time>
      </trkpt>
      <trkpt lat="43.54112" lon="5.57697">
        <ele>671</ele>
        <time>2026-03-20T15:25:45.000Z</time>
      </trkpt>
      <trkpt lat="43.5412" lon="5.57693">
        <ele>667</ele>
        <time>2026-03-20T15:25:55.000Z</time>
      </trkpt>
      <trkpt lat="43.54129" lon="5.57689">
        <ele>664</ele>
        <time>2026-03-20T15:26:09.000Z</time>
      </trkpt>
      <trkpt lat="43.54138" lon="5.57689">
        <ele>662</ele>
        <time>2026-03-20T15:26:21.000Z</time>
      </trkpt>
      <trkpt lat="43.54147" lon="5.57692">
        <ele>659</ele>
        <time>2026-03-20T15:26:33.000Z</time>
      </trkpt>
      <trkpt lat="43.5415" lon="5.57702">
        <ele>658</ele>
        <time>2026-03-20T15:26:51.000Z</time>
      </trkpt>
      <trkpt lat="43.54157" lon="5.57711">
        <ele>656</ele>
        <time>2026-03-20T15:27:05.000Z</time>
      </trkpt>
      <trkpt lat="43.54166" lon="5.57711">
        <ele>654</ele>
        <time>2026-03-20T15:27:15.000Z</time>
      </trkpt>
      <trkpt lat="43.54175" lon="5.57709">
        <ele>651</ele>
        <time>2026-03-20T15:27:25.000Z</time>
      </trkpt>
      <trkpt lat="43.54183" lon="5.57705">
        <ele>649</ele>
        <time>2026-03-20T15:27:34.000Z</time>
      </trkpt>
      <trkpt lat="43.5419" lon="5.57697">
        <ele>646</ele>
        <time>2026-03-20T15:27:47.000Z</time>
      </trkpt>
      <trkpt lat="43.54194" lon="5.57687">
        <ele>643</ele>
        <time>2026-03-20T15:27:57.000Z</time>
      </trkpt>
      <trkpt lat="43.54198" lon="5.57675">
        <ele>639</ele>
        <time>2026-03-20T15:28:13.000Z</time>
      </trkpt>
      <trkpt lat="43.54203" lon="5.57665">
        <ele>636</ele>
        <time>2026-03-20T15:28:23.000Z</time>
      </trkpt>
      <trkpt lat="43.5421" lon="5.57659">
        <ele>632</ele>
        <time>2026-03-20T15:28:35.000Z</time>
      </trkpt>
      <trkpt lat="43.54218" lon="5.57664">
        <ele>630</ele>
        <time>2026-03-20T15:29:52.000Z</time>
      </trkpt>
      <trkpt lat="43.54226" lon="5.57669">
        <ele>627</ele>
        <time>2026-03-20T15:30:07.000Z</time>
      </trkpt>
      <trkpt lat="43.54234" lon="5.57673">
        <ele>624</ele>
        <time>2026-03-20T15:30:17.000Z</time>
      </trkpt>
      <trkpt lat="43.54238" lon="5.57683">
        <ele>622</ele>
        <time>2026-03-20T15:30:30.000Z</time>
      </trkpt>
      <trkpt lat="43.54245" lon="5.57692">
        <ele>620</ele>
        <time>2026-03-20T15:30:42.000Z</time>
      </trkpt>
      <trkpt lat="43.54251" lon="5.57702">
        <ele>618</ele>
        <time>2026-03-20T15:30:56.000Z</time>
      </trkpt>
      <trkpt lat="43.54258" lon="5.5771">
        <ele>616</ele>
        <time>2026-03-20T15:31:08.000Z</time>
      </trkpt>
      <trkpt lat="43.54267" lon="5.57709">
        <ele>614</ele>
        <time>2026-03-20T15:31:21.000Z</time>
      </trkpt>
      <trkpt lat="43.54275" lon="5.57704">
        <ele>611</ele>
        <time>2026-03-20T15:31:35.000Z</time>
      </trkpt>
      <trkpt lat="43.54283" lon="5.57696">
        <ele>608</ele>
        <time>2026-03-20T15:31:45.000Z</time>
      </trkpt>
      <trkpt lat="43.54289" lon="5.57694">
        <ele>606</ele>
        <time>2026-03-20T15:32:01.000Z</time>
      </trkpt>
      <trkpt lat="43.54288" lon="5.57704">
        <ele>604</ele>
        <time>2026-03-20T15:32:19.000Z</time>
      </trkpt>
      <trkpt lat="43.54289" lon="5.57716">
        <ele>602</ele>
        <time>2026-03-20T15:32:31.000Z</time>
      </trkpt>
      <trkpt lat="43.54291" lon="5.57729">
        <ele>601</ele>
        <time>2026-03-20T15:32:43.000Z</time>
      </trkpt>
      <trkpt lat="43.54291" lon="5.57742">
        <ele>599</ele>
        <time>2026-03-20T15:32:55.000Z</time>
      </trkpt>
      <trkpt lat="43.5429" lon="5.57755">
        <ele>598</ele>
        <time>2026-03-20T15:33:09.000Z</time>
      </trkpt>
      <trkpt lat="43.54292" lon="5.57766">
        <ele>596</ele>
        <time>2026-03-20T15:33:17.000Z</time>
      </trkpt>
      <trkpt lat="43.54291" lon="5.57778">
        <ele>594</ele>
        <time>2026-03-20T15:33:27.000Z</time>
      </trkpt>
      <trkpt lat="43.54286" lon="5.57786">
        <ele>592</ele>
        <time>2026-03-20T15:33:36.000Z</time>
      </trkpt>
      <trkpt lat="43.54283" lon="5.57798">
        <ele>590</ele>
        <time>2026-03-20T15:33:47.000Z</time>
      </trkpt>
      <trkpt lat="43.54283" lon="5.57809">
        <ele>588</ele>
        <time>2026-03-20T15:33:57.000Z</time>
      </trkpt>
      <trkpt lat="43.5429" lon="5.57815">
        <ele>586</ele>
        <time>2026-03-20T15:34:12.000Z</time>
      </trkpt>
      <trkpt lat="43.543" lon="5.57815">
        <ele>585</ele>
        <time>2026-03-20T15:34:25.000Z</time>
      </trkpt>
      <trkpt lat="43.54309" lon="5.57814">
        <ele>583</ele>
        <time>2026-03-20T15:34:37.000Z</time>
      </trkpt>
      <trkpt lat="43.54318" lon="5.57811">
        <ele>582</ele>
        <time>2026-03-20T15:34:49.000Z</time>
      </trkpt>
      <trkpt lat="43.54326" lon="5.57808">
        <ele>580</ele>
        <time>2026-03-20T15:35:00.000Z</time>
      </trkpt>
      <trkpt lat="43.54335" lon="5.57802">
        <ele>579</ele>
        <time>2026-03-20T15:35:17.000Z</time>
      </trkpt>
      <trkpt lat="43.54343" lon="5.57797">
        <ele>577</ele>
        <time>2026-03-20T15:35:24.000Z</time>
      </trkpt>
      <trkpt lat="43.54352" lon="5.57793">
        <ele>575</ele>
        <time>2026-03-20T15:35:41.000Z</time>
      </trkpt>
      <trkpt lat="43.54362" lon="5.57791">
        <ele>573</ele>
        <time>2026-03-20T15:35:51.000Z</time>
      </trkpt>
      <trkpt lat="43.54371" lon="5.5779">
        <ele>571</ele>
        <time>2026-03-20T15:36:01.000Z</time>
      </trkpt>
      <trkpt lat="43.54379" lon="5.57784">
        <ele>569</ele>
        <time>2026-03-20T15:36:17.000Z</time>
      </trkpt>
      <trkpt lat="43.54387" lon="5.57781">
        <ele>568</ele>
        <time>2026-03-20T15:36:33.000Z</time>
      </trkpt>
      <trkpt lat="43.54397" lon="5.57779">
        <ele>566</ele>
        <time>2026-03-20T15:36:45.000Z</time>
      </trkpt>
      <trkpt lat="43.54406" lon="5.57776">
        <ele>564</ele>
        <time>2026-03-20T15:37:03.000Z</time>
      </trkpt>
      <trkpt lat="43.54415" lon="5.57772">
        <ele>562</ele>
        <time>2026-03-20T15:37:11.000Z</time>
      </trkpt>
      <trkpt lat="43.54424" lon="5.57766">
        <ele>561</ele>
        <time>2026-03-20T15:37:25.000Z</time>
      </trkpt>
      <trkpt lat="43.54433" lon="5.57763">
        <ele>559</ele>
        <time>2026-03-20T15:37:37.000Z</time>
      </trkpt>
      <trkpt lat="43.5444" lon="5.57756">
        <ele>558</ele>
        <time>2026-03-20T15:37:49.000Z</time>
      </trkpt>
      <trkpt lat="43.54448" lon="5.57748">
        <ele>556</ele>
        <time>2026-03-20T15:37:59.000Z</time>
      </trkpt>
      <trkpt lat="43.54457" lon="5.57743">
        <ele>554</ele>
        <time>2026-03-20T15:38:11.000Z</time>
      </trkpt>
      <trkpt lat="43.54465" lon="5.57746">
        <ele>552</ele>
        <time>2026-03-20T15:38:29.000Z</time>
      </trkpt>
      <trkpt lat="43.54474" lon="5.57746">
        <ele>549</ele>
        <time>2026-03-20T15:38:41.000Z</time>
      </trkpt>
      <trkpt lat="43.54482" lon="5.57742">
        <ele>547</ele>
        <time>2026-03-20T15:38:51.000Z</time>
      </trkpt>
      <trkpt lat="43.5449" lon="5.57736">
        <ele>544</ele>
        <time>2026-03-20T15:39:03.000Z</time>
      </trkpt>
      <trkpt lat="43.54499" lon="5.57731">
        <ele>542</ele>
        <time>2026-03-20T15:39:17.000Z</time>
      </trkpt>
      <trkpt lat="43.54508" lon="5.57726">
        <ele>540</ele>
        <time>2026-03-20T15:39:29.000Z</time>
      </trkpt>
      <trkpt lat="43.54516" lon="5.57731">
        <ele>538</ele>
        <time>2026-03-20T15:39:41.000Z</time>
      </trkpt>
      <trkpt lat="43.54524" lon="5.57738">
        <ele>537</ele>
        <time>2026-03-20T15:39:53.000Z</time>
      </trkpt>
      <trkpt lat="43.54533" lon="5.57741">
        <ele>535</ele>
        <time>2026-03-20T15:40:05.000Z</time>
      </trkpt>
      <trkpt lat="43.54543" lon="5.57743">
        <ele>534</ele>
        <time>2026-03-20T15:40:15.000Z</time>
      </trkpt>
      <trkpt lat="43.54551" lon="5.57744">
        <ele>533</ele>
        <time>2026-03-20T15:40:26.000Z</time>
      </trkpt>
      <trkpt lat="43.54561" lon="5.57746">
        <ele>532</ele>
        <time>2026-03-20T15:40:39.000Z</time>
      </trkpt>
      <trkpt lat="43.54569" lon="5.57744">
        <ele>530</ele>
        <time>2026-03-20T15:40:49.000Z</time>
      </trkpt>
      <trkpt lat="43.54578" lon="5.57741">
        <ele>529</ele>
        <time>2026-03-20T15:40:59.000Z</time>
      </trkpt>
      <trkpt lat="43.54587" lon="5.57738">
        <ele>528</ele>
        <time>2026-03-20T15:41:13.000Z</time>
      </trkpt>
      <trkpt lat="43.54596" lon="5.5774">
        <ele>527</ele>
        <time>2026-03-20T15:41:25.000Z</time>
      </trkpt>
      <trkpt lat="43.54605" lon="5.5774">
        <ele>525</ele>
        <time>2026-03-20T15:41:36.000Z</time>
      </trkpt>
      <trkpt lat="43.54614" lon="5.57737">
        <ele>524</ele>
        <time>2026-03-20T15:41:47.000Z</time>
      </trkpt>
      <trkpt lat="43.54622" lon="5.5773">
        <ele>522</ele>
        <time>2026-03-20T15:41:57.000Z</time>
      </trkpt>
      <trkpt lat="43.5463" lon="5.57725">
        <ele>520</ele>
        <time>2026-03-20T15:42:09.000Z</time>
      </trkpt>
      <trkpt lat="43.54639" lon="5.57724">
        <ele>519</ele>
        <time>2026-03-20T15:42:21.000Z</time>
      </trkpt>
      <trkpt lat="43.54648" lon="5.57718">
        <ele>517</ele>
        <time>2026-03-20T15:42:33.000Z</time>
      </trkpt>
      <trkpt lat="43.54656" lon="5.57711">
        <ele>516</ele>
        <time>2026-03-20T15:42:43.000Z</time>
      </trkpt>
      <trkpt lat="43.54665" lon="5.57706">
        <ele>514</ele>
        <time>2026-03-20T15:42:57.000Z</time>
      </trkpt>
      <trkpt lat="43.54675" lon="5.57707">
        <ele>513</ele>
        <time>2026-03-20T15:43:09.000Z</time>
      </trkpt>
      <trkpt lat="43.54685" lon="5.57705">
        <ele>511</ele>
        <time>2026-03-20T15:43:23.000Z</time>
      </trkpt>
      <trkpt lat="43.54694" lon="5.577">
        <ele>510</ele>
        <time>2026-03-20T15:43:35.000Z</time>
      </trkpt>
      <trkpt lat="43.54703" lon="5.57693">
        <ele>508</ele>
        <time>2026-03-20T15:43:45.000Z</time>
      </trkpt>
      <trkpt lat="43.54712" lon="5.57687">
        <ele>506</ele>
        <time>2026-03-20T15:43:56.000Z</time>
      </trkpt>
      <trkpt lat="43.5472" lon="5.57692">
        <ele>504</ele>
        <time>2026-03-20T15:44:09.000Z</time>
      </trkpt>
      <trkpt lat="43.54728" lon="5.577">
        <ele>503</ele>
        <time>2026-03-20T15:44:20.000Z</time>
      </trkpt>
      <trkpt lat="43.54735" lon="5.57707">
        <ele>501</ele>
        <time>2026-03-20T15:44:33.000Z</time>
      </trkpt>
      <trkpt lat="43.54744" lon="5.57714">
        <ele>500</ele>
        <time>2026-03-20T15:44:44.000Z</time>
      </trkpt>
      <trkpt lat="43.54751" lon="5.57723">
        <ele>499</ele>
        <time>2026-03-20T15:44:55.000Z</time>
      </trkpt>
      <trkpt lat="43.54753" lon="5.57735">
        <ele>498</ele>
        <time>2026-03-20T15:45:05.000Z</time>
      </trkpt>
      <trkpt lat="43.54751" lon="5.57748">
        <ele>498</ele>
        <time>2026-03-20T15:45:15.000Z</time>
      </trkpt>
      <trkpt lat="43.54749" lon="5.5776">
        <ele>499</ele>
        <time>2026-03-20T15:45:25.000Z</time>
      </trkpt>
      <trkpt lat="43.54747" lon="5.57772">
        <ele>499</ele>
        <time>2026-03-20T15:45:35.000Z</time>
      </trkpt>
      <trkpt lat="43.54745" lon="5.57785">
        <ele>499</ele>
        <time>2026-03-20T15:45:45.000Z</time>
      </trkpt>
      <trkpt lat="43.54742" lon="5.57796">
        <ele>499</ele>
        <time>2026-03-20T15:45:54.000Z</time>
      </trkpt>
      <trkpt lat="43.54741" lon="5.57808">
        <ele>497</ele>
        <time>2026-03-20T15:46:05.000Z</time>
      </trkpt>
      <trkpt lat="43.54744" lon="5.57821">
        <ele>497</ele>
        <time>2026-03-20T15:46:15.000Z</time>
      </trkpt>
      <trkpt lat="43.5475" lon="5.57831">
        <ele>496</ele>
        <time>2026-03-20T15:46:21.000Z</time>
      </trkpt>
      <trkpt lat="43.54755" lon="5.57841">
        <ele>495</ele>
        <time>2026-03-20T15:46:27.000Z</time>
      </trkpt>
      <trkpt lat="43.54757" lon="5.57853">
        <ele>495</ele>
        <time>2026-03-20T15:46:39.000Z</time>
      </trkpt>
      <trkpt lat="43.54759" lon="5.57866">
        <ele>494</ele>
        <time>2026-03-20T15:46:48.000Z</time>
      </trkpt>
      <trkpt lat="43.54757" lon="5.57878">
        <ele>493</ele>
        <time>2026-03-20T15:46:57.000Z</time>
      </trkpt>
      <trkpt lat="43.54752" lon="5.57889">
        <ele>493</ele>
        <time>2026-03-20T15:47:05.000Z</time>
      </trkpt>
      <trkpt lat="43.5475" lon="5.57902">
        <ele>493</ele>
        <time>2026-03-20T15:47:14.000Z</time>
      </trkpt>
      <trkpt lat="43.54749" lon="5.57915">
        <ele>493</ele>
        <time>2026-03-20T15:47:25.000Z</time>
      </trkpt>
      <trkpt lat="43.54749" lon="5.57927">
        <ele>494</ele>
        <time>2026-03-20T15:47:33.000Z</time>
      </trkpt>
      <trkpt lat="43.54749" lon="5.57941">
        <ele>494</ele>
        <time>2026-03-20T15:47:43.000Z</time>
      </trkpt>
      <trkpt lat="43.54752" lon="5.57952">
        <ele>494</ele>
        <time>2026-03-20T15:47:51.000Z</time>
      </trkpt>
      <trkpt lat="43.54759" lon="5.57961">
        <ele>494</ele>
        <time>2026-03-20T15:48:01.000Z</time>
      </trkpt>
      <trkpt lat="43.54767" lon="5.57969">
        <ele>494</ele>
        <time>2026-03-20T15:48:09.000Z</time>
      </trkpt>
      <trkpt lat="43.54776" lon="5.57975">
        <ele>495</ele>
        <time>2026-03-20T15:48:17.000Z</time>
      </trkpt>
      <trkpt lat="43.54786" lon="5.57978">
        <ele>496</ele>
        <time>2026-03-20T15:48:24.000Z</time>
      </trkpt>
      <trkpt lat="43.54796" lon="5.57974">
        <ele>496</ele>
        <time>2026-03-20T15:48:33.000Z</time>
      </trkpt>
      <trkpt lat="43.54806" lon="5.57972">
        <ele>496</ele>
        <time>2026-03-20T15:48:45.000Z</time>
      </trkpt>
      <trkpt lat="43.54816" lon="5.57971">
        <ele>496</ele>
        <time>2026-03-20T15:48:53.000Z</time>
      </trkpt>
      <trkpt lat="43.54827" lon="5.57971">
        <ele>495</ele>
        <time>2026-03-20T15:49:03.000Z</time>
      </trkpt>
      <trkpt lat="43.54836" lon="5.57968">
        <ele>495</ele>
        <time>2026-03-20T15:49:09.000Z</time>
      </trkpt>
      <trkpt lat="43.54845" lon="5.57963">
        <ele>495</ele>
        <time>2026-03-20T15:49:19.000Z</time>
      </trkpt>
      <trkpt lat="43.54854" lon="5.57956">
        <ele>495</ele>
        <time>2026-03-20T15:49:29.000Z</time>
      </trkpt>
      <trkpt lat="43.54863" lon="5.57952">
        <ele>495</ele>
        <time>2026-03-20T15:49:39.000Z</time>
      </trkpt>
      <trkpt lat="43.54872" lon="5.57954">
        <ele>494</ele>
        <time>2026-03-20T15:49:49.000Z</time>
      </trkpt>
      <trkpt lat="43.54881" lon="5.57957">
        <ele>493</ele>
        <time>2026-03-20T15:50:01.000Z</time>
      </trkpt>
      <trkpt lat="43.5489" lon="5.57958">
        <ele>492</ele>
        <time>2026-03-20T15:50:10.000Z</time>
      </trkpt>
      <trkpt lat="43.54899" lon="5.57957">
        <ele>490</ele>
        <time>2026-03-20T15:50:20.000Z</time>
      </trkpt>
      <trkpt lat="43.54908" lon="5.5796">
        <ele>489</ele>
        <time>2026-03-20T15:50:35.000Z</time>
      </trkpt>
      <trkpt lat="43.54915" lon="5.57968">
        <ele>487</ele>
        <time>2026-03-20T15:50:49.000Z</time>
      </trkpt>
      <trkpt lat="43.54919" lon="5.57979">
        <ele>486</ele>
        <time>2026-03-20T15:51:01.000Z</time>
      </trkpt>
      <trkpt lat="43.54924" lon="5.57991">
        <ele>484</ele>
        <time>2026-03-20T15:51:15.000Z</time>
      </trkpt>
      <trkpt lat="43.54929" lon="5.58003">
        <ele>482</ele>
        <time>2026-03-20T15:51:25.000Z</time>
      </trkpt>
      <trkpt lat="43.54933" lon="5.58015">
        <ele>480</ele>
        <time>2026-03-20T15:51:40.000Z</time>
      </trkpt>
      <trkpt lat="43.54938" lon="5.58026">
        <ele>478</ele>
        <time>2026-03-20T15:51:54.000Z</time>
      </trkpt>
      <trkpt lat="43.54943" lon="5.58036">
        <ele>476</ele>
        <time>2026-03-20T15:52:13.000Z</time>
      </trkpt>
      <trkpt lat="43.54948" lon="5.58048">
        <ele>474</ele>
        <time>2026-03-20T15:52:35.000Z</time>
      </trkpt>
      <trkpt lat="43.54954" lon="5.58058">
        <ele>471</ele>
        <time>2026-03-20T15:52:47.000Z</time>
      </trkpt>
      <trkpt lat="43.54959" lon="5.58069">
        <ele>469</ele>
        <time>2026-03-20T15:53:03.000Z</time>
      </trkpt>
      <trkpt lat="43.54964" lon="5.58082">
        <ele>467</ele>
        <time>2026-03-20T15:53:15.000Z</time>
      </trkpt>
      <trkpt lat="43.54964" lon="5.58095">
        <ele>465</ele>
        <time>2026-03-20T15:53:39.000Z</time>
      </trkpt>
      <trkpt lat="43.54965" lon="5.58107">
        <ele>463</ele>
        <time>2026-03-20T15:53:55.000Z</time>
      </trkpt>
      <trkpt lat="43.54967" lon="5.5812">
        <ele>461</ele>
        <time>2026-03-20T15:54:11.000Z</time>
      </trkpt>
      <trkpt lat="43.54969" lon="5.58134">
        <ele>460</ele>
        <time>2026-03-20T15:54:31.000Z</time>
      </trkpt>
      <trkpt lat="43.54972" lon="5.58147">
        <ele>458</ele>
        <time>2026-03-20T15:54:41.000Z</time>
      </trkpt>
      <trkpt lat="43.54974" lon="5.58159">
        <ele>456</ele>
        <time>2026-03-20T15:54:53.000Z</time>
      </trkpt>
      <trkpt lat="43.54977" lon="5.5817">
        <ele>453</ele>
        <time>2026-03-20T15:55:11.000Z</time>
      </trkpt>
      <trkpt lat="43.54983" lon="5.58179">
        <ele>451</ele>
        <time>2026-03-20T15:55:21.000Z</time>
      </trkpt>
      <trkpt lat="43.54991" lon="5.58186">
        <ele>448</ele>
        <time>2026-03-20T15:55:37.000Z</time>
      </trkpt>
      <trkpt lat="43.54999" lon="5.58194">
        <ele>446</ele>
        <time>2026-03-20T15:55:51.000Z</time>
      </trkpt>
      <trkpt lat="43.55007" lon="5.582">
        <ele>444</ele>
        <time>2026-03-20T15:56:05.000Z</time>
      </trkpt>
      <trkpt lat="43.55016" lon="5.582">
        <ele>441</ele>
        <time>2026-03-20T15:56:13.000Z</time>
      </trkpt>
      <trkpt lat="43.55024" lon="5.58194">
        <ele>439</ele>
        <time>2026-03-20T15:56:25.000Z</time>
      </trkpt>
      <trkpt lat="43.55029" lon="5.58184">
        <ele>437</ele>
        <time>2026-03-20T15:56:41.000Z</time>
      </trkpt>
      <trkpt lat="43.55035" lon="5.58175">
        <ele>435</ele>
        <time>2026-03-20T15:56:51.000Z</time>
      </trkpt>
      <trkpt lat="43.5504" lon="5.58164">
        <ele>432</ele>
        <time>2026-03-20T15:57:04.000Z</time>
      </trkpt>
      <trkpt lat="43.55046" lon="5.58156">
        <ele>429</ele>
        <time>2026-03-20T15:57:33.000Z</time>
      </trkpt>
      <trkpt lat="43.55054" lon="5.58158">
        <ele>426</ele>
        <time>2026-03-20T15:57:49.000Z</time>
      </trkpt>
      <trkpt lat="43.55063" lon="5.58161">
        <ele>424</ele>
        <time>2026-03-20T15:58:13.000Z</time>
      </trkpt>
      <trkpt lat="43.55068" lon="5.58171">
        <ele>422</ele>
        <time>2026-03-20T15:58:35.000Z</time>
      </trkpt>
      <trkpt lat="43.5507" lon="5.58184">
        <ele>420</ele>
        <time>2026-03-20T15:58:45.000Z</time>
      </trkpt>
      <trkpt lat="43.55071" lon="5.58197">
        <ele>419</ele>
        <time>2026-03-20T15:58:55.000Z</time>
      </trkpt>
      <trkpt lat="43.55068" lon="5.5821">
        <ele>417</ele>
        <time>2026-03-20T15:59:03.000Z</time>
      </trkpt>
      <trkpt lat="43.55063" lon="5.58222">
        <ele>416</ele>
        <time>2026-03-20T15:59:13.000Z</time>
      </trkpt>
      <trkpt lat="43.5506" lon="5.58233">
        <ele>415</ele>
        <time>2026-03-20T15:59:23.000Z</time>
      </trkpt>
      <trkpt lat="43.55057" lon="5.58244">
        <ele>414</ele>
        <time>2026-03-20T15:59:31.000Z</time>
      </trkpt>
      <trkpt lat="43.55057" lon="5.58258">
        <ele>413</ele>
        <time>2026-03-20T15:59:43.000Z</time>
      </trkpt>
      <trkpt lat="43.55059" lon="5.58269">
        <ele>413</ele>
        <time>2026-03-20T15:59:53.000Z</time>
      </trkpt>
      <trkpt lat="43.55065" lon="5.58278">
        <ele>412</ele>
        <time>2026-03-20T16:00:03.000Z</time>
      </trkpt>
      <trkpt lat="43.5507" lon="5.58288">
        <ele>411</ele>
        <time>2026-03-20T16:00:10.000Z</time>
      </trkpt>
      <trkpt lat="43.55073" lon="5.583">
        <ele>410</ele>
        <time>2026-03-20T16:00:27.000Z</time>
      </trkpt>
      <trkpt lat="43.55075" lon="5.58312">
        <ele>409</ele>
        <time>2026-03-20T16:00:35.000Z</time>
      </trkpt>
      <trkpt lat="43.55076" lon="5.58325">
        <ele>408</ele>
        <time>2026-03-20T16:00:45.000Z</time>
      </trkpt>
      <trkpt lat="43.55076" lon="5.58337">
        <ele>407</ele>
        <time>2026-03-20T16:00:57.000Z</time>
      </trkpt>
      <trkpt lat="43.55075" lon="5.5835">
        <ele>406</ele>
        <time>2026-03-20T16:01:13.000Z</time>
      </trkpt>
      <trkpt lat="43.55076" lon="5.58362">
        <ele>405</ele>
        <time>2026-03-20T16:01:29.000Z</time>
      </trkpt>
      <trkpt lat="43.55081" lon="5.58371">
        <ele>404</ele>
        <time>2026-03-20T16:01:39.000Z</time>
      </trkpt>
      <trkpt lat="43.55088" lon="5.58382">
        <ele>404</ele>
        <time>2026-03-20T16:01:55.000Z</time>
      </trkpt>
      <trkpt lat="43.55094" lon="5.58392">
        <ele>404</ele>
        <time>2026-03-20T16:02:20.000Z</time>
      </trkpt>
      <trkpt lat="43.55102" lon="5.58398">
        <ele>404</ele>
        <time>2026-03-20T16:03:07.000Z</time>
      </trkpt>
      <trkpt lat="43.55106" lon="5.58406">
        <ele>404</ele>
        <time>2026-03-20T16:03:23.000Z</time>
      </trkpt>
      <trkpt lat="43.55109" lon="5.58401">
        <ele>405</ele>
        <time>2026-03-20T16:03:47.000Z</time>
      </trkpt>
      <trkpt lat="43.55106" lon="5.5841">
        <ele>406</ele>
        <time>2026-03-20T16:04:03.000Z</time>
      </trkpt>
      <trkpt lat="43.55104" lon="5.5842">
        <ele>407</ele>
        <time>2026-03-20T16:04:14.000Z</time>
      </trkpt>
      <trkpt lat="43.55117" lon="5.58422">
        <ele>408</ele>
        <time>2026-03-20T16:05:03.000Z</time>
      </trkpt>
      <trkpt lat="43.55126" lon="5.58412">
        <ele>409</ele>
        <time>2026-03-20T16:05:12.000Z</time>
      </trkpt>
      <trkpt lat="43.55135" lon="5.58407">
        <ele>410</ele>
        <time>2026-03-20T16:05:18.000Z</time>
      </trkpt>
      <trkpt lat="43.55143" lon="5.58403">
        <ele>410</ele>
        <time>2026-03-20T16:05:26.000Z</time>
      </trkpt>
      <trkpt lat="43.55152" lon="5.58404">
        <ele>410</ele>
        <time>2026-03-20T16:05:33.000Z</time>
      </trkpt>
      <trkpt lat="43.5516" lon="5.58401">
        <ele>410</ele>
        <time>2026-03-20T16:05:41.000Z</time>
      </trkpt>
      <trkpt lat="43.55169" lon="5.58401">
        <ele>409</ele>
        <time>2026-03-20T16:05:48.000Z</time>
      </trkpt>
      <trkpt lat="43.5518" lon="5.58403">
        <ele>409</ele>
        <time>2026-03-20T16:06:00.000Z</time>
      </trkpt>
      <trkpt lat="43.55187" lon="5.58409">
        <ele>409</ele>
        <time>2026-03-20T16:06:08.000Z</time>
      </trkpt>
      <trkpt lat="43.55192" lon="5.5842">
        <ele>408</ele>
        <time>2026-03-20T16:06:16.000Z</time>
      </trkpt>
      <trkpt lat="43.55197" lon="5.58431">
        <ele>408</ele>
        <time>2026-03-20T16:06:26.000Z</time>
      </trkpt>
      <trkpt lat="43.55203" lon="5.58439">
        <ele>407</ele>
        <time>2026-03-20T16:06:38.000Z</time>
      </trkpt>
      <trkpt lat="43.55211" lon="5.58447">
        <ele>407</ele>
        <time>2026-03-20T16:06:48.000Z</time>
      </trkpt>
      <trkpt lat="43.55219" lon="5.58455">
        <ele>407</ele>
        <time>2026-03-20T16:06:58.000Z</time>
      </trkpt>
      <trkpt lat="43.55227" lon="5.5846">
        <ele>406</ele>
        <time>2026-03-20T16:07:08.000Z</time>
      </trkpt>
      <trkpt lat="43.55233" lon="5.5847">
        <ele>405</ele>
        <time>2026-03-20T16:07:18.000Z</time>
      </trkpt>
      <trkpt lat="43.55238" lon="5.58482">
        <ele>404</ele>
        <time>2026-03-20T16:07:26.000Z</time>
      </trkpt>
      <trkpt lat="43.55243" lon="5.58492">
        <ele>403</ele>
        <time>2026-03-20T16:07:36.000Z</time>
      </trkpt>
      <trkpt lat="43.55251" lon="5.58497">
        <ele>403</ele>
        <time>2026-03-20T16:07:46.000Z</time>
      </trkpt>
      <trkpt lat="43.55259" lon="5.58492">
        <ele>402</ele>
        <time>2026-03-20T16:07:54.000Z</time>
      </trkpt>
      <trkpt lat="43.55262" lon="5.58481">
        <ele>402</ele>
        <time>2026-03-20T16:08:02.000Z</time>
      </trkpt>
      <trkpt lat="43.55267" lon="5.58469">
        <ele>402</ele>
        <time>2026-03-20T16:08:10.000Z</time>
      </trkpt>
      <trkpt lat="43.55269" lon="5.58457">
        <ele>402</ele>
        <time>2026-03-20T16:08:20.000Z</time>
      </trkpt>
      <trkpt lat="43.55267" lon="5.58444">
        <ele>402</ele>
        <time>2026-03-20T16:08:28.000Z</time>
      </trkpt>
      <trkpt lat="43.55264" lon="5.5843">
        <ele>403</ele>
        <time>2026-03-20T16:08:38.000Z</time>
      </trkpt>
      <trkpt lat="43.55263" lon="5.58417">
        <ele>403</ele>
        <time>2026-03-20T16:08:46.000Z</time>
      </trkpt>
      <trkpt lat="43.55264" lon="5.58405">
        <ele>404</ele>
        <time>2026-03-20T16:08:53.000Z</time>
      </trkpt>
      <trkpt lat="43.55269" lon="5.58394">
        <ele>405</ele>
        <time>2026-03-20T16:09:01.000Z</time>
      </trkpt>
      <trkpt lat="43.55278" lon="5.58388">
        <ele>406</ele>
        <time>2026-03-20T16:09:12.000Z</time>
      </trkpt>
      <trkpt lat="43.55287" lon="5.58383">
        <ele>407</ele>
        <time>2026-03-20T16:09:20.000Z</time>
      </trkpt>
      <trkpt lat="43.55294" lon="5.58376">
        <ele>408</ele>
        <time>2026-03-20T16:09:27.000Z</time>
      </trkpt>
      <trkpt lat="43.55303" lon="5.58373">
        <ele>409</ele>
        <time>2026-03-20T16:09:51.000Z</time>
      </trkpt>
      <trkpt lat="43.55312" lon="5.58366">
        <ele>410</ele>
        <time>2026-03-20T16:10:03.000Z</time>
      </trkpt>
      <trkpt lat="43.5532" lon="5.58355">
        <ele>410</ele>
        <time>2026-03-20T16:10:16.000Z</time>
      </trkpt>
      <trkpt lat="43.55329" lon="5.58353">
        <ele>410</ele>
        <time>2026-03-20T16:10:22.000Z</time>
      </trkpt>
      <trkpt lat="43.55338" lon="5.58355">
        <ele>411</ele>
        <time>2026-03-20T16:10:30.000Z</time>
      </trkpt>
      <trkpt lat="43.55347" lon="5.58356">
        <ele>412</ele>
        <time>2026-03-20T16:10:38.000Z</time>
      </trkpt>
      <trkpt lat="43.55356" lon="5.58358">
        <ele>413</ele>
        <time>2026-03-20T16:10:47.000Z</time>
      </trkpt>
      <trkpt lat="43.55365" lon="5.58351">
        <ele>413</ele>
        <time>2026-03-20T16:10:58.000Z</time>
      </trkpt>
      <trkpt lat="43.55372" lon="5.58341">
        <ele>414</ele>
        <time>2026-03-20T16:11:05.000Z</time>
      </trkpt>
      <trkpt lat="43.55379" lon="5.58332">
        <ele>414</ele>
        <time>2026-03-20T16:11:16.000Z</time>
      </trkpt>
      <trkpt lat="43.55384" lon="5.58323">
        <ele>414</ele>
        <time>2026-03-20T16:11:23.000Z</time>
      </trkpt>
      <trkpt lat="43.55391" lon="5.58329">
        <ele>414</ele>
        <time>2026-03-20T16:13:06.000Z</time>
      </trkpt>
      <trkpt lat="43.55395" lon="5.5834">
        <ele>415</ele>
        <time>2026-03-20T16:13:16.000Z</time>
      </trkpt>
      <trkpt lat="43.55398" lon="5.58352">
        <ele>416</ele>
        <time>2026-03-20T16:13:24.000Z</time>
      </trkpt>
      <trkpt lat="43.55402" lon="5.58362">
        <ele>416</ele>
        <time>2026-03-20T16:13:32.000Z</time>
      </trkpt>
      <trkpt lat="43.55406" lon="5.58374">
        <ele>417</ele>
        <time>2026-03-20T16:13:41.000Z</time>
      </trkpt>
      <trkpt lat="43.55409" lon="5.58387">
        <ele>417</ele>
        <time>2026-03-20T16:13:56.000Z</time>
      </trkpt>
      <trkpt lat="43.55411" lon="5.584">
        <ele>418</ele>
        <time>2026-03-20T16:14:04.000Z</time>
      </trkpt>
      <trkpt lat="43.55413" lon="5.58412">
        <ele>418</ele>
        <time>2026-03-20T16:14:12.000Z</time>
      </trkpt>
      <trkpt lat="43.55415" lon="5.58424">
        <ele>419</ele>
        <time>2026-03-20T16:14:20.000Z</time>
      </trkpt>
      <trkpt lat="43.55418" lon="5.58435">
        <ele>419</ele>
        <time>2026-03-20T16:14:28.000Z</time>
      </trkpt>
      <trkpt lat="43.55422" lon="5.58447">
        <ele>419</ele>
        <time>2026-03-20T16:14:36.000Z</time>
      </trkpt>
      <trkpt lat="43.55424" lon="5.5846">
        <ele>419</ele>
        <time>2026-03-20T16:14:43.000Z</time>
      </trkpt>
      <trkpt lat="43.55425" lon="5.58473">
        <ele>420</ele>
        <time>2026-03-20T16:14:51.000Z</time>
      </trkpt>
      <trkpt lat="43.55427" lon="5.58487">
        <ele>421</ele>
        <time>2026-03-20T16:15:04.000Z</time>
      </trkpt>
      <trkpt lat="43.5543" lon="5.585">
        <ele>422</ele>
        <time>2026-03-20T16:15:14.000Z</time>
      </trkpt>
      <trkpt lat="43.55433" lon="5.58514">
        <ele>423</ele>
        <time>2026-03-20T16:15:24.000Z</time>
      </trkpt>
      <trkpt lat="43.55435" lon="5.58528">
        <ele>424</ele>
        <time>2026-03-20T16:15:34.000Z</time>
      </trkpt>
      <trkpt lat="43.55438" lon="5.58541">
        <ele>424</ele>
        <time>2026-03-20T16:15:44.000Z</time>
      </trkpt>
      <trkpt lat="43.55441" lon="5.58555">
        <ele>425</ele>
        <time>2026-03-20T16:15:56.000Z</time>
      </trkpt>
      <trkpt lat="43.55442" lon="5.5857">
        <ele>426</ele>
        <time>2026-03-20T16:16:04.000Z</time>
      </trkpt>
      <trkpt lat="43.55444" lon="5.58583">
        <ele>427</ele>
        <time>2026-03-20T16:16:14.000Z</time>
      </trkpt>
      <trkpt lat="43.55448" lon="5.58596">
        <ele>428</ele>
        <time>2026-03-20T16:16:21.000Z</time>
      </trkpt>
      <trkpt lat="43.55451" lon="5.58609">
        <ele>430</ele>
        <time>2026-03-20T16:16:34.000Z</time>
      </trkpt>
      <trkpt lat="43.55452" lon="5.58622">
        <ele>432</ele>
        <time>2026-03-20T16:16:42.000Z</time>
      </trkpt>
      <trkpt lat="43.55451" lon="5.58636">
        <ele>433</ele>
        <time>2026-03-20T16:16:54.000Z</time>
      </trkpt>
      <trkpt lat="43.5545" lon="5.5865">
        <ele>435</ele>
        <time>2026-03-20T16:17:02.000Z</time>
      </trkpt>
      <trkpt lat="43.55448" lon="5.58662">
        <ele>436</ele>
        <time>2026-03-20T16:17:10.000Z</time>
      </trkpt>
      <trkpt lat="43.55449" lon="5.58677">
        <ele>437</ele>
        <time>2026-03-20T16:17:18.000Z</time>
      </trkpt>
      <trkpt lat="43.5545" lon="5.58692">
        <ele>439</ele>
        <time>2026-03-20T16:17:26.000Z</time>
      </trkpt>
      <trkpt lat="43.55451" lon="5.58705">
        <ele>440</ele>
        <time>2026-03-20T16:17:36.000Z</time>
      </trkpt>
      <trkpt lat="43.55454" lon="5.58717">
        <ele>442</ele>
        <time>2026-03-20T16:17:44.000Z</time>
      </trkpt>
      <trkpt lat="43.55455" lon="5.5873">
        <ele>443</ele>
        <time>2026-03-20T16:17:52.000Z</time>
      </trkpt>
      <trkpt lat="43.55455" lon="5.58744">
        <ele>444</ele>
        <time>2026-03-20T16:18:02.000Z</time>
      </trkpt>
      <trkpt lat="43.55457" lon="5.58757">
        <ele>444</ele>
        <time>2026-03-20T16:18:10.000Z</time>
      </trkpt>
      <trkpt lat="43.55458" lon="5.58769">
        <ele>444</ele>
        <time>2026-03-20T16:18:17.000Z</time>
      </trkpt>
      <trkpt lat="43.55458" lon="5.58781">
        <ele>444</ele>
        <time>2026-03-20T16:18:24.000Z</time>
      </trkpt>
      <trkpt lat="43.55461" lon="5.58793">
        <ele>444</ele>
        <time>2026-03-20T16:18:31.000Z</time>
      </trkpt>
      <trkpt lat="43.55462" lon="5.58806">
        <ele>443</ele>
        <time>2026-03-20T16:18:39.000Z</time>
      </trkpt>
      <trkpt lat="43.55464" lon="5.58819">
        <ele>443</ele>
        <time>2026-03-20T16:18:52.000Z</time>
      </trkpt>
      <trkpt lat="43.55465" lon="5.58834">
        <ele>444</ele>
        <time>2026-03-20T16:18:59.000Z</time>
      </trkpt>
      <trkpt lat="43.55468" lon="5.58846">
        <ele>444</ele>
        <time>2026-03-20T16:19:08.000Z</time>
      </trkpt>
      <trkpt lat="43.55474" lon="5.58856">
        <ele>444</ele>
        <time>2026-03-20T16:19:14.000Z</time>
      </trkpt>
      <trkpt lat="43.55481" lon="5.58867">
        <ele>444</ele>
        <time>2026-03-20T16:19:22.000Z</time>
      </trkpt>
      <trkpt lat="43.55487" lon="5.58879">
        <ele>444</ele>
        <time>2026-03-20T16:19:30.000Z</time>
      </trkpt>
      <trkpt lat="43.55493" lon="5.58891">
        <ele>443</ele>
        <time>2026-03-20T16:19:40.000Z</time>
      </trkpt>
      <trkpt lat="43.55498" lon="5.58901">
        <ele>442</ele>
        <time>2026-03-20T16:19:48.000Z</time>
      </trkpt>
      <trkpt lat="43.55504" lon="5.58911">
        <ele>442</ele>
        <time>2026-03-20T16:20:00.000Z</time>
      </trkpt>
      <trkpt lat="43.55509" lon="5.58923">
        <ele>442</ele>
        <time>2026-03-20T16:20:09.000Z</time>
      </trkpt>
      <trkpt lat="43.55514" lon="5.58935">
        <ele>442</ele>
        <time>2026-03-20T16:20:18.000Z</time>
      </trkpt>
      <trkpt lat="43.5552" lon="5.58946">
        <ele>442</ele>
        <time>2026-03-20T16:20:28.000Z</time>
      </trkpt>
      <trkpt lat="43.55524" lon="5.58956">
        <ele>442</ele>
        <time>2026-03-20T16:20:40.000Z</time>
      </trkpt>
      <trkpt lat="43.55525" lon="5.58968">
        <ele>442</ele>
        <time>2026-03-20T16:20:54.000Z</time>
      </trkpt>
      <trkpt lat="43.55531" lon="5.58976">
        <ele>441</ele>
        <time>2026-03-20T16:23:18.000Z</time>
      </trkpt>
      <trkpt lat="43.55538" lon="5.58986">
        <ele>441</ele>
        <time>2026-03-20T16:23:28.000Z</time>
      </trkpt>
      <trkpt lat="43.55542" lon="5.58998">
        <ele>441</ele>
        <time>2026-03-20T16:23:36.000Z</time>
      </trkpt>
      <trkpt lat="43.55549" lon="5.59009">
        <ele>442</ele>
        <time>2026-03-20T16:23:46.000Z</time>
      </trkpt>
      <trkpt lat="43.55552" lon="5.59021">
        <ele>442</ele>
        <time>2026-03-20T16:23:54.000Z</time>
      </trkpt>
      <trkpt lat="43.55554" lon="5.59033">
        <ele>443</ele>
        <time>2026-03-20T16:24:04.000Z</time>
      </trkpt>
      <trkpt lat="43.55558" lon="5.59044">
        <ele>444</ele>
        <time>2026-03-20T16:24:11.000Z</time>
      </trkpt>
      <trkpt lat="43.55563" lon="5.59053">
        <ele>444</ele>
        <time>2026-03-20T16:24:22.000Z</time>
      </trkpt>
      <trkpt lat="43.55566" lon="5.59065">
        <ele>445</ele>
        <time>2026-03-20T16:24:34.000Z</time>
      </trkpt>
      <trkpt lat="43.5557" lon="5.59077">
        <ele>445</ele>
        <time>2026-03-20T16:24:46.000Z</time>
      </trkpt>
      <trkpt lat="43.55574" lon="5.59089">
        <ele>445</ele>
        <time>2026-03-20T16:24:54.000Z</time>
      </trkpt>
      <trkpt lat="43.55576" lon="5.59102">
        <ele>445</ele>
        <time>2026-03-20T16:25:04.000Z</time>
      </trkpt>
      <trkpt lat="43.55578" lon="5.59115">
        <ele>444</ele>
        <time>2026-03-20T16:25:12.000Z</time>
      </trkpt>
      <trkpt lat="43.55576" lon="5.59127">
        <ele>444</ele>
        <time>2026-03-20T16:25:20.000Z</time>
      </trkpt>
      <trkpt lat="43.55573" lon="5.59139">
        <ele>444</ele>
        <time>2026-03-20T16:25:28.000Z</time>
      </trkpt>
      <trkpt lat="43.55568" lon="5.5915">
        <ele>444</ele>
        <time>2026-03-20T16:25:38.000Z</time>
      </trkpt>
      <trkpt lat="43.55564" lon="5.59162">
        <ele>445</ele>
        <time>2026-03-20T16:25:46.000Z</time>
      </trkpt>
      <trkpt lat="43.55564" lon="5.59177">
        <ele>445</ele>
        <time>2026-03-20T16:25:55.000Z</time>
      </trkpt>
      <trkpt lat="43.55564" lon="5.5919">
        <ele>445</ele>
        <time>2026-03-20T16:26:04.000Z</time>
      </trkpt>
      <trkpt lat="43.55562" lon="5.59201">
        <ele>446</ele>
        <time>2026-03-20T16:26:12.000Z</time>
      </trkpt>
      <trkpt lat="43.55562" lon="5.59214">
        <ele>447</ele>
        <time>2026-03-20T16:26:20.000Z</time>
      </trkpt>
      <trkpt lat="43.55562" lon="5.59228">
        <ele>448</ele>
        <time>2026-03-20T16:26:28.000Z</time>
      </trkpt>
      <trkpt lat="43.55561" lon="5.59243">
        <ele>448</ele>
        <time>2026-03-20T16:26:38.000Z</time>
      </trkpt>
      <trkpt lat="43.55561" lon="5.59257">
        <ele>449</ele>
        <time>2026-03-20T16:26:48.000Z</time>
      </trkpt>
      <trkpt lat="43.55559" lon="5.5927">
        <ele>450</ele>
        <time>2026-03-20T16:26:56.000Z</time>
      </trkpt>
      <trkpt lat="43.55557" lon="5.59285">
        <ele>450</ele>
        <time>2026-03-20T16:27:06.000Z</time>
      </trkpt>
      <trkpt lat="43.55554" lon="5.59298">
        <ele>451</ele>
        <time>2026-03-20T16:27:14.000Z</time>
      </trkpt>
      <trkpt lat="43.55552" lon="5.59311">
        <ele>452</ele>
        <time>2026-03-20T16:27:26.000Z</time>
      </trkpt>
      <trkpt lat="43.55552" lon="5.59323">
        <ele>453</ele>
        <time>2026-03-20T16:27:34.000Z</time>
      </trkpt>
      <trkpt lat="43.55552" lon="5.59336">
        <ele>454</ele>
        <time>2026-03-20T16:27:42.000Z</time>
      </trkpt>
      <trkpt lat="43.55551" lon="5.5935">
        <ele>455</ele>
        <time>2026-03-20T16:27:50.000Z</time>
      </trkpt>
      <trkpt lat="43.55548" lon="5.59362">
        <ele>455</ele>
        <time>2026-03-20T16:27:59.000Z</time>
      </trkpt>
      <trkpt lat="43.55543" lon="5.59373">
        <ele>456</ele>
        <time>2026-03-20T16:28:06.000Z</time>
      </trkpt>
      <trkpt lat="43.5554" lon="5.59386">
        <ele>457</ele>
        <time>2026-03-20T16:28:15.000Z</time>
      </trkpt>
      <trkpt lat="43.55536" lon="5.59399">
        <ele>458</ele>
        <time>2026-03-20T16:28:24.000Z</time>
      </trkpt>
      <trkpt lat="43.55535" lon="5.59413">
        <ele>459</ele>
        <time>2026-03-20T16:28:32.000Z</time>
      </trkpt>
      <trkpt lat="43.55535" lon="5.59426">
        <ele>460</ele>
        <time>2026-03-20T16:28:42.000Z</time>
      </trkpt>
      <trkpt lat="43.55536" lon="5.59438">
        <ele>461</ele>
        <time>2026-03-20T16:28:48.000Z</time>
      </trkpt>
      <trkpt lat="43.5553" lon="5.59448">
        <ele>462</ele>
        <time>2026-03-20T16:28:56.000Z</time>
      </trkpt>
      <trkpt lat="43.55527" lon="5.59459">
        <ele>463</ele>
        <time>2026-03-20T16:29:04.000Z</time>
      </trkpt>
      <trkpt lat="43.55523" lon="5.59471">
        <ele>464</ele>
        <time>2026-03-20T16:29:12.000Z</time>
      </trkpt>
      <trkpt lat="43.55519" lon="5.59484">
        <ele>465</ele>
        <time>2026-03-20T16:29:20.000Z</time>
      </trkpt>
      <trkpt lat="43.55516" lon="5.59497">
        <ele>466</ele>
        <time>2026-03-20T16:29:28.000Z</time>
      </trkpt>
      <trkpt lat="43.55514" lon="5.59508">
        <ele>467</ele>
        <time>2026-03-20T16:29:36.000Z</time>
      </trkpt>
      <trkpt lat="43.55509" lon="5.59518">
        <ele>468</ele>
        <time>2026-03-20T16:29:43.000Z</time>
      </trkpt>
      <trkpt lat="43.55505" lon="5.59529">
        <ele>469</ele>
        <time>2026-03-20T16:29:52.000Z</time>
      </trkpt>
      <trkpt lat="43.55502" lon="5.59543">
        <ele>469</ele>
        <time>2026-03-20T16:30:01.000Z</time>
      </trkpt>
      <trkpt lat="43.55499" lon="5.59557">
        <ele>470</ele>
        <time>2026-03-20T16:30:10.000Z</time>
      </trkpt>
      <trkpt lat="43.55497" lon="5.5957">
        <ele>471</ele>
        <time>2026-03-20T16:30:18.000Z</time>
      </trkpt>
      <trkpt lat="43.55496" lon="5.59584">
        <ele>472</ele>
        <time>2026-03-20T16:30:30.000Z</time>
      </trkpt>
      <trkpt lat="43.55495" lon="5.59597">
        <ele>473</ele>
        <time>2026-03-20T16:30:38.000Z</time>
      </trkpt>
      <trkpt lat="43.55495" lon="5.5961">
        <ele>474</ele>
        <time>2026-03-20T16:30:46.000Z</time>
      </trkpt>
      <trkpt lat="43.55494" lon="5.59624">
        <ele>475</ele>
        <time>2026-03-20T16:30:56.000Z</time>
      </trkpt>
      <trkpt lat="43.55493" lon="5.59637">
        <ele>475</ele>
        <time>2026-03-20T16:31:04.000Z</time>
      </trkpt>
      <trkpt lat="43.55493" lon="5.59651">
        <ele>475</ele>
        <time>2026-03-20T16:31:12.000Z</time>
      </trkpt>
      <trkpt lat="43.55492" lon="5.59665">
        <ele>475</ele>
        <time>2026-03-20T16:31:22.000Z</time>
      </trkpt>
      <trkpt lat="43.55487" lon="5.59675">
        <ele>475</ele>
        <time>2026-03-20T16:31:49.000Z</time>
      </trkpt>
      <trkpt lat="43.55485" lon="5.59687">
        <ele>475</ele>
        <time>2026-03-20T16:31:56.000Z</time>
      </trkpt>
      <trkpt lat="43.55488" lon="5.597">
        <ele>475</ele>
        <time>2026-03-20T16:32:04.000Z</time>
      </trkpt>
      <trkpt lat="43.55492" lon="5.59714">
        <ele>475</ele>
        <time>2026-03-20T16:32:19.000Z</time>
      </trkpt>
      <trkpt lat="43.55494" lon="5.59729">
        <ele>475</ele>
        <time>2026-03-20T16:32:27.000Z</time>
      </trkpt>
      <trkpt lat="43.55495" lon="5.59743">
        <ele>475</ele>
        <time>2026-03-20T16:32:38.000Z</time>
      </trkpt>
      <trkpt lat="43.55497" lon="5.59756">
        <ele>475</ele>
        <time>2026-03-20T16:32:48.000Z</time>
      </trkpt>
      <trkpt lat="43.55489" lon="5.5976">
        <ele>475</ele>
        <time>2026-03-20T16:33:00.000Z</time>
      </trkpt>
      <trkpt lat="43.5548" lon="5.59758">
        <ele>476</ele>
        <time>2026-03-20T16:33:13.000Z</time>
      </trkpt>
      <trkpt lat="43.5547" lon="5.59756">
        <ele>476</ele>
        <time>2026-03-20T16:33:23.000Z</time>
      </trkpt>
      <trkpt lat="43.55461" lon="5.59755">
        <ele>475</ele>
        <time>2026-03-20T16:33:32.000Z</time>
      </trkpt>
      <trkpt lat="43.55453" lon="5.59761">
        <ele>474</ele>
        <time>2026-03-20T16:33:40.000Z</time>
      </trkpt>
    </trkseg>
  </trk>
</gpx>